Darstellungsparameter: Aktuell verwendete Einstellungen:
Skalierung der Graphiken ... ?
xyx+y,   Skalierungsfaktor:      Skalierung: Modus: x, Faktor: 1
Darstellungszeitraum ... ?
Vom - - bis: - -   Zeitraum: 06.03.2008 - 05.09.2008
Min/Max/Avg-Anzeige ... ?
Zeige MMA aktuell
Zeige MMA Monat
Zeige MMA alles
Zeige --A aktuell
Zeige --A Monat
Zeige --A alles
Keine MMA-Anzeige
MMA:
Keine MMA-Graphiken
MMA-Basis: 06.03.2008 - 05.09.2008
Quicknavigation für Darstellung... ?
Tage:      1T, 2T, 3T, 5T -1T -2T -3T -5T +1T +2T +3T +5T
Wochen: 1W, 2W, 3W -1W -2W -3W +1W +2W +3W
Monate: 1M, 3M, 6M -1M -3M -6M +1M +3M +6M
Jahre:    1J, 3J, 5J, 10J -1J -3J -5J -10J +1J +3J +5J +10J
Nutze für die Darstellung ... ?
Originaldaten oder Mittelwerte auf ...
Stundenbasis Tagesbasis Wochenbasis
Monatsbasis Jahresbasis      Datenbasis: Original-Daten
Darstellen als:
Statistik (Auto) Statistik J:M      Darstellung:
Zur Graphik,    zurück zur Übersicht aller Sensoren.
 
Tabellarische Datenbersicht: ?
 
<
Sensor: Nr:Datum:Temp:Feuchte:Taupunkt:
Aussen-T/F 1 06-03-2008 00:07:02 -1.1 C 65 % -6.83 C
2 06-03-2008 00:19:02 -1.3 C 66 % -6.82 C
3 06-03-2008 00:31:02 -1.4 C 66 % -6.92 C
4 06-03-2008 00:43:03 -1.3 C 66 % -6.82 C
5 06-03-2008 00:55:03 -1.3 C 67 % -6.63 C
6 06-03-2008 01:07:03 -1.3 C 67 % -6.63 C
7 06-03-2008 01:19:03 -1.3 C 67 % -6.63 C
8 06-03-2008 01:31:03 -1.2 C 66 % -6.73 C
9 06-03-2008 01:43:03 -1.2 C 66 % -6.73 C
10 06-03-2008 01:55:03 -1.2 C 66 % -6.73 C
11 06-03-2008 02:07:03 -1.2 C 65 % -6.93 C
12 06-03-2008 02:19:03 -1.1 C 65 % -6.83 C
13 06-03-2008 02:31:03 -1.1 C 65 % -6.83 C
14 06-03-2008 02:43:03 -1.2 C 65 % -6.93 C
15 06-03-2008 02:55:03 -1.3 C 65 % -7.02 C
16 06-03-2008 03:07:03 -1.3 C 66 % -6.82 C
17 06-03-2008 03:19:03 -1.3 C 65 % -7.02 C
18 06-03-2008 03:31:03 -1.3 C 65 % -7.02 C
19 06-03-2008 03:43:03 -1.3 C 65 % -7.02 C
20 06-03-2008 03:55:03 -1.4 C 65 % -7.12 C
21 06-03-2008 04:07:03 -1.3 C 65 % -7.02 C
22 06-03-2008 04:19:03 -1.4 C 65 % -7.12 C
23 06-03-2008 04:31:03 -1.2 C 64 % -7.13 C
24 06-03-2008 04:43:03 -1.2 C 64 % -7.13 C
25 06-03-2008 04:55:04 -1.5 C 64 % -7.41 C
Sensor: Nr:Datum:Temp:Feuchte:Taupunkt:
Aussen-T/F 26 06-03-2008 05:07:04 -1.4 C 64 % -7.32 C
27 06-03-2008 05:19:04 -1.5 C 63 % -7.62 C
28 06-03-2008 05:31:04 -1.3 C 63 % -7.43 C
29 06-03-2008 05:43:04 -1 C 60 % -7.77 C
30 06-03-2008 05:55:04 -0.5 C 56 % -8.19 C
31 06-03-2008 06:07:04 -0.2 C 54 % -8.37 C
32 06-03-2008 06:19:04 0.3 C 52 % -8.38 C
33 06-03-2008 06:31:04 0.6 C 50 % -8.6 C
34 06-03-2008 06:43:04 0.8 C 50 % -8.42 C
35 06-03-2008 06:55:04 0.8 C 50 % -8.42 C
36 06-03-2008 07:07:02 0.9 C 51 % -8.07 C
37 06-03-2008 07:19:02 0.9 C 51 % -8.07 C
38 06-03-2008 07:31:02 0.8 C 52 % -7.92 C
39 06-03-2008 07:43:02 0.8 C 51 % -8.16 C
40 06-03-2008 07:55:02 0.9 C 50 % -8.33 C
41 06-03-2008 08:07:02 1 C 49 % -8.49 C
42 06-03-2008 08:19:02 1.1 C 49 % -8.4 C
43 06-03-2008 08:31:03 1.1 C 49 % -8.4 C
44 06-03-2008 08:43:03 1.3 C 48 % -8.48 C
45 06-03-2008 08:55:02 1.5 C 48 % -8.29 C
46 06-03-2008 09:07:02 1.5 C 48 % -8.29 C
47 06-03-2008 09:19:01 1.7 C 48 % -8.11 C
48 06-03-2008 09:31:02 1.8 C 47 % -8.29 C
49 06-03-2008 09:43:02 2 C 46 % -8.38 C
50 06-03-2008 09:55:02 2.1 C 46 % -8.29 C
Sensor: Nr:Datum:Temp:Feuchte:Taupunkt:
Aussen-T/F 51 06-03-2008 10:07:01 2.2 C 46 % -8.2 C
52 06-03-2008 10:19:01 2.4 C 46 % -8.01 C
53 06-03-2008 10:31:02 2.6 C 46 % -7.83 C
54 06-03-2008 10:43:02 2.8 C 45 % -7.93 C
55 06-03-2008 10:55:02 3 C 44 % -8.04 C
56 06-03-2008 11:07:02 3.2 C 44 % -7.85 C
57 06-03-2008 11:19:02 3.5 C 43 % -7.88 C
58 06-03-2008 11:31:02 4 C 42 % -7.73 C
59 06-03-2008 11:43:02 4 C 41 % -8.04 C
60 06-03-2008 11:55:01 4 C 41 % -8.04 C
61 06-03-2008 12:07:01 4.4 C 41 % -7.68 C
62 06-03-2008 12:19:02 4.5 C 40 % -7.9 C
63 06-03-2008 12:31:01 4.3 C 41 % -7.77 C
64 06-03-2008 12:43:01 4.2 C 42 % -7.55 C
65 06-03-2008 12:55:02 4.3 C 42 % -7.46 C
66 06-03-2008 13:07:01 4.6 C 41 % -7.49 C
67 06-03-2008 13:19:02 4.8 C 40 % -7.63 C
68 06-03-2008 13:31:02 4.8 C 41 % -7.31 C
69 06-03-2008 13:43:03 5.2 C 40 % -7.27 C
70 06-03-2008 13:55:02 5.2 C 39 % -7.6 C
71 06-03-2008 14:07:02 5.4 C 40 % -7.09 C
72 06-03-2008 14:19:02 5.4 C 40 % -7.09 C
73 06-03-2008 14:31:02 5.6 C 40 % -6.91 C
74 06-03-2008 14:43:02 5.5 C 40 % -7 C
75 06-03-2008 14:55:02 5.8 C 40 % -6.73 C
Sensor: Nr:Datum:Temp:Feuchte:Taupunkt:
Aussen-T/F 76 06-03-2008 15:07:02 5.7 C 40 % -6.82 C
77 06-03-2008 15:19:01 6.1 C 40 % -6.46 C
78 06-03-2008 15:31:02 5.9 C 40 % -6.64 C
79 06-03-2008 15:43:02 6 C 41 % -6.23 C
80 06-03-2008 15:55:01 6.1 C 40 % -6.46 C
81 06-03-2008 16:07:02 6.1 C 40 % -6.46 C
82 06-03-2008 16:19:02 6.2 C 41 % -6.05 C
83 06-03-2008 16:31:01 6.2 C 41 % -6.05 C
84 06-03-2008 16:43:01 6.3 C 41 % -5.96 C
85 06-03-2008 16:55:02 6.3 C 41 % -5.96 C
86 06-03-2008 17:07:01 6.2 C 41 % -6.05 C
87 06-03-2008 17:19:02 6.1 C 42 % -5.83 C
88 06-03-2008 17:31:02 6.1 C 43 % -5.52 C
89 06-03-2008 17:43:02 5.9 C 45 % -5.1 C
90 06-03-2008 17:55:02 5.7 C 45 % -5.29 C
91 06-03-2008 18:07:02 5.7 C 45 % -5.29 C
92 06-03-2008 18:19:02 5.6 C 46 % -5.09 C
93 06-03-2008 18:31:02 5.4 C 47 % -4.99 C
94 06-03-2008 18:43:02 5.3 C 47 % -5.08 C
95 06-03-2008 18:55:02 5.3 C 48 % -4.8 C
96 06-03-2008 19:07:02 5.3 C 48 % -4.8 C
97 06-03-2008 19:19:02 5.4 C 47 % -4.99 C
98 06-03-2008 19:31:02 5.4 C 48 % -4.71 C
99 06-03-2008 19:43:02 5.4 C 50 % -4.17 C
100 06-03-2008 19:55:02 5.3 C 51 % -4 C
Sensor: Nr:Datum:Temp:Feuchte:Taupunkt:
Aussen-T/F 101 06-03-2008 20:07:01 5.2 C 50 % -4.35 C
102 06-03-2008 20:19:02 5.3 C 49 % -4.53 C
103 06-03-2008 20:31:02 5.3 C 50 % -4.26 C
104 06-03-2008 20:43:02 5.2 C 51 % -4.09 C
105 06-03-2008 20:55:02 5.1 C 52 % -3.93 C
106 06-03-2008 21:07:02 5.2 C 51 % -4.09 C
107 06-03-2008 21:19:02 5.2 C 52 % -3.83 C
108 06-03-2008 21:31:03 5.1 C 52 % -3.93 C
109 06-03-2008 21:43:03 5.2 C 52 % -3.83 C
110 06-03-2008 21:56:02 5.2 C 53 % -3.58 C
111 06-03-2008 22:08:02 5.3 C 52 % -3.74 C
112 06-03-2008 22:20:02 5.2 C 53 % -3.58 C
113 06-03-2008 22:32:02 5.2 C 53 % -3.58 C
114 06-03-2008 22:44:02 5.1 C 53 % -3.67 C
115 06-03-2008 22:56:02 5.1 C 52 % -3.93 C
116 06-03-2008 23:08:02 5.1 C 53 % -3.67 C
117 06-03-2008 23:20:03 5.1 C 53 % -3.67 C
118 06-03-2008 23:32:03 5.1 C 53 % -3.67 C
119 06-03-2008 23:44:03 5 C 54 % -3.52 C
120 06-03-2008 23:56:03 5.1 C 54 % -3.42 C
121 07-03-2008 00:08:03 5 C 55 % -3.27 C
122 07-03-2008 00:20:03 5 C 54 % -3.52 C
123 07-03-2008 00:32:03 5 C 57 % -2.79 C
124 07-03-2008 00:44:03 5 C 56 % -3.03 C
125 07-03-2008 00:56:03 4.9 C 58 % -2.65 C
Sensor: Nr:Datum:Temp:Feuchte:Taupunkt:
Aussen-T/F 126 07-03-2008 01:08:03 5 C 57 % -2.79 C
127 07-03-2008 01:20:03 5 C 57 % -2.79 C
128 07-03-2008 01:32:03 4.9 C 59 % -2.42 C
129 07-03-2008 01:44:03 4.9 C 59 % -2.42 C
130 07-03-2008 01:56:03 4.9 C 58 % -2.65 C
131 07-03-2008 02:08:03 4.8 C 57 % -2.98 C
132 07-03-2008 02:20:03 4.8 C 58 % -2.75 C
133 07-03-2008 02:32:03 4.8 C 58 % -2.75 C
134 07-03-2008 02:44:03 4.8 C 59 % -2.52 C
135 07-03-2008 02:56:03 4.8 C 59 % -2.52 C
136 07-03-2008 03:08:03 4.8 C 59 % -2.52 C
137 07-03-2008 03:20:04 4.8 C 60 % -2.29 C
138 07-03-2008 03:32:04 4.8 C 60 % -2.29 C
139 07-03-2008 03:44:04 4.8 C 60 % -2.29 C
140 07-03-2008 03:56:04 4.8 C 60 % -2.29 C
141 07-03-2008 04:08:04 4.8 C 60 % -2.29 C
142 07-03-2008 04:20:04 4.8 C 61 % -2.07 C
143 07-03-2008 04:32:04 4.8 C 62 % -1.85 C
144 07-03-2008 04:44:04 4.7 C 63 % -1.73 C
145 07-03-2008 04:56:04 4.5 C 65 % -1.49 C
146 07-03-2008 05:08:04 4.4 C 68 % -0.98 C
147 07-03-2008 05:20:04 4.3 C 71 % -0.48 C
148 07-03-2008 05:32:04 4.2 C 73 % -0.2 C
149 07-03-2008 05:44:04 4.3 C 73 % -0.1 C
150 07-03-2008 05:56:04 4.4 C 73 % 0 C
Sensor: Nr:Datum:Temp:Feuchte:Taupunkt:
Aussen-T/F 151 07-03-2008 06:08:04 4.2 C 74 % -0.01 C
152 07-03-2008 06:20:04 3.9 C 75 % -0.12 C
153 07-03-2008 06:32:04 3.7 C 77 % 0.05 C
154 07-03-2008 06:44:04 3.4 C 78 % -0.06 C
155 07-03-2008 06:56:04 3.4 C 79 % 0.11 C
156 07-03-2008 07:08:03 3.3 C 79 % 0.02 C
157 07-03-2008 07:20:03 3 C 79 % -0.28 C
158 07-03-2008 07:32:02 2.9 C 81 % -0.03 C
159 07-03-2008 07:44:02 2.7 C 81 % -0.23 C
160 07-03-2008 07:56:01 2.8 C 83 % 0.21 C
161 07-03-2008 08:08:02 3 C 82 % 0.24 C
162 07-03-2008 08:20:02 3.2 C 83 % 0.6 C
163 07-03-2008 08:32:01 3.7 C 84 % 1.25 C
164 07-03-2008 08:44:01 4.4 C 83 % 1.77 C
165 07-03-2008 08:56:01 5 C 81 % 2.02 C
166 07-03-2008 09:08:02 5.4 C 76 % 1.52 C
167 07-03-2008 09:20:02 5.8 C 73 % 1.34 C
168 07-03-2008 09:32:02 6.2 C 69 % 0.95 C
169 07-03-2008 09:44:02 6.3 C 66 % 0.43 C
170 07-03-2008 09:56:02 6.4 C 65 % 0.31 C
171 07-03-2008 10:08:02 6.9 C 65 % 0.79 C
172 07-03-2008 10:20:02 7 C 62 % 0.23 C
173 07-03-2008 10:32:02 7.4 C 62 % 0.61 C
174 07-03-2008 10:44:02 7.4 C 60 % 0.16 C
175 07-03-2008 10:56:02 7.6 C 60 % 0.35 C
Sensor: Nr:Datum:Temp:Feuchte:Taupunkt:
Aussen-T/F 176 07-03-2008 11:08:02 7.8 C 60 % 0.53 C
177 07-03-2008 11:20:01 7.7 C 59 % 0.21 C
178 07-03-2008 11:32:01 7.9 C 59 % 0.4 C
179 07-03-2008 11:44:01 8.1 C 58 % 0.35 C
180 07-03-2008 11:56:01 8.4 C 57 % 0.39 C
181 07-03-2008 12:08:02 8.5 C 56 % 0.24 C
182 07-03-2008 12:20:02 8.4 C 56 % 0.15 C
183 07-03-2008 12:32:01 8.3 C 56 % 0.05 C
184 07-03-2008 12:44:01 8.5 C 56 % 0.24 C
185 07-03-2008 12:56:01 8.6 C 56 % 0.33 C
186 07-03-2008 13:08:02 8.8 C 55 % 0.27 C
187 07-03-2008 13:20:02 9.6 C 52 % 0.24 C
188 07-03-2008 13:32:02 10.5 C 49 % 0.25 C
189 07-03-2008 13:44:02 10.5 C 47 % -0.32 C
190 07-03-2008 13:56:02 10.5 C 47 % -0.32 C
191 07-03-2008 14:08:02 10.7 C 47 % -0.14 C
192 07-03-2008 14:20:02 10.7 C 46 % -0.43 C
193 07-03-2008 14:32:02 11 C 46 % -0.16 C
194 07-03-2008 14:44:02 10.9 C 45 % -0.55 C
195 07-03-2008 14:56:01 10.8 C 46 % -0.34 C
196 07-03-2008 15:08:01 11.6 C 45 % 0.09 C
197 07-03-2008 15:20:02 11.8 C 45 % 0.27 C
198 07-03-2008 15:32:01 11.1 C 45 % -0.37 C
199 07-03-2008 15:44:01 10.6 C 47 % -0.23 C
200 07-03-2008 15:56:02 10.3 C 48 % -0.21 C
Sensor: Nr:Datum:Temp:Feuchte:Taupunkt:
Aussen-T/F 201 07-03-2008 16:08:02 10.1 C 50 % 0.16 C
202 07-03-2008 16:20:02 9.9 C 51 % 0.25 C
203 07-03-2008 16:32:03 9.8 C 52 % 0.43 C
204 07-03-2008 16:44:03 9.5 C 52 % 0.15 C
205 07-03-2008 16:56:03 9.2 C 53 % 0.13 C
206 07-03-2008 17:08:02 9.3 C 54 % 0.48 C
207 07-03-2008 17:20:02 9.4 C 54 % 0.58 C
208 07-03-2008 17:32:03 9.5 C 54 % 0.67 C
209 07-03-2008 17:44:04 9.4 C 55 % 0.83 C
210 07-03-2008 17:56:02 9.3 C 56 % 0.99 C
211 07-03-2008 18:08:01 9.2 C 57 % 1.14 C
212 07-03-2008 18:20:01 9 C 58 % 1.19 C
213 07-03-2008 18:32:01 8.8 C 60 % 1.48 C
214 07-03-2008 18:44:01 8.6 C 61 % 1.52 C
215 07-03-2008 18:56:02 8.5 C 61 % 1.42 C
216 07-03-2008 19:08:01 8.4 C 61 % 1.33 C
217 07-03-2008 19:20:02 8.4 C 60 % 1.1 C
218 07-03-2008 19:32:02 8.4 C 59 % 0.87 C
219 07-03-2008 19:44:02 8.4 C 55 % -0.1 C
220 07-03-2008 19:56:02 8.2 C 57 % 0.2 C
221 07-03-2008 20:08:02 7.9 C 60 % 0.63 C
222 07-03-2008 20:20:03 7.7 C 63 % 1.11 C
223 07-03-2008 20:32:02 7.7 C 64 % 1.33 C
224 07-03-2008 20:44:03 7.7 C 63 % 1.11 C
225 07-03-2008 20:56:02 7.6 C 63 % 1.02 C
Sensor: Nr:Datum:Temp:Feuchte:Taupunkt:
Aussen-T/F 226 07-03-2008 21:08:02 7.6 C 63 % 1.02 C
227 07-03-2008 21:20:02 7.5 C 63 % 0.92 C
228 07-03-2008 21:32:02 7.5 C 62 % 0.7 C
229 07-03-2008 21:44:02 7.5 C 62 % 0.7 C
230 07-03-2008 21:56:02 7.4 C 62 % 0.61 C
231 07-03-2008 22:09:02 7.4 C 63 % 0.83 C
232 07-03-2008 22:21:02 7.4 C 63 % 0.83 C
233 07-03-2008 22:33:03 7.3 C 62 % 0.51 C
234 07-03-2008 22:45:03 7.2 C 63 % 0.64 C
235 07-03-2008 22:57:03 7.1 C 64 % 0.76 C
236 07-03-2008 23:09:03 7.1 C 64 % 0.76 C
237 07-03-2008 23:21:03 7 C 64 % 0.67 C
238 07-03-2008 23:33:03 7.1 C 63 % 0.55 C
239 07-03-2008 23:45:03 7.1 C 62 % 0.33 C
240 07-03-2008 23:57:03 7.1 C 62 % 0.33 C
241 08-03-2008 00:09:03 7 C 62 % 0.23 C
242 08-03-2008 00:21:03 7.1 C 62 % 0.33 C
243 08-03-2008 00:33:03 7 C 63 % 0.45 C
244 08-03-2008 00:45:03 6.9 C 65 % 0.79 C
245 08-03-2008 00:57:03 6.8 C 66 % 0.9 C
246 08-03-2008 01:09:03 6.7 C 68 % 1.22 C
247 08-03-2008 01:21:03 6.7 C 69 % 1.43 C
248 08-03-2008 01:33:03 6.7 C 69 % 1.43 C
249 08-03-2008 01:45:03 6.7 C 69 % 1.43 C
250 08-03-2008 01:57:03 6.7 C 68 % 1.22 C
Sensor: Nr:Datum:Temp:Feuchte:Taupunkt:
Aussen-T/F 251 08-03-2008 02:09:03 6.7 C 68 % 1.22 C
252 08-03-2008 02:21:04 6.7 C 69 % 1.43 C
253 08-03-2008 02:33:04 6.4 C 71 % 1.54 C
254 08-03-2008 02:45:04 6.2 C 74 % 1.92 C
255 08-03-2008 02:57:04 6.1 C 75 % 2.01 C
256 08-03-2008 03:09:04 6.1 C 76 % 2.2 C
257 08-03-2008 03:21:04 6 C 77 % 2.28 C
258 08-03-2008 03:33:04 5.9 C 79 % 2.54 C
259 08-03-2008 03:45:04 5.9 C 80 % 2.72 C
260 08-03-2008 03:57:04 5.9 C 80 % 2.72 C
261 08-03-2008 04:09:04 5.9 C 80 % 2.72 C
262 08-03-2008 04:21:04 5.8 C 80 % 2.62 C
263 08-03-2008 04:33:04 5.7 C 81 % 2.7 C
264 08-03-2008 04:45:04 5.7 C 82 % 2.87 C
265 08-03-2008 04:57:04 5.7 C 81 % 2.7 C
266 08-03-2008 05:09:04 5.7 C 81 % 2.7 C
267 08-03-2008 05:21:04 5.5 C 81 % 2.51 C
268 08-03-2008 05:33:04 5.3 C 81 % 2.31 C
269 08-03-2008 05:45:04 5.2 C 82 % 2.39 C
270 08-03-2008 05:57:04 4.9 C 82 % 2.09 C
271 08-03-2008 06:09:04 4.6 C 82 % 1.8 C
272 08-03-2008 06:21:05 4.4 C 82 % 1.6 C
273 08-03-2008 06:33:05 4.2 C 82 % 1.41 C
274 08-03-2008 06:45:05 4.2 C 83 % 1.58 C
275 08-03-2008 06:57:05 3.9 C 84 % 1.45 C
Sensor: Nr:Datum:Temp:Feuchte:Taupunkt:
Aussen-T/F 276 08-03-2008 07:09:05 4.2 C 84 % 1.74 C
277 08-03-2008 07:21:05 4.1 C 85 % 1.81 C
278 08-03-2008 07:33:05 4.1 C 86 % 1.97 C
279 08-03-2008 07:45:05 4.1 C 86 % 1.97 C
280 08-03-2008 07:57:05 4.4 C 87 % 2.43 C
281 08-03-2008 08:09:05 4.4 C 86 % 2.27 C
282 08-03-2008 08:21:05 4.3 C 86 % 2.17 C
283 08-03-2008 08:33:05 4 C 85 % 1.71 C
284 08-03-2008 08:45:05 4 C 87 % 2.04 C
285 08-03-2008 08:57:05 4.1 C 88 % 2.3 C
286 08-03-2008 09:09:05 4.4 C 88 % 2.59 C
287 08-03-2008 09:21:05 4.5 C 87 % 2.53 C
288 08-03-2008 09:33:05 4.8 C 86 % 2.66 C
289 08-03-2008 09:45:02 5.2 C 81 % 2.21 C
290 08-03-2008 09:57:02 5.6 C 76 % 1.71 C
291 08-03-2008 10:09:02 6 C 68 % 0.55 C
292 08-03-2008 10:21:02 6.4 C 62 % -0.34 C
293 08-03-2008 10:33:02 6.8 C 54 % -1.84 C
294 08-03-2008 10:45:01 6.9 C 54 % -1.75 C
295 08-03-2008 10:57:01 7.3 C 49 % -2.69 C
296 08-03-2008 11:09:02 7.4 C 49 % -2.6 C
297 08-03-2008 11:21:01 7.6 C 45 % -3.55 C
298 08-03-2008 11:33:01 8.1 C 40 % -4.66 C
299 08-03-2008 11:45:02 8.2 C 38 % -5.25 C
300 08-03-2008 11:57:02 8.6 C 38 % -4.89 C
Sensor: Nr:Datum:Temp:Feuchte:Taupunkt:
Aussen-T/F 301 08-03-2008 12:09:03 8.8 C 37 % -5.07 C
302 08-03-2008 12:21:02 9.1 C 37 % -4.8 C
303 08-03-2008 12:33:02 9.1 C 38 % -4.45 C
304 08-03-2008 12:45:01 9.4 C 37 % -4.53 C
305 08-03-2008 12:57:01 9.7 C 37 % -4.26 C
306 08-03-2008 13:09:01 10 C 35 % -4.73 C
307 08-03-2008 13:21:01 10.3 C 34 % -4.85 C
308 08-03-2008 13:33:01 10.9 C 31 % -5.54 C
309 08-03-2008 13:45:02 11 C 31 % -5.45 C
310 08-03-2008 13:57:02 11.2 C 31 % -5.28 C
311 08-03-2008 14:09:02 11.3 C 32 % -4.77 C
312 08-03-2008 14:21:02 11.1 C 32 % -4.95 C
313 08-03-2008 14:33:01 11.1 C 32 % -4.95 C
314 08-03-2008 14:45:01 10.6 C 35 % -4.2 C
315 08-03-2008 14:57:01 10.3 C 35 % -4.47 C
316 08-03-2008 15:09:02 10.7 C 35 % -4.11 C
317 08-03-2008 15:21:01 11.2 C 33 % -4.45 C
318 08-03-2008 15:33:01 10.8 C 35 % -4.03 C
319 08-03-2008 15:45:01 11.2 C 34 % -4.06 C
320 08-03-2008 15:57:01 11.3 C 33 % -4.37 C
321 08-03-2008 16:09:01 10.9 C 32 % -5.12 C
322 08-03-2008 16:21:02 10.6 C 33 % -4.98 C
323 08-03-2008 16:33:01 10.4 C 34 % -4.76 C
324 08-03-2008 16:45:02 10.4 C 34 % -4.76 C
325 08-03-2008 16:57:02 10.1 C 35 % -4.65 C
Sensor: Nr:Datum:Temp:Feuchte:Taupunkt:
Aussen-T/F 326 08-03-2008 17:09:01 9.9 C 36 % -4.45 C
327 08-03-2008 17:21:02 9.7 C 35 % -5 C
328 08-03-2008 17:33:02 9.7 C 35 % -5 C
329 08-03-2008 17:45:02 9.6 C 35 % -5.09 C
330 08-03-2008 17:57:02 9.5 C 36 % -4.8 C
331 08-03-2008 18:09:02 8.9 C 40 % -3.95 C
332 08-03-2008 18:21:02 8.3 C 42 % -3.84 C
333 08-03-2008 18:33:02 7.6 C 46 % -3.26 C
334 08-03-2008 18:45:01 7.5 C 45 % -3.65 C
335 08-03-2008 18:57:01 7.4 C 44 % -4.04 C
336 08-03-2008 19:09:02 7.3 C 44 % -4.13 C
337 08-03-2008 19:21:02 7.1 C 44 % -4.31 C
338 08-03-2008 19:33:01 6.9 C 45 % -4.19 C
339 08-03-2008 19:45:02 6.8 C 45 % -4.28 C
340 08-03-2008 19:57:02 6.7 C 47 % -3.8 C
341 08-03-2008 20:09:02 6.2 C 49 % -3.7 C
342 08-03-2008 20:21:02 6.1 C 50 % -3.52 C
343 08-03-2008 20:33:01 6 C 50 % -3.62 C
344 08-03-2008 20:45:02 6 C 50 % -3.62 C
345 08-03-2008 20:57:02 5.8 C 52 % -3.28 C
346 08-03-2008 21:09:02 5.5 C 54 % -3.05 C
347 08-03-2008 21:21:02 5.6 C 52 % -3.46 C
348 08-03-2008 21:33:02 5.4 C 53 % -3.39 C
349 08-03-2008 21:45:03 5.4 C 53 % -3.39 C
350 08-03-2008 21:57:03 5.2 C 55 % -3.09 C
Sensor: Nr:Datum:Temp:Feuchte:Taupunkt:
Aussen-T/F 351 08-03-2008 22:09:02 5 C 55 % -3.27 C
352 08-03-2008 22:21:02 4.8 C 56 % -3.22 C
353 08-03-2008 22:34:03 4.6 C 57 % -3.17 C
354 08-03-2008 22:46:03 4.5 C 58 % -3.03 C
355 08-03-2008 22:58:03 4.5 C 59 % -2.8 C
356 08-03-2008 23:10:03 4.5 C 59 % -2.8 C
357 08-03-2008 23:22:04 4.5 C 60 % -2.57 C
358 08-03-2008 23:34:04 4.3 C 61 % -2.54 C
359 08-03-2008 23:46:04 4.4 C 62 % -2.23 C
360 08-03-2008 23:58:04 4.5 C 63 % -1.92 C
361 09-03-2008 00:10:04 4.4 C 63 % -2.01 C
362 09-03-2008 00:22:04 4.4 C 63 % -2.01 C
363 09-03-2008 00:34:04 4.1 C 64 % -2.08 C
364 09-03-2008 00:46:04 4 C 65 % -1.97 C
365 09-03-2008 00:58:04 3.8 C 67 % -1.75 C
366 09-03-2008 01:10:04 4 C 67 % -1.56 C
367 09-03-2008 01:22:04 4.1 C 67 % -1.46 C
368 09-03-2008 01:34:04 4.2 C 68 % -1.17 C
369 09-03-2008 01:46:04 4.2 C 67 % -1.37 C
370 09-03-2008 01:58:04 4 C 68 % -1.36 C
371 09-03-2008 02:10:04 4.1 C 70 % -0.87 C
372 09-03-2008 02:22:04 4.6 C 71 % -0.19 C
373 09-03-2008 02:34:04 4.8 C 70 % -0.2 C
374 09-03-2008 02:46:04 5 C 69 % -0.2 C
375 09-03-2008 02:58:04 5.3 C 66 % -0.52 C
Sensor: Nr:Datum:Temp:Feuchte:Taupunkt:
Aussen-T/F 376 09-03-2008 03:10:05 5.5 C 64 % -0.75 C
377 09-03-2008 03:22:05 5.7 C 63 % -0.78 C
378 09-03-2008 03:34:05 5.7 C 62 % -1 C
379 09-03-2008 03:46:05 5.8 C 61 % -1.13 C
380 09-03-2008 03:58:05 5.9 C 59 % -1.48 C
381 09-03-2008 04:10:05 5.9 C 59 % -1.48 C
382 09-03-2008 04:22:05 5.9 C 59 % -1.48 C
383 09-03-2008 04:34:05 5.8 C 60 % -1.35 C
384 09-03-2008 04:46:05 5.8 C 60 % -1.35 C
385 09-03-2008 04:58:05 5.8 C 60 % -1.35 C
386 09-03-2008 05:10:05 5.7 C 60 % -1.44 C
387 09-03-2008 05:22:05 5.5 C 60 % -1.63 C
388 09-03-2008 05:34:05 5.4 C 60 % -1.73 C
389 09-03-2008 05:46:05 5.3 C 61 % -1.6 C
390 09-03-2008 05:58:05 5.2 C 62 % -1.47 C
391 09-03-2008 06:10:05 5.2 C 62 % -1.47 C
392 09-03-2008 06:22:05 5.2 C 63 % -1.25 C
393 09-03-2008 06:34:05 5.2 C 63 % -1.25 C
394 09-03-2008 06:46:05 5.4 C 62 % -1.28 C
395 09-03-2008 06:58:05 5.5 C 61 % -1.41 C
396 09-03-2008 07:10:06 5.6 C 61 % -1.31 C
397 09-03-2008 07:22:06 5.8 C 60 % -1.35 C
398 09-03-2008 07:34:06 6 C 58 % -1.62 C
399 09-03-2008 07:46:06 6.1 C 58 % -1.53 C
400 09-03-2008 07:58:06 6.2 C 57 % -1.67 C
Sensor: Nr:Datum:Temp:Feuchte:Taupunkt:
Aussen-T/F 401 09-03-2008 08:10:06 6.5 C 57 % -1.39 C
402 09-03-2008 08:22:06 6.7 C 56 % -1.44 C
403 09-03-2008 08:34:06 6.8 C 55 % -1.59 C
404 09-03-2008 08:46:01 7 C 54 % -1.66 C
405 09-03-2008 08:58:01 7.2 C 53 % -1.72 C
406 09-03-2008 09:10:02 7.7 C 51 % -1.78 C
407 09-03-2008 09:22:02 8 C 49 % -2.05 C
408 09-03-2008 09:34:01 7.9 C 50 % -1.86 C
409 09-03-2008 09:46:03 7.8 C 50 % -1.96 C
410 09-03-2008 09:58:03 8 C 49 % -2.05 C
411 09-03-2008 10:10:02 8.1 C 48 % -2.23 C
412 09-03-2008 10:22:02 8.4 C 48 % -1.96 C
413 09-03-2008 10:34:02 9 C 46 % -1.98 C
414 09-03-2008 10:46:02 9.3 C 44 % -2.31 C
415 09-03-2008 10:58:02 10.1 C 42 % -2.21 C
416 09-03-2008 11:10:03 10 C 41 % -2.63 C
417 09-03-2008 11:22:02 9.9 C 42 % -2.39 C
418 09-03-2008 11:34:02 10.1 C 42 % -2.21 C
419 09-03-2008 11:46:02 10 C 42 % -2.3 C
420 09-03-2008 11:58:02 9.9 C 43 % -2.08 C
421 09-03-2008 12:10:02 10 C 42 % -2.3 C
422 09-03-2008 12:22:03 9.8 C 43 % -2.17 C
423 09-03-2008 12:34:02 9.8 C 43 % -2.17 C
424 09-03-2008 12:46:02 9.9 C 43 % -2.08 C
425 09-03-2008 12:58:02 9.8 C 43 % -2.17 C
Sensor: Nr:Datum:Temp:Feuchte:Taupunkt:
Aussen-T/F 426 09-03-2008 13:10:01 10.3 C 41 % -2.36 C
427 09-03-2008 13:22:02 10.1 C 41 % -2.54 C
428 09-03-2008 13:34:02 10.1 C 41 % -2.54 C
429 09-03-2008 13:46:02 10.1 C 41 % -2.54 C
430 09-03-2008 13:58:02 10 C 41 % -2.63 C
431 09-03-2008 14:10:02 10 C 41 % -2.63 C
432 09-03-2008 14:22:02 10.2 C 41 % -2.45 C
433 09-03-2008 14:34:02 10.5 C 41 % -2.18 C
434 09-03-2008 14:46:02 10.6 C 39 % -2.76 C
435 09-03-2008 14:58:02 10.9 C 37 % -3.2 C
436 09-03-2008 15:10:01 11.2 C 35 % -3.67 C
437 09-03-2008 15:22:01 11.2 C 35 % -3.67 C
438 09-03-2008 15:34:02 11.3 C 34 % -3.97 C
439 09-03-2008 15:46:03 11.4 C 34 % -3.88 C
440 09-03-2008 15:58:03 11.1 C 33 % -4.54 C
441 09-03-2008 16:10:03 10.8 C 35 % -4.03 C
442 09-03-2008 16:22:02 10.9 C 35 % -3.94 C
443 09-03-2008 16:34:02 10.8 C 35 % -4.03 C
444 09-03-2008 16:46:02 10.6 C 35 % -4.2 C
445 09-03-2008 16:58:03 10.5 C 36 % -3.92 C
446 09-03-2008 17:10:01 10.4 C 37 % -3.64 C
447 09-03-2008 17:22:02 10.3 C 37 % -3.73 C
448 09-03-2008 17:34:02 10.2 C 37 % -3.82 C
449 09-03-2008 17:46:02 10.1 C 39 % -3.21 C
450 09-03-2008 17:58:02 10 C 38 % -3.64 C
Sensor: Nr:Datum:Temp:Feuchte:Taupunkt:
Aussen-T/F 451 09-03-2008 18:10:02 10 C 38 % -3.64 C
452 09-03-2008 18:22:02 10 C 38 % -3.64 C
453 09-03-2008 18:34:02 9.8 C 39 % -3.48 C
454 09-03-2008 18:46:02 9.6 C 40 % -3.32 C
455 09-03-2008 18:58:02 9.4 C 40 % -3.5 C
456 09-03-2008 19:10:02 9.3 C 40 % -3.59 C
457 09-03-2008 19:22:02 9.4 C 41 % -3.17 C
458 09-03-2008 19:34:02 9.1 C 42 % -3.12 C
459 09-03-2008 19:46:02 9.1 C 42 % -3.12 C
460 09-03-2008 19:58:02 9.1 C 42 % -3.12 C
461 09-03-2008 20:10:02 9.1 C 43 % -2.8 C
462 09-03-2008 20:22:02 9.1 C 42 % -3.12 C
463 09-03-2008 20:34:02 9.1 C 42 % -3.12 C
464 09-03-2008 20:46:02 9.1 C 42 % -3.12 C
465 09-03-2008 20:58:02 9.2 C 41 % -3.35 C
466 09-03-2008 21:10:02 9.3 C 42 % -2.93 C
467 09-03-2008 21:22:02 9.4 C 41 % -3.17 C
468 09-03-2008 21:34:02 9.7 C 41 % -2.9 C
469 09-03-2008 21:46:02 9.7 C 41 % -2.9 C
470 09-03-2008 21:58:02 9.6 C 43 % -2.35 C
471 09-03-2008 22:10:03 9.6 C 45 % -1.73 C
472 09-03-2008 22:23:02 9.5 C 46 % -1.53 C
473 09-03-2008 22:35:02 9.5 C 46 % -1.53 C
474 09-03-2008 22:47:02 9.5 C 47 % -1.23 C
475 09-03-2008 22:59:02 9.3 C 48 % -1.13 C
Sensor: Nr:Datum:Temp:Feuchte:Taupunkt:
Aussen-T/F 476 09-03-2008 23:11:02 9.1 C 48 % -1.31 C
477 09-03-2008 23:23:02 9.1 C 50 % -0.76 C
478 09-03-2008 23:35:02 9.1 C 50 % -0.76 C
479 09-03-2008 23:47:02 8.9 C 51 % -0.67 C
480 09-03-2008 23:59:02 8.9 C 51 % -0.67 C
481 10-03-2008 00:11:03 8.7 C 51 % -0.86 C
482 10-03-2008 00:23:03 8.6 C 51 % -0.95 C
483 10-03-2008 00:35:03 8.2 C 51 % -1.32 C
484 10-03-2008 00:47:03 7.9 C 53 % -1.07 C
485 10-03-2008 00:59:03 7.9 C 53 % -1.07 C
486 10-03-2008 01:11:03 7.5 C 54 % -1.19 C
487 10-03-2008 01:23:03 7.3 C 56 % -0.88 C
488 10-03-2008 01:35:03 7.3 C 56 % -0.88 C
489 10-03-2008 01:47:03 7.6 C 56 % -0.6 C
490 10-03-2008 01:59:03 7.8 C 55 % -0.66 C
491 10-03-2008 02:11:03 7.8 C 55 % -0.66 C
492 10-03-2008 02:23:03 7.9 C 54 % -0.82 C
493 10-03-2008 02:35:03 8 C 53 % -0.98 C
494 10-03-2008 02:47:03 8 C 52 % -1.24 C
495 10-03-2008 02:59:03 7.7 C 57 % -0.27 C
496 10-03-2008 03:11:03 7.2 C 62 % 0.42 C
497 10-03-2008 03:23:03 7.1 C 63 % 0.55 C
498 10-03-2008 03:35:03 7.1 C 63 % 0.55 C
499 10-03-2008 03:47:03 7.5 C 61 % 0.48 C
500 10-03-2008 03:59:03 7.7 C 57 % -0.27 C
Sensor: Nr:Datum:Temp:Feuchte:Taupunkt:
Aussen-T/F 501 10-03-2008 04:11:04 7.8 C 56 % -0.41 C
502 10-03-2008 04:23:04 7.6 C 56 % -0.6 C
503 10-03-2008 04:35:04 7.4 C 57 % -0.55 C
504 10-03-2008 04:47:04 7.2 C 56 % -0.98 C
505 10-03-2008 04:59:04 7.1 C 55 % -1.31 C
506 10-03-2008 05:11:04 6.8 C 57 % -1.11 C
507 10-03-2008 05:23:04 6.6 C 56 % -1.54 C
508 10-03-2008 05:35:04 6.7 C 56 % -1.44 C
509 10-03-2008 05:47:04 7.1 C 54 % -1.56 C
510 10-03-2008 05:59:04 7.5 C 52 % -1.7 C
511 10-03-2008 06:11:04 7.5 C 51 % -1.97 C
512 10-03-2008 06:23:04 7.4 C 51 % -2.06 C
513 10-03-2008 06:35:04 7.2 C 52 % -1.98 C
514 10-03-2008 06:47:04 7.1 C 54 % -1.56 C
515 10-03-2008 06:59:04 6.3 C 62 % -0.43 C
516 10-03-2008 07:11:02 5.9 C 66 % 0.05 C
517 10-03-2008 07:23:02 5.7 C 67 % 0.06 C
518 10-03-2008 07:35:02 5.8 C 68 % 0.36 C
519 10-03-2008 07:47:01 6 C 66 % 0.14 C
520 10-03-2008 07:59:01 6.2 C 65 % 0.12 C
521 10-03-2008 08:11:01 6.7 C 62 % -0.05 C
522 10-03-2008 08:23:02 7.1 C 60 % -0.13 C
523 10-03-2008 08:35:01 7.4 C 58 % -0.31 C
524 10-03-2008 08:47:01 7.5 C 50 % -2.23 C
525 10-03-2008 08:59:01 7.5 C 50 % -2.23 C
Sensor: Nr:Datum:Temp:Feuchte:Taupunkt:
Aussen-T/F 526 10-03-2008 09:11:01 7.7 C 50 % -2.05 C
527 10-03-2008 09:23:02 8.1 C 48 % -2.23 C
528 10-03-2008 09:35:01 8.5 C 48 % -1.86 C
529 10-03-2008 09:47:01 9.1 C 45 % -2.19 C
530 10-03-2008 09:59:01 9.3 C 41 % -3.26 C
531 10-03-2008 10:11:01 9.5 C 40 % -3.41 C
532 10-03-2008 10:23:02 9.6 C 39 % -3.65 C
533 10-03-2008 10:35:01 9.6 C 39 % -3.65 C
534 10-03-2008 10:47:02 9.7 C 38 % -3.91 C
535 10-03-2008 10:59:02 10 C 35 % -4.73 C
536 10-03-2008 11:11:01 10 C 33 % -5.51 C
537 10-03-2008 11:23:02 9.9 C 33 % -5.6 C
538 10-03-2008 11:35:02 10.1 C 32 % -5.82 C
539 10-03-2008 11:47:02 10.4 C 31 % -5.98 C
540 10-03-2008 11:59:02 10.5 C 31 % -5.89 C
541 10-03-2008 12:11:02 10.9 C 32 % -5.12 C
542 10-03-2008 12:23:02 10.8 C 31 % -5.63 C
543 10-03-2008 12:35:02 10.8 C 30 % -6.06 C
544 10-03-2008 12:47:02 10.9 C 30 % -5.97 C
545 10-03-2008 12:59:02 11.4 C 30 % -5.53 C
546 10-03-2008 13:11:02 11.8 C 28 % -6.09 C
547 10-03-2008 13:23:02 11.8 C 28 % -6.09 C
548 10-03-2008 13:35:02 12 C 26 % -6.88 C
549 10-03-2008 13:47:01 12 C 25 % -7.39 C
550 10-03-2008 13:59:01 11.9 C 26 % -6.97 C
Sensor: Nr:Datum:Temp:Feuchte:Taupunkt:
Aussen-T/F 551 10-03-2008 14:11:01 11.6 C 27 % -6.74 C
552 10-03-2008 14:23:02 11.3 C 32 % -4.77 C
553 10-03-2008 14:35:01 10.7 C 39 % -2.67 C
554 10-03-2008 14:47:01 11 C 35 % -3.85 C
555 10-03-2008 14:59:01 10.7 C 35 % -4.11 C
556 10-03-2008 15:11:01 10.8 C 36 % -3.65 C
557 10-03-2008 15:23:02 10.7 C 35 % -4.11 C
558 10-03-2008 15:35:01 10.8 C 31 % -5.63 C
559 10-03-2008 15:47:02 11.1 C 26 % -7.65 C
560 10-03-2008 15:59:02 10.5 C 31 % -5.89 C
561 10-03-2008 16:11:01 10.2 C 35 % -4.56 C
562 10-03-2008 16:23:02 9.7 C 40 % -3.23 C
563 10-03-2008 16:35:01 8.5 C 50 % -1.31 C
564 10-03-2008 16:47:01 7.6 C 59 % 0.11 C
565 10-03-2008 16:59:01 7.1 C 64 % 0.76 C
566 10-03-2008 17:11:02 6.7 C 69 % 1.43 C
567 10-03-2008 17:23:02 6.6 C 72 % 1.92 C
568 10-03-2008 17:35:01 6.3 C 72 % 1.63 C
569 10-03-2008 17:47:02 6.1 C 73 % 1.63 C
570 10-03-2008 17:59:02 6 C 76 % 2.1 C
571 10-03-2008 18:11:02 5.9 C 78 % 2.37 C
572 10-03-2008 18:23:01 5.9 C 79 % 2.54 C
573 10-03-2008 18:35:01 5.8 C 79 % 2.45 C
574 10-03-2008 18:47:02 5.8 C 80 % 2.62 C
575 10-03-2008 18:59:02 5.8 C 81 % 2.8 C
Sensor: Nr:Datum:Temp:Feuchte:Taupunkt:
Aussen-T/F 576 10-03-2008 19:11:03 6.2 C 78 % 2.66 C
577 10-03-2008 19:23:02 6.5 C 75 % 2.4 C
578 10-03-2008 19:35:02 7 C 70 % 1.91 C
579 10-03-2008 19:47:01 7 C 68 % 1.51 C
580 10-03-2008 19:59:01 7 C 65 % 0.88 C
581 10-03-2008 20:11:01 7.2 C 62 % 0.42 C
582 10-03-2008 20:23:02 7.4 C 60 % 0.16 C
583 10-03-2008 20:35:01 7.4 C 58 % -0.31 C
584 10-03-2008 20:47:02 7.4 C 58 % -0.31 C
585 10-03-2008 20:59:02 7.5 C 57 % -0.45 C
586 10-03-2008 21:11:02 7.6 C 56 % -0.6 C
587 10-03-2008 21:23:01 7.7 C 56 % -0.51 C
588 10-03-2008 21:35:02 7.8 C 54 % -0.91 C
589 10-03-2008 21:47:02 7.8 C 55 % -0.66 C
590 10-03-2008 21:59:02 8 C 51 % -1.5 C
591 10-03-2008 22:12:03 8 C 50 % -1.77 C
592 10-03-2008 22:24:03 8 C 50 % -1.77 C
593 10-03-2008 22:36:03 8 C 49 % -2.05 C
594 10-03-2008 22:48:03 8 C 49 % -2.05 C
595 10-03-2008 23:00:03 8 C 49 % -2.05 C
596 10-03-2008 23:12:03 8 C 50 % -1.77 C
597 10-03-2008 23:24:03 8.1 C 50 % -1.68 C
598 10-03-2008 23:36:03 8.1 C 50 % -1.68 C
599 10-03-2008 23:48:03 8.2 C 50 % -1.59 C
600 11-03-2008 00:00:03 8.1 C 50 % -1.68 C
Sensor: Nr:Datum:Temp:Feuchte:Taupunkt:
Aussen-T/F 601 11-03-2008 00:12:03 8.1 C 51 % -1.41 C
602 11-03-2008 00:24:03 8 C 51 % -1.5 C
603 11-03-2008 00:36:04 8 C 52 % -1.24 C
604 11-03-2008 00:48:04 7.9 C 54 % -0.82 C
605 11-03-2008 01:00:04 8 C 53 % -0.98 C
606 11-03-2008 01:12:04 7.9 C 56 % -0.32 C
607 11-03-2008 01:24:04 7.9 C 56 % -0.32 C
608 11-03-2008 01:36:04 8.1 C 55 % -0.38 C
609 11-03-2008 01:48:04 8.1 C 54 % -0.63 C
610 11-03-2008 02:00:04 8.1 C 54 % -0.63 C
611 11-03-2008 02:12:04 8 C 55 % -0.47 C
612 11-03-2008 02:24:04 8.1 C 55 % -0.38 C
613 11-03-2008 02:36:04 8.1 C 55 % -0.38 C
614 11-03-2008 02:48:04 8.1 C 56 % -0.13 C
615 11-03-2008 03:00:04 7.9 C 59 % 0.4 C
616 11-03-2008 03:12:04 7.8 C 60 % 0.53 C
617 11-03-2008 03:24:04 7.6 C 63 % 1.02 C
618 11-03-2008 03:36:04 7.5 C 65 % 1.36 C
619 11-03-2008 03:48:04 7.5 C 65 % 1.36 C
620 11-03-2008 04:00:04 7.4 C 66 % 1.48 C
621 11-03-2008 04:12:04 7.5 C 64 % 1.14 C
622 11-03-2008 04:24:04 7.6 C 63 % 1.02 C
623 11-03-2008 04:36:05 7.6 C 63 % 1.02 C
624 11-03-2008 04:48:05 7.6 C 61 % 0.57 C
625 11-03-2008 05:00:05 7.5 C 62 % 0.7 C
Sensor: Nr:Datum:Temp:Feuchte:Taupunkt:
Aussen-T/F 626 11-03-2008 05:12:05 7.4 C 63 % 0.83 C
627 11-03-2008 05:24:05 7.3 C 64 % 0.95 C
628 11-03-2008 05:36:05 7 C 66 % 1.09 C
629 11-03-2008 05:48:05 6.9 C 68 % 1.41 C
630 11-03-2008 06:00:05 6.8 C 69 % 1.52 C
631 11-03-2008 06:12:05 6.9 C 68 % 1.41 C
632 11-03-2008 06:24:05 7 C 66 % 1.09 C
633 11-03-2008 06:36:05 7.2 C 63 % 0.64 C
634 11-03-2008 06:48:05 7.3 C 62 % 0.51 C
635 11-03-2008 07:00:05 7.2 C 63 % 0.64 C
636 11-03-2008 07:12:02 7.1 C 65 % 0.98 C
637 11-03-2008 07:24:02 6.7 C 70 % 1.63 C
638 11-03-2008 07:36:02 6.4 C 75 % 2.3 C
639 11-03-2008 07:48:02 6.4 C 76 % 2.49 C
640 11-03-2008 08:00:03 6.3 C 76 % 2.39 C
641 11-03-2008 08:12:01 6.3 C 78 % 2.75 C
642 11-03-2008 08:24:02 6.1 C 75 % 2.01 C
643 11-03-2008 08:36:01 6.1 C 75 % 2.01 C
644 11-03-2008 08:48:02 6.2 C 75 % 2.11 C
645 11-03-2008 09:00:02 6 C 75 % 1.91 C
646 11-03-2008 09:12:01 5.9 C 75 % 1.82 C
647 11-03-2008 09:24:02 6.1 C 75 % 2.01 C
648 11-03-2008 09:36:02 6.2 C 76 % 2.29 C
649 11-03-2008 09:48:02 6.4 C 76 % 2.49 C
650 11-03-2008 10:00:03 6.8 C 74 % 2.5 C
Sensor: Nr:Datum:Temp:Feuchte:Taupunkt:
Aussen-T/F 651 11-03-2008 10:12:02 7.5 C 68 % 1.99 C
652 11-03-2008 10:24:02 7.9 C 64 % 1.52 C
653 11-03-2008 10:36:02 8.3 C 61 % 1.23 C
654 11-03-2008 10:48:02 8.5 C 59 % 0.96 C
655 11-03-2008 11:00:02 8.8 C 57 % 0.76 C
656 11-03-2008 11:12:01 9.2 C 54 % 0.39 C
657 11-03-2008 11:24:02 9.2 C 54 % 0.39 C
658 11-03-2008 11:36:02 9 C 52 % -0.31 C
659 11-03-2008 11:48:02 9 C 53 % -0.05 C
660 11-03-2008 12:00:02 8.8 C 55 % 0.27 C
661 11-03-2008 12:12:02 9.5 C 55 % 0.92 C
662 11-03-2008 12:24:02 8.3 C 61 % 1.23 C
663 11-03-2008 12:36:02 8 C 65 % 1.83 C
664 11-03-2008 12:48:02 8.5 C 67 % 2.73 C
665 11-03-2008 13:00:02 9.1 C 55 % 0.55 C
666 11-03-2008 13:12:02 9.8 C 49 % -0.39 C
667 11-03-2008 13:24:03 10.4 C 43 % -1.62 C
668 11-03-2008 13:36:02 9.7 C 46 % -1.34 C
669 11-03-2008 13:48:01 9.9 C 45 % -1.46 C
670 11-03-2008 14:00:01 9.9 C 43 % -2.08 C
671 11-03-2008 14:12:01 9.6 C 42 % -2.66 C
672 11-03-2008 14:24:02 9.8 C 44 % -1.86 C
673 11-03-2008 14:36:01 10 C 40 % -2.96 C
674 11-03-2008 14:48:01 9.7 C 40 % -3.23 C
675 11-03-2008 15:00:01 9.5 C 41 % -3.08 C
Sensor: Nr:Datum:Temp:Feuchte:Taupunkt:
Aussen-T/F 676 11-03-2008 15:12:02 9.8 C 40 % -3.14 C
677 11-03-2008 15:24:02 9.8 C 40 % -3.14 C
678 11-03-2008 15:36:01 9.7 C 40 % -3.23 C
679 11-03-2008 15:48:01 10 C 40 % -2.96 C
680 11-03-2008 16:00:01 10 C 40 % -2.96 C
681 11-03-2008 16:12:02 9.9 C 41 % -2.72 C
682 11-03-2008 16:24:02 9.8 C 42 % -2.48 C
683 11-03-2008 16:36:01 9.1 C 49 % -1.03 C
684 11-03-2008 16:48:01 8.7 C 54 % -0.07 C
685 11-03-2008 17:00:01 8.6 C 55 % 0.08 C
686 11-03-2008 17:12:02 8.4 C 56 % 0.15 C
687 11-03-2008 17:24:01 8.4 C 57 % 0.39 C
688 11-03-2008 17:36:01 8 C 61 % 0.95 C
689 11-03-2008 17:48:01 7.6 C 65 % 1.45 C
690 11-03-2008 18:00:01 7.4 C 69 % 2.1 C
691 11-03-2008 18:12:02 7.3 C 70 % 2.2 C
692 11-03-2008 18:24:01 7.6 C 70 % 2.49 C
693 11-03-2008 18:36:01 7.6 C 71 % 2.69 C
694 11-03-2008 18:48:01 7.4 C 75 % 3.27 C
695 11-03-2008 19:00:01 7.4 C 78 % 3.82 C
696 11-03-2008 19:12:01 7.5 C 79 % 4.1 C
697 11-03-2008 19:24:02 8 C 77 % 4.22 C
698 11-03-2008 19:36:01 8.4 C 75 % 4.23 C
699 11-03-2008 19:48:02 8.4 C 74 % 4.04 C
700 11-03-2008 20:00:02 8.6 C 75 % 4.43 C
Sensor: Nr:Datum:Temp:Feuchte:Taupunkt:
Aussen-T/F 701 11-03-2008 20:12:01 8.5 C 77 % 4.71 C
702 11-03-2008 20:24:02 8.6 C 77 % 4.8 C
703 11-03-2008 20:36:02 8.9 C 77 % 5.09 C
704 11-03-2008 20:48:02 9.2 C 76 % 5.2 C
705 11-03-2008 21:00:02 9.5 C 75 % 5.3 C
706 11-03-2008 21:12:02 9.8 C 73 % 5.2 C
707 11-03-2008 21:24:03 9.8 C 73 % 5.2 C
708 11-03-2008 21:36:02 9.8 C 75 % 5.59 C
709 11-03-2008 21:48:02 9.7 C 77 % 5.87 C
710 11-03-2008 22:00:02 9.9 C 78 % 6.25 C
711 11-03-2008 22:12:02 10.1 C 78 % 6.44 C
712 11-03-2008 22:25:01 10.5 C 77 % 6.64 C
713 11-03-2008 22:37:01 10.7 C 77 % 6.84 C
714 11-03-2008 22:49:01 10.7 C 78 % 7.03 C
715 11-03-2008 23:01:01 11 C 76 % 6.94 C
716 11-03-2008 23:13:01 11.3 C 76 % 7.23 C
717 11-03-2008 23:25:01 11.1 C 79 % 7.6 C
718 11-03-2008 23:37:01 11.1 C 80 % 7.79 C
719 11-03-2008 23:49:01 11.1 C 81 % 7.97 C
720 12-03-2008 00:01:02 11.3 C 80 % 7.98 C
721 12-03-2008 00:13:02 11.9 C 68 % 6.19 C
722 12-03-2008 00:25:02 12.2 C 60 % 4.67 C
723 12-03-2008 00:37:02 12.4 C 58 % 4.38 C
724 12-03-2008 00:49:02 12.4 C 55 % 3.62 C
725 12-03-2008 01:01:02 12.6 C 50 % 2.47 C
Sensor: Nr:Datum:Temp:Feuchte:Taupunkt:
Aussen-T/F 726 12-03-2008 01:13:02 12.3 C 50 % 2.19 C
727 12-03-2008 01:25:02 11.9 C 53 % 2.64 C
728 12-03-2008 01:37:02 11.7 C 50 % 1.64 C
729 12-03-2008 01:49:02 11.5 C 51 % 1.73 C
730 12-03-2008 02:01:02 11.1 C 52 % 1.63 C
731 12-03-2008 02:13:02 10.9 C 55 % 2.23 C
732 12-03-2008 02:25:02 9.9 C 65 % 3.64 C
733 12-03-2008 02:37:02 9.5 C 70 % 4.31 C
734 12-03-2008 02:49:02 9.2 C 74 % 4.81 C
735 12-03-2008 03:01:02 9.2 C 74 % 4.81 C
736 12-03-2008 03:13:02 9.1 C 74 % 4.72 C
737 12-03-2008 03:25:02 9.1 C 74 % 4.72 C
738 12-03-2008 03:37:02 9 C 76 % 5 C
739 12-03-2008 03:49:02 9 C 76 % 5 C
740 12-03-2008 04:01:02 9.2 C 72 % 4.42 C
741 12-03-2008 04:13:03 9.5 C 69 % 4.11 C
742 12-03-2008 04:25:03 9.4 C 67 % 3.59 C
743 12-03-2008 04:37:03 9.2 C 66 % 3.19 C
744 12-03-2008 04:49:03 9.4 C 65 % 3.16 C
745 12-03-2008 05:01:03 9.3 C 63 % 2.63 C
746 12-03-2008 05:13:03 9.2 C 62 % 2.31 C
747 12-03-2008 05:25:03 9.1 C 62 % 2.22 C
748 12-03-2008 05:37:03 9.3 C 60 % 1.95 C
749 12-03-2008 05:49:03 9 C 60 % 1.66 C
750 12-03-2008 06:01:03 9.2 C 58 % 1.38 C
Sensor: Nr:Datum:Temp:Feuchte:Taupunkt:
Aussen-T/F 751 12-03-2008 06:13:03 9.1 C 57 % 1.04 C
752 12-03-2008 06:25:03 9 C 58 % 1.19 C
753 12-03-2008 06:37:03 9.1 C 56 % 0.8 C
754 12-03-2008 06:49:03 9.1 C 54 % 0.3 C
755 12-03-2008 07:01:01 9.1 C 54 % 0.3 C
756 12-03-2008 07:13:01 9.1 C 54 % 0.3 C
757 12-03-2008 07:25:02 9.1 C 54 % 0.3 C
758 12-03-2008 07:37:02 9.3 C 53 % 0.23 C
759 12-03-2008 07:49:02 9.3 C 53 % 0.23 C
760 12-03-2008 08:01:02 9.3 C 52 % -0.04 C
761 12-03-2008 08:13:02 9.4 C 51 % -0.21 C
762 12-03-2008 08:25:02 9.5 C 50 % -0.39 C
763 12-03-2008 08:37:02 9.3 C 52 % -0.04 C
764 12-03-2008 08:49:02 8.8 C 56 % 0.52 C
765 12-03-2008 09:01:02 9.4 C 47 % -1.33 C
766 12-03-2008 09:13:02 9.6 C 45 % -1.73 C
767 12-03-2008 09:25:02 8.1 C 56 % -0.13 C
768 12-03-2008 09:37:02 7.9 C 62 % 1.08 C
769 12-03-2008 09:49:02 8.4 C 56 % 0.15 C
770 12-03-2008 10:01:02 8.7 C 50 % -1.13 C
771 12-03-2008 10:13:02 9.2 C 41 % -3.35 C
772 12-03-2008 10:25:01 8.1 C 42 % -4.02 C
773 12-03-2008 10:37:02 8.2 C 44 % -3.31 C
774 12-03-2008 10:49:02 8.5 C 41 % -3.98 C
775 12-03-2008 11:01:01 8.8 C 37 % -5.07 C
Sensor: Nr:Datum:Temp:Feuchte:Taupunkt:
Aussen-T/F 776 12-03-2008 11:13:01 8.9 C 38 % -4.63 C
777 12-03-2008 11:25:01 8.6 C 38 % -4.89 C
778 12-03-2008 11:37:01 9 C 35 % -5.62 C
779 12-03-2008 11:49:01 9.8 C 28 % -7.81 C
780 12-03-2008 12:01:02 10.1 C 26 % -8.51 C
781 12-03-2008 12:13:02 10.2 C 26 % -8.42 C
782 12-03-2008 12:25:01 10.7 C 28 % -7.04 C
783 12-03-2008 12:37:01 11.5 C 25 % -7.81 C
784 12-03-2008 12:49:01 11.3 C 20 % -10.81 C
785 12-03-2008 13:01:02 11.1 C 20 % -10.98 C
786 12-03-2008 13:13:02 10.9 C 22 % -9.95 C
787 12-03-2008 13:25:02 10.9 C 22 % -9.95 C
788 12-03-2008 13:37:01 10.9 C 21 % -10.53 C
789 12-03-2008 13:49:02 11 C 21 % -10.45 C
790 12-03-2008 14:01:02 10.9 C 25 % -8.33 C
791 12-03-2008 14:13:02 10.6 C 26 % -8.08 C
792 12-03-2008 14:25:02 10.6 C 25 % -8.58 C
793 12-03-2008 14:37:02 10.5 C 27 % -7.68 C
794 12-03-2008 14:49:02 10 C 30 % -6.75 C
795 12-03-2008 15:01:02 9.8 C 32 % -6.09 C
796 12-03-2008 15:13:02 9.6 C 33 % -5.86 C
797 12-03-2008 15:25:03 9.6 C 33 % -5.86 C
798 12-03-2008 15:37:02 9.4 C 35 % -5.26 C
799 12-03-2008 15:49:02 9.5 C 35 % -5.18 C
800 12-03-2008 16:01:01 10 C 33 % -5.51 C
Sensor: Nr:Datum:Temp:Feuchte:Taupunkt:
Aussen-T/F 801 12-03-2008 16:13:01 9.5 C 38 % -4.09 C
802 12-03-2008 16:25:01 9.7 C 40 % -3.23 C
803 12-03-2008 16:37:02 9.2 C 41 % -3.35 C
804 12-03-2008 16:49:02 9 C 42 % -3.21 C
805 12-03-2008 17:01:02 8.8 C 43 % -3.07 C
806 12-03-2008 17:13:02 8.7 C 44 % -2.85 C
807 12-03-2008 17:25:01 8.9 C 44 % -2.67 C
808 12-03-2008 17:37:01 9 C 42 % -3.21 C
809 12-03-2008 17:49:01 8.9 C 43 % -2.98 C
810 12-03-2008 18:01:02 8.4 C 44 % -3.13 C
811 12-03-2008 18:13:02 8.1 C 45 % -3.1 C
812 12-03-2008 18:25:01 7.9 C 46 % -2.99 C
813 12-03-2008 18:37:01 7.9 C 46 % -2.99 C
814 12-03-2008 18:49:02 7.8 C 45 % -3.37 C
815 12-03-2008 19:01:01 7.8 C 45 % -3.37 C
816 12-03-2008 19:13:01 7.6 C 46 % -3.26 C
817 12-03-2008 19:25:02 7.5 C 46 % -3.35 C
818 12-03-2008 19:37:02 7.6 C 46 % -3.26 C
819 12-03-2008 19:49:02 7.5 C 46 % -3.35 C
820 12-03-2008 20:01:02 7.5 C 46 % -3.35 C
821 12-03-2008 20:13:02 7.4 C 46 % -3.44 C
822 12-03-2008 20:25:02 7.4 C 45 % -3.74 C
823 12-03-2008 20:37:02 7.4 C 46 % -3.44 C
824 12-03-2008 20:49:02 7.4 C 45 % -3.74 C
825 12-03-2008 21:01:02 7.4 C 45 % -3.74 C
Sensor: Nr:Datum:Temp:Feuchte:Taupunkt:
Aussen-T/F 826 12-03-2008 21:13:02 7.4 C 45 % -3.74 C
827 12-03-2008 21:25:01 7.3 C 45 % -3.83 C
828 12-03-2008 21:37:02 7.1 C 45 % -4.01 C
829 12-03-2008 21:49:02 7 C 45 % -4.1 C
830 12-03-2008 22:01:02 7 C 44 % -4.4 C
831 12-03-2008 22:13:02 7 C 42 % -5.01 C
832 12-03-2008 22:25:02 6.8 C 43 % -4.88 C
833 12-03-2008 22:37:02 6.7 C 43 % -4.97 C
834 12-03-2008 22:49:02 6.4 C 44 % -4.94 C
835 12-03-2008 23:01:02 6.4 C 44 % -4.94 C
836 12-03-2008 23:13:02 6.2 C 44 % -5.13 C
837 12-03-2008 23:25:02 6 C 45 % -5.01 C
838 12-03-2008 23:37:02 6 C 45 % -5.01 C
839 12-03-2008 23:49:02 5.8 C 46 % -4.91 C
840 13-03-2008 00:01:02 5.8 C 46 % -4.91 C
841 13-03-2008 00:13:02 5.7 C 46 % -5 C
842 13-03-2008 00:25:02 5.7 C 46 % -5 C
843 13-03-2008 00:37:02 5.8 C 46 % -4.91 C
844 13-03-2008 00:49:02 6 C 45 % -5.01 C
845 13-03-2008 01:01:03 6.1 C 45 % -4.92 C
846 13-03-2008 01:13:03 6.2 C 45 % -4.83 C
847 13-03-2008 01:25:03 6.1 C 45 % -4.92 C
848 13-03-2008 01:37:02 6.2 C 45 % -4.83 C
849 13-03-2008 01:49:01 6.4 C 45 % -4.65 C
850 13-03-2008 02:01:02 6.3 C 45 % -4.74 C
Sensor: Nr:Datum:Temp:Feuchte:Taupunkt:
Aussen-T/F 851 13-03-2008 02:13:02 6.2 C 45 % -4.83 C
852 13-03-2008 02:25:02 6.2 C 45 % -4.83 C
853 13-03-2008 02:37:01 6.2 C 45 % -4.83 C
854 13-03-2008 02:50:03 6.1 C 46 % -4.63 C
855 13-03-2008 03:02:03 6.1 C 46 % -4.63 C
856 13-03-2008 03:14:04 5.9 C 47 % -4.53 C
857 13-03-2008 03:26:04 5.8 C 48 % -4.34 C
858 13-03-2008 03:38:01 5.9 C 48 % -4.25 C
859 13-03-2008 03:50:01 5.8 C 48 % -4.34 C
860 13-03-2008 04:02:02 6 C 47 % -4.44 C
861 13-03-2008 04:14:02 5.9 C 48 % -4.25 C
862 13-03-2008 04:26:02 6 C 47 % -4.44 C
863 13-03-2008 04:38:01 5.8 C 49 % -4.07 C
864 13-03-2008 04:50:01 5.6 C 50 % -3.99 C
865 13-03-2008 05:02:02 5.6 C 51 % -3.72 C
866 13-03-2008 05:14:02 5.6 C 51 % -3.72 C
867 13-03-2008 05:26:02 5.6 C 52 % -3.46 C
868 13-03-2008 05:38:01 5.6 C 52 % -3.46 C
869 13-03-2008 05:50:01 5.6 C 53 % -3.21 C
870 13-03-2008 06:02:02 5.7 C 54 % -2.87 C
871 13-03-2008 06:14:02 5.6 C 55 % -2.71 C
872 13-03-2008 06:26:01 5.8 C 55 % -2.53 C
873 13-03-2008 06:38:02 5.8 C 54 % -2.77 C
874 13-03-2008 06:50:02 5.7 C 54 % -2.87 C
875 13-03-2008 07:02:01 5.8 C 55 % -2.53 C
Sensor: Nr:Datum:Temp:Feuchte:Taupunkt:
Aussen-T/F 876 13-03-2008 07:14:02 5.8 C 56 % -2.28 C
877 13-03-2008 07:26:01 5.5 C 62 % -1.19 C
878 13-03-2008 07:38:02 5.3 C 64 % -0.94 C
879 13-03-2008 07:50:02 5.3 C 64 % -0.94 C
880 13-03-2008 08:02:02 5 C 66 % -0.81 C
881 13-03-2008 08:14:02 5 C 68 % -0.4 C
882 13-03-2008 08:26:01 5.4 C 67 % -0.22 C
883 13-03-2008 08:38:02 5.4 C 65 % -0.64 C
884 13-03-2008 08:50:02 5.4 C 64 % -0.85 C
885 13-03-2008 09:02:02 5.6 C 62 % -1.09 C
886 13-03-2008 09:14:02 5.7 C 62 % -1 C
887 13-03-2008 09:26:03 6.2 C 59 % -1.2 C
888 13-03-2008 09:38:02 6.6 C 58 % -1.06 C
889 13-03-2008 09:50:01 7 C 55 % -1.41 C
890 13-03-2008 10:02:01 7.4 C 54 % -1.28 C
891 13-03-2008 10:14:01 7.5 C 54 % -1.19 C
892 13-03-2008 10:26:02 7.8 C 54 % -0.91 C
893 13-03-2008 10:38:01 8.2 C 48 % -2.14 C
894 13-03-2008 10:50:02 8.3 C 46 % -2.62 C
895 13-03-2008 11:02:01 8.4 C 45 % -2.83 C
896 13-03-2008 11:14:01 8.1 C 47 % -2.52 C
897 13-03-2008 11:26:02 7.7 C 55 % -0.75 C
898 13-03-2008 11:38:02 8 C 53 % -0.98 C
899 13-03-2008 11:50:02 8.5 C 48 % -1.86 C
900 13-03-2008 12:02:02 8.4 C 47 % -2.24 C
Sensor: Nr:Datum:Temp:Feuchte:Taupunkt:
Aussen-T/F 901 13-03-2008 12:14:02 8.5 C 48 % -1.86 C
902 13-03-2008 12:26:02 8.5 C 46 % -2.44 C
903 13-03-2008 12:38:02 8.7 C 44 % -2.85 C
904 13-03-2008 12:50:02 8.9 C 44 % -2.67 C
905 13-03-2008 13:02:01 9 C 44 % -2.58 C
906 13-03-2008 13:14:01 8.7 C 48 % -1.68 C
907 13-03-2008 13:26:01 9.4 C 46 % -1.62 C
908 13-03-2008 13:38:01 9.3 C 45 % -2.01 C
909 13-03-2008 13:50:02 9.1 C 47 % -1.6 C
910 13-03-2008 14:02:02 9.5 C 46 % -1.53 C
911 13-03-2008 14:14:02 10.5 C 42 % -1.85 C
912 13-03-2008 14:26:02 10.5 C 42 % -1.85 C
913 13-03-2008 14:38:02 10.7 C 39 % -2.67 C
914 13-03-2008 14:50:02 10.5 C 37 % -3.55 C
915 13-03-2008 15:02:03 10.4 C 36 % -4.01 C
916 13-03-2008 15:14:03 10.8 C 37 % -3.29 C
917 13-03-2008 15:26:02 11.1 C 36 % -3.39 C
918 13-03-2008 15:38:02 11.3 C 35 % -3.58 C
919 13-03-2008 15:50:01 11.4 C 34 % -3.88 C
920 13-03-2008 16:02:01 11 C 35 % -3.85 C
921 13-03-2008 16:14:01 10.8 C 35 % -4.03 C
922 13-03-2008 16:26:02 10.6 C 35 % -4.2 C
923 13-03-2008 16:38:01 10.4 C 35 % -4.38 C
924 13-03-2008 16:50:02 10.1 C 36 % -4.27 C
925 13-03-2008 17:02:01 10 C 39 % -3.3 C
Sensor: Nr:Datum:Temp:Feuchte:Taupunkt:
Aussen-T/F 926 13-03-2008 17:14:01 9.8 C 41 % -2.81 C
927 13-03-2008 17:26:01 9.2 C 45 % -2.1 C
928 13-03-2008 17:38:02 8.1 C 57 % 0.11 C
929 13-03-2008 17:50:03 8 C 61 % 0.95 C
930 13-03-2008 18:02:02 8.1 C 61 % 1.05 C
931 13-03-2008 18:14:02 8.1 C 59 % 0.58 C
932 13-03-2008 18:26:02 8.1 C 60 % 0.82 C
933 13-03-2008 18:38:03 8.1 C 60 % 0.82 C
934 13-03-2008 18:50:03 8.2 C 56 % -0.04 C
935 13-03-2008 19:02:02 8.4 C 56 % 0.15 C
936 13-03-2008 19:14:03 8.5 C 54 % -0.26 C
937 13-03-2008 19:26:02 8.6 C 52 % -0.68 C
938 13-03-2008 19:38:02 8.7 C 50 % -1.13 C
939 13-03-2008 19:50:02 8.8 C 50 % -1.03 C
940 13-03-2008 20:02:03 8.8 C 50 % -1.03 C
941 13-03-2008 20:14:03 8.6 C 53 % -0.42 C
942 13-03-2008 20:26:02 8.2 C 57 % 0.2 C
943 13-03-2008 20:38:02 8.3 C 54 % -0.45 C
944 13-03-2008 20:50:01 8.3 C 54 % -0.45 C
945 13-03-2008 21:02:01 8.4 C 53 % -0.61 C
946 13-03-2008 21:14:01 8.5 C 53 % -0.52 C
947 13-03-2008 21:26:02 8.5 C 53 % -0.52 C
948 13-03-2008 21:38:02 8.4 C 54 % -0.35 C
949 13-03-2008 21:50:02 8.3 C 55 % -0.2 C
950 13-03-2008 22:03:03 8.2 C 55 % -0.29 C
Sensor: Nr:Datum:Temp:Feuchte:Taupunkt:
Aussen-T/F 951 13-03-2008 22:15:03 8.2 C 56 % -0.04 C
952 13-03-2008 22:27:03 8.2 C 56 % -0.04 C
953 13-03-2008 22:39:03 8.2 C 56 % -0.04 C
954 13-03-2008 22:51:03 8.4 C 56 % 0.15 C
955 13-03-2008 23:03:03 8.4 C 56 % 0.15 C
956 13-03-2008 23:15:03 8.3 C 56 % 0.05 C
957 13-03-2008 23:27:03 8.3 C 56 % 0.05 C
958 13-03-2008 23:39:03 8.4 C 57 % 0.39 C
959 13-03-2008 23:51:03 8.2 C 57 % 0.2 C
960 14-03-2008 00:03:03 8.3 C 57 % 0.3 C
961 14-03-2008 00:15:03 7.9 C 60 % 0.63 C
962 14-03-2008 00:27:04 7.5 C 65 % 1.36 C
963 14-03-2008 00:39:04 7.2 C 69 % 1.9 C
964 14-03-2008 00:51:04 7 C 72 % 2.31 C
965 14-03-2008 01:03:04 6.8 C 75 % 2.69 C
966 14-03-2008 01:15:04 6.8 C 76 % 2.87 C
967 14-03-2008 01:27:04 6.7 C 79 % 3.32 C
968 14-03-2008 01:39:04 6.7 C 81 % 3.68 C
969 14-03-2008 01:51:04 6.5 C 82 % 3.66 C
970 14-03-2008 02:03:04 6.5 C 84 % 4 C
971 14-03-2008 02:15:04 6.5 C 85 % 4.17 C
972 14-03-2008 02:27:04 6.5 C 85 % 4.17 C
973 14-03-2008 02:39:04 6.4 C 86 % 4.23 C
974 14-03-2008 02:51:04 6.4 C 87 % 4.4 C
975 14-03-2008 03:03:04 6.4 C 87 % 4.4 C
Sensor: Nr:Datum:Temp:Feuchte:Taupunkt:
Aussen-T/F 976 14-03-2008 03:15:04 6.3 C 88 % 4.46 C
977 14-03-2008 03:27:04 6.3 C 88 % 4.46 C
978 14-03-2008 03:39:04 6.4 C 89 % 4.72 C
979 14-03-2008 03:51:04 6.4 C 89 % 4.72 C
980 14-03-2008 04:03:04 6.4 C 90 % 4.88 C
981 14-03-2008 04:15:04 6.4 C 90 % 4.88 C
982 14-03-2008 04:27:05 6.5 C 91 % 5.14 C
983 14-03-2008 04:39:05 6.9 C 91 % 5.54 C
984 14-03-2008 04:51:05 7.1 C 90 % 5.57 C
985 14-03-2008 05:03:05 7.2 C 90 % 5.67 C
986 14-03-2008 05:15:05 7.3 C 90 % 5.77 C
987 14-03-2008 05:27:05 7.3 C 90 % 5.77 C
988 14-03-2008 05:39:05 7.4 C 90 % 5.87 C
989 14-03-2008 05:51:05 7.5 C 91 % 6.13 C
990 14-03-2008 06:03:05 7.6 C 91 % 6.23 C
991 14-03-2008 06:15:05 7.7 C 91 % 6.33 C
992 14-03-2008 06:27:05 7.8 C 91 % 6.43 C
993 14-03-2008 06:39:05 7.9 C 91 % 6.52 C
994 14-03-2008 06:51:05 7.9 C 91 % 6.52 C
995 14-03-2008 07:03:02 8.1 C 91 % 6.72 C
996 14-03-2008 07:15:02 8.3 C 91 % 6.92 C
997 14-03-2008 07:27:02 8.7 C 91 % 7.32 C
998 14-03-2008 07:39:03 9.2 C 88 % 7.32 C
999 14-03-2008 07:51:02 9.3 C 86 % 7.08 C
1000 14-03-2008 08:03:02 9.3 C 85 % 6.91 C
Sensor: Nr:Datum:Temp:Feuchte:Taupunkt:
Aussen-T/F 1001 14-03-2008 08:15:02 9.5 C 85 % 7.11 C
1002 14-03-2008 08:27:02 9.6 C 84 % 7.03 C
1003 14-03-2008 08:39:02 9.7 C 83 % 6.96 C
1004 14-03-2008 08:51:02 9.7 C 83 % 6.96 C
1005 14-03-2008 09:03:01 9.7 C 84 % 7.13 C
1006 14-03-2008 09:15:02 9.7 C 84 % 7.13 C
1007 14-03-2008 09:27:02 9.7 C 84 % 7.13 C
1008 14-03-2008 09:39:02 9.9 C 82 % 6.98 C
1009 14-03-2008 09:51:02 10.1 C 79 % 6.63 C
1010 14-03-2008 10:03:02 10.4 C 76 % 6.36 C
1011 14-03-2008 10:15:02 10.6 C 73 % 5.97 C
1012 14-03-2008 10:27:02 10.9 C 64 % 4.37 C
1013 14-03-2008 10:39:02 11.2 C 59 % 3.5 C
1014 14-03-2008 10:51:02 11.2 C 58 % 3.25 C
1015 14-03-2008 11:03:02 11.2 C 59 % 3.5 C
1016 14-03-2008 11:15:03 11.2 C 58 % 3.25 C
1017 14-03-2008 11:27:03 11.6 C 56 % 3.13 C
1018 14-03-2008 11:39:02 11.6 C 55 % 2.88 C
1019 14-03-2008 11:51:01 11.7 C 54 % 2.71 C
1020 14-03-2008 12:03:02 11.9 C 52 % 2.37 C
1021 14-03-2008 12:15:02 12.1 C 49 % 1.72 C
1022 14-03-2008 12:27:02 12.1 C 47 % 1.14 C
1023 14-03-2008 12:39:01 12 C 47 % 1.05 C
1024 14-03-2008 12:51:01 11.9 C 53 % 2.64 C
1025 14-03-2008 13:03:02 11.9 C 53 % 2.64 C
Sensor: Nr:Datum:Temp:Feuchte:Taupunkt:
Aussen-T/F 1026 14-03-2008 13:15:02 12 C 47 % 1.05 C
1027 14-03-2008 13:27:02 12 C 45 % 0.45 C
1028 14-03-2008 13:39:01 12 C 46 % 0.75 C
1029 14-03-2008 13:51:01 12.5 C 44 % 0.59 C
1030 14-03-2008 14:03:02 12.6 C 42 % 0.04 C
1031 14-03-2008 14:15:02 12.5 C 41 % -0.38 C
1032 14-03-2008 14:27:02 12.8 C 41 % -0.11 C
1033 14-03-2008 14:39:01 13 C 39 % -0.61 C
1034 14-03-2008 14:51:01 12.8 C 39 % -0.79 C
1035 14-03-2008 15:03:02 13 C 36 % -1.7 C
1036 14-03-2008 15:15:02 13 C 36 % -1.7 C
1037 14-03-2008 15:27:02 12.9 C 40 % -0.36 C
1038 14-03-2008 15:39:02 13 C 38 % -0.97 C
1039 14-03-2008 15:51:02 13 C 38 % -0.97 C
1040 14-03-2008 16:03:02 13.2 C 37 % -1.15 C
1041 14-03-2008 16:15:02 13 C 35 % -2.08 C
1042 14-03-2008 16:27:02 12.9 C 34 % -2.56 C
1043 14-03-2008 16:39:02 12.8 C 31 % -3.88 C
1044 14-03-2008 16:51:02 12.7 C 30 % -4.41 C
1045 14-03-2008 17:03:03 12.5 C 31 % -4.15 C
1046 14-03-2008 17:15:03 12.4 C 35 % -2.61 C
1047 14-03-2008 17:27:03 12 C 38 % -1.86 C
1048 14-03-2008 17:39:02 11.7 C 41 % -1.1 C
1049 14-03-2008 17:51:02 11.4 C 42 % -1.04 C
1050 14-03-2008 18:03:01 11.1 C 40 % -1.97 C
Sensor: Nr:Datum:Temp:Feuchte:Taupunkt:
Aussen-T/F 1051 14-03-2008 18:15:02 11 C 36 % -3.47 C
1052 14-03-2008 18:27:02 10.5 C 41 % -2.18 C
1053 14-03-2008 18:39:02 10.1 C 45 % -1.28 C
1054 14-03-2008 18:51:02 9.8 C 47 % -0.96 C
1055 14-03-2008 19:03:02 9.4 C 48 % -1.04 C
1056 14-03-2008 19:15:02 9.2 C 48 % -1.22 C
1057 14-03-2008 19:27:02 8.8 C 50 % -1.03 C
1058 14-03-2008 19:39:02 8.5 C 51 % -1.04 C
1059 14-03-2008 19:51:02 8.5 C 52 % -0.78 C
1060 14-03-2008 20:03:01 8.3 C 52 % -0.96 C
1061 14-03-2008 20:15:02 8.2 C 53 % -0.8 C
1062 14-03-2008 20:27:02 7.9 C 55 % -0.57 C
1063 14-03-2008 20:39:02 7.5 C 57 % -0.45 C
1064 14-03-2008 20:51:02 7.1 C 60 % -0.13 C
1065 14-03-2008 21:03:02 7.1 C 61 % 0.1 C
1066 14-03-2008 21:15:02 6.9 C 62 % 0.14 C
1067 14-03-2008 21:27:02 6.8 C 64 % 0.48 C
1068 14-03-2008 21:39:02 6.7 C 63 % 0.17 C
1069 14-03-2008 21:51:01 6.5 C 63 % -0.02 C
1070 14-03-2008 22:03:01 6.4 C 64 % 0.1 C
1071 14-03-2008 22:15:02 6.1 C 65 % 0.03 C
1072 14-03-2008 22:27:02 6 C 66 % 0.14 C
1073 14-03-2008 22:39:01 5.9 C 67 % 0.25 C
1074 14-03-2008 22:51:02 5.8 C 67 % 0.16 C
1075 14-03-2008 23:03:02 5.6 C 68 % 0.17 C
Sensor: Nr:Datum:Temp:Feuchte:Taupunkt:
Aussen-T/F 1076 14-03-2008 23:16:03 5.5 C 68 % 0.08 C
1077 14-03-2008 23:28:03 5.4 C 69 % 0.18 C
1078 14-03-2008 23:40:03 5.3 C 69 % 0.09 C
1079 14-03-2008 23:52:03 5.3 C 69 % 0.09 C
1080 15-03-2008 00:04:03 5 C 68 % -0.4 C
1081 15-03-2008 00:16:03 4.8 C 70 % -0.2 C
1082 15-03-2008 00:28:03 4.5 C 71 % -0.29 C
1083 15-03-2008 00:40:03 4.4 C 72 % -0.19 C
1084 15-03-2008 00:52:03 4.2 C 73 % -0.2 C
1085 15-03-2008 01:04:03 4.1 C 74 % -0.11 C
1086 15-03-2008 01:16:03 3.9 C 75 % -0.12 C
1087 15-03-2008 01:28:03 3.8 C 75 % -0.21 C
1088 15-03-2008 01:40:03 3.7 C 75 % -0.31 C
1089 15-03-2008 01:52:03 3.8 C 76 % -0.03 C
1090 15-03-2008 02:04:04 3.7 C 77 % 0.05 C
1091 15-03-2008 02:16:04 3.6 C 77 % -0.05 C
1092 15-03-2008 02:28:04 3.4 C 77 % -0.24 C
1093 15-03-2008 02:40:04 3.2 C 77 % -0.43 C
1094 15-03-2008 02:52:04 2.9 C 78 % -0.55 C
1095 15-03-2008 03:04:04 2.7 C 78 % -0.74 C
1096 15-03-2008 03:16:04 2.7 C 79 % -0.57 C
1097 15-03-2008 03:28:04 2.6 C 80 % -0.49 C
1098 15-03-2008 03:40:04 2.5 C 80 % -0.59 C
1099 15-03-2008 03:52:04 2.4 C 80 % -0.69 C
1100 15-03-2008 04:04:04 2.5 C 81 % -0.42 C
Sensor: Nr:Datum:Temp:Feuchte:Taupunkt:
Aussen-T/F 1101 15-03-2008 04:16:04 3 C 82 % 0.24 C
1102 15-03-2008 04:28:04 3.2 C 82 % 0.43 C
1103 15-03-2008 04:40:04 3.2 C 80 % 0.09 C
1104 15-03-2008 04:52:04 3.4 C 80 % 0.29 C
1105 15-03-2008 05:04:04 3.6 C 79 % 0.31 C
1106 15-03-2008 05:16:04 3.7 C 78 % 0.23 C
1107 15-03-2008 05:28:04 3.7 C 78 % 0.23 C
1108 15-03-2008 05:40:04 3.8 C 77 % 0.15 C
1109 15-03-2008 05:52:04 3.8 C 77 % 0.15 C
1110 15-03-2008 06:04:04 3.9 C 77 % 0.25 C
1111 15-03-2008 06:16:05 4 C 75 % -0.02 C
1112 15-03-2008 06:28:05 4 C 75 % -0.02 C
1113 15-03-2008 06:40:05 4.1 C 75 % 0.08 C
1114 15-03-2008 06:52:05 4.2 C 75 % 0.17 C
1115 15-03-2008 07:04:05 4.3 C 75 % 0.27 C
1116 15-03-2008 07:16:05 4.4 C 75 % 0.37 C
1117 15-03-2008 07:28:05 4.4 C 76 % 0.55 C
1118 15-03-2008 07:40:05 4.6 C 76 % 0.74 C
1119 15-03-2008 07:52:05 4.9 C 76 % 1.03 C
1120 15-03-2008 08:04:05 5.1 C 74 % 0.86 C
1121 15-03-2008 08:16:05 5.5 C 73 % 1.06 C
1122 15-03-2008 08:28:05 5.7 C 71 % 0.86 C
1123 15-03-2008 08:40:05 6.1 C 69 % 0.85 C
1124 15-03-2008 08:52:02 6.5 C 67 % 0.83 C
1125 15-03-2008 09:04:02 6.6 C 64 % 0.29 C
Sensor: Nr:Datum:Temp:Feuchte:Taupunkt:
Aussen-T/F 1126 15-03-2008 09:16:02 7.1 C 64 % 0.76 C
1127 15-03-2008 09:28:02 7.6 C 62 % 0.8 C
1128 15-03-2008 09:40:02 7.7 C 62 % 0.89 C
1129 15-03-2008 09:52:02 8.1 C 63 % 1.49 C
1130 15-03-2008 10:04:02 8.6 C 61 % 1.52 C
1131 15-03-2008 10:16:02 8.9 C 59 % 1.34 C
1132 15-03-2008 10:28:02 9.2 C 57 % 1.14 C
1133 15-03-2008 10:40:02 9.5 C 55 % 0.92 C
1134 15-03-2008 10:52:02 9.4 C 55 % 0.83 C
1135 15-03-2008 11:04:02 10.1 C 55 % 1.48 C
1136 15-03-2008 11:16:02 10.7 C 52 % 1.26 C
1137 15-03-2008 11:28:02 11.3 C 50 % 1.27 C
1138 15-03-2008 11:40:01 12.1 C 48 % 1.44 C
1139 15-03-2008 11:52:01 12.5 C 48 % 1.8 C
1140 15-03-2008 12:04:02 13.1 C 47 % 2.06 C
1141 15-03-2008 12:16:02 13.5 C 46 % 2.12 C
1142 15-03-2008 12:28:02 14.2 C 45 % 2.45 C
1143 15-03-2008 12:40:02 15 C 42 % 2.21 C
1144 15-03-2008 12:52:02 15.4 C 41 % 2.23 C
1145 15-03-2008 13:04:02 15.9 C 40 % 2.33 C
1146 15-03-2008 13:16:01 17.1 C 36 % 1.93 C
1147 15-03-2008 13:28:01 16.3 C 35 % 0.83 C
1148 15-03-2008 13:40:02 16.6 C 36 % 1.49 C
1149 15-03-2008 13:52:02 17.8 C 34 % 1.75 C
1150 15-03-2008 14:04:02 17.2 C 33 % 0.81 C
Sensor: Nr:Datum:Temp:Feuchte:Taupunkt:
Aussen-T/F 1151 15-03-2008 14:16:02 17.3 C 32 % 0.47 C
1152 15-03-2008 14:28:02 17.5 C 32 % 0.64 C
1153 15-03-2008 14:40:02 17.5 C 32 % 0.64 C
1154 15-03-2008 14:52:02 17.2 C 33 % 0.81 C
1155 15-03-2008 15:04:02 17.5 C 32 % 0.64 C
1156 15-03-2008 15:16:01 17.5 C 31 % 0.2 C
1157 15-03-2008 15:28:01 16.8 C 32 % 0.03 C
1158 15-03-2008 15:40:02 16.5 C 34 % 0.6 C
1159 15-03-2008 15:52:02 16.2 C 35 % 0.74 C
1160 15-03-2008 16:04:02 16.4 C 34 % 0.52 C
1161 15-03-2008 16:16:03 16.6 C 34 % 0.69 C
1162 15-03-2008 16:28:03 16.5 C 33 % 0.19 C
1163 15-03-2008 16:40:02 15.9 C 35 % 0.48 C
1164 15-03-2008 16:52:02 15.6 C 36 % 0.6 C
1165 15-03-2008 17:04:02 15.1 C 38 % 0.9 C
1166 15-03-2008 17:16:02 14.8 C 41 % 1.69 C
1167 15-03-2008 17:28:02 14.7 C 42 % 1.94 C
1168 15-03-2008 17:40:01 14.5 C 43 % 2.09 C
1169 15-03-2008 17:52:02 14.1 C 45 % 2.36 C
1170 15-03-2008 18:04:02 13.8 C 47 % 2.7 C
1171 15-03-2008 18:16:02 13.2 C 50 % 3.02 C
1172 15-03-2008 18:28:02 12.9 C 51 % 3.02 C
1173 15-03-2008 18:40:02 12.6 C 53 % 3.29 C
1174 15-03-2008 18:52:02 12.2 C 54 % 3.18 C
1175 15-03-2008 19:04:02 12 C 55 % 3.25 C
Sensor: Nr:Datum:Temp:Feuchte:Taupunkt:
Aussen-T/F 1176 15-03-2008 19:16:02 11.7 C 57 % 3.48 C
1177 15-03-2008 19:28:02 11.6 C 58 % 3.63 C
1178 15-03-2008 19:40:01 11.5 C 58 % 3.54 C
1179 15-03-2008 19:52:01 11.4 C 59 % 3.68 C
1180 15-03-2008 20:04:02 11.2 C 59 % 3.5 C
1181 15-03-2008 20:16:02 10.9 C 61 % 3.69 C
1182 15-03-2008 20:28:02 10.8 C 61 % 3.59 C
1183 15-03-2008 20:40:01 10.6 C 62 % 3.63 C
1184 15-03-2008 20:52:01 10.4 C 62 % 3.44 C
1185 15-03-2008 21:04:02 10.2 C 63 % 3.48 C
1186 15-03-2008 21:16:02 10.1 C 64 % 3.61 C
1187 15-03-2008 21:28:02 9.9 C 65 % 3.64 C
1188 15-03-2008 21:40:02 9.8 C 65 % 3.54 C
1189 15-03-2008 21:52:02 9.8 C 65 % 3.54 C
1190 15-03-2008 22:04:02 9.6 C 66 % 3.57 C
1191 15-03-2008 22:16:01 9.5 C 67 % 3.69 C
1192 15-03-2008 22:28:01 9.5 C 67 % 3.69 C
1193 15-03-2008 22:40:02 9.6 C 68 % 3.99 C
1194 15-03-2008 22:52:03 9.6 C 67 % 3.78 C
1195 15-03-2008 23:04:02 9.6 C 68 % 3.99 C
1196 15-03-2008 23:16:02 9.6 C 68 % 3.99 C
1197 15-03-2008 23:28:02 9.6 C 67 % 3.78 C
1198 15-03-2008 23:40:03 9.6 C 68 % 3.99 C
1199 15-03-2008 23:52:02 9.6 C 67 % 3.78 C
1200 16-03-2008 00:05:03 9.5 C 68 % 3.9 C
Sensor: Nr:Datum:Temp:Feuchte:Taupunkt:
Aussen-T/F 1201 16-03-2008 00:17:03 9.4 C 68 % 3.8 C
1202 16-03-2008 00:29:03 9.2 C 68 % 3.61 C
1203 16-03-2008 00:41:03 9.3 C 69 % 3.91 C
1204 16-03-2008 00:53:03 9.2 C 69 % 3.82 C
1205 16-03-2008 01:05:03 9.2 C 69 % 3.82 C
1206 16-03-2008 01:17:03 9.1 C 70 % 3.93 C
1207 16-03-2008 01:29:03 9.1 C 71 % 4.13 C
1208 16-03-2008 01:41:03 9.1 C 74 % 4.72 C
1209 16-03-2008 01:53:03 9.2 C 78 % 5.57 C
1210 16-03-2008 02:05:03 9.1 C 81 % 6.02 C
1211 16-03-2008 02:17:03 9.3 C 84 % 6.74 C
1212 16-03-2008 02:29:03 9.8 C 86 % 7.57 C
1213 16-03-2008 02:41:04 10.3 C 87 % 8.23 C
1214 16-03-2008 02:53:04 10.5 C 85 % 8.09 C
1215 16-03-2008 03:05:04 10.4 C 82 % 7.46 C
1216 16-03-2008 03:17:04 10.6 C 77 % 6.74 C
1217 16-03-2008 03:29:04 10.4 C 74 % 5.97 C
1218 16-03-2008 03:41:04 10.3 C 74 % 5.88 C
1219 16-03-2008 03:53:04 10.3 C 74 % 5.88 C
1220 16-03-2008 04:05:04 10.3 C 72 % 5.48 C
1221 16-03-2008 04:17:04 10.3 C 71 % 5.28 C
1222 16-03-2008 04:29:04 10.2 C 70 % 4.98 C
1223 16-03-2008 04:41:04 10.2 C 67 % 4.36 C
1224 16-03-2008 04:53:04 10.1 C 66 % 4.05 C
1225 16-03-2008 05:05:04 10 C 67 % 4.16 C
Sensor: Nr:Datum:Temp:Feuchte:Taupunkt:
Aussen-T/F 1226 16-03-2008 05:17:04 10.1 C 66 % 4.05 C
1227 16-03-2008 05:29:04 10 C 63 % 3.29 C
1228 16-03-2008 05:41:04 9.7 C 64 % 3.23 C
1229 16-03-2008 05:53:04 9.7 C 64 % 3.23 C
1230 16-03-2008 06:05:04 9.6 C 61 % 2.46 C
1231 16-03-2008 06:17:04 9.4 C 62 % 2.5 C
1232 16-03-2008 06:29:05 9.4 C 63 % 2.72 C
1233 16-03-2008 06:41:03 9.4 C 63 % 2.72 C
1234 16-03-2008 06:53:02 9.3 C 63 % 2.63 C
1235 16-03-2008 07:05:03 9.6 C 63 % 2.91 C
1236 16-03-2008 07:17:02 9.6 C 64 % 3.14 C
1237 16-03-2008 07:29:02 9.7 C 62 % 2.78 C
1238 16-03-2008 07:41:02 9.6 C 62 % 2.69 C
1239 16-03-2008 07:53:01 9.9 C 60 % 2.51 C
1240 16-03-2008 08:05:02 9.9 C 59 % 2.27 C
1241 16-03-2008 08:17:01 10.1 C 56 % 1.73 C
1242 16-03-2008 08:29:01 10.3 C 54 % 1.41 C
1243 16-03-2008 08:41:01 10.6 C 52 % 1.17 C
1244 16-03-2008 08:53:02 10.8 C 51 % 1.08 C
1245 16-03-2008 09:05:02 10.8 C 51 % 1.08 C
1246 16-03-2008 09:17:01 10.8 C 51 % 1.08 C
1247 16-03-2008 09:29:01 10.7 C 52 % 1.26 C
1248 16-03-2008 09:41:02 10.9 C 53 % 1.71 C
1249 16-03-2008 09:53:02 11.3 C 51 % 1.54 C
1250 16-03-2008 10:05:01 11 C 53 % 1.8 C
Sensor: Nr:Datum:Temp:Feuchte:Taupunkt:
Aussen-T/F 1251 16-03-2008 10:17:01 11.3 C 52 % 1.81 C
1252 16-03-2008 10:29:01 11.6 C 51 % 1.82 C
1253 16-03-2008 10:41:01 11.5 C 53 % 2.27 C
1254 16-03-2008 10:53:02 11.4 C 54 % 2.44 C
1255 16-03-2008 11:05:03 10.6 C 61 % 3.4 C
1256 16-03-2008 11:17:02 9.8 C 68 % 4.18 C
1257 16-03-2008 11:29:02 9.2 C 74 % 4.81 C
1258 16-03-2008 11:41:02 9.2 C 77 % 5.38 C
1259 16-03-2008 11:53:02 9.4 C 80 % 6.13 C
1260 16-03-2008 12:05:02 9.9 C 79 % 6.43 C
1261 16-03-2008 12:17:02 10.2 C 74 % 5.78 C
1262 16-03-2008 12:29:02 10 C 72 % 5.19 C
1263 16-03-2008 12:41:02 9.7 C 74 % 5.3 C
1264 16-03-2008 12:53:02 9.9 C 74 % 5.49 C
1265 16-03-2008 13:05:02 9.7 C 73 % 5.1 C
1266 16-03-2008 13:17:02 9.9 C 74 % 5.49 C
1267 16-03-2008 13:29:02 10.6 C 72 % 5.77 C
1268 16-03-2008 13:41:02 11.8 C 61 % 4.53 C
1269 16-03-2008 13:53:02 11.8 C 58 % 3.82 C
1270 16-03-2008 14:05:03 11.9 C 59 % 4.15 C
1271 16-03-2008 14:17:02 11.8 C 57 % 3.57 C
1272 16-03-2008 14:29:02 11.5 C 60 % 4.02 C
1273 16-03-2008 14:41:02 10.7 C 68 % 5.04 C
1274 16-03-2008 14:53:01 10.4 C 73 % 5.78 C
1275 16-03-2008 15:05:01 10 C 75 % 5.78 C
Sensor: Nr:Datum:Temp:Feuchte:Taupunkt:
Aussen-T/F 1276 16-03-2008 15:17:02 9.8 C 77 % 5.97 C
1277 16-03-2008 15:29:02 9.9 C 79 % 6.43 C
1278 16-03-2008 15:41:02 9.9 C 80 % 6.62 C
1279 16-03-2008 15:53:02 10.5 C 79 % 7.02 C
1280 16-03-2008 16:05:03 11.6 C 69 % 6.11 C
1281 16-03-2008 16:17:02 12.7 C 60 % 5.14 C
1282 16-03-2008 16:29:02 12.3 C 59 % 4.53 C
1283 16-03-2008 16:41:02 11.3 C 64 % 4.75 C
1284 16-03-2008 16:53:01 10.8 C 70 % 5.56 C
1285 16-03-2008 17:05:02 10.5 C 71 % 5.47 C
1286 16-03-2008 17:17:01 10 C 76 % 5.97 C
1287 16-03-2008 17:29:01 10 C 80 % 6.71 C
1288 16-03-2008 17:41:01 9.7 C 82 % 6.78 C
1289 16-03-2008 17:53:01 9.8 C 83 % 7.05 C
1290 16-03-2008 18:05:02 9.6 C 84 % 7.03 C
1291 16-03-2008 18:17:02 9.4 C 84 % 6.84 C
1292 16-03-2008 18:29:02 9.3 C 83 % 6.57 C
1293 16-03-2008 18:41:01 9.3 C 81 % 6.21 C
1294 16-03-2008 18:53:01 9.2 C 80 % 5.94 C
1295 16-03-2008 19:05:02 9.1 C 81 % 6.02 C
1296 16-03-2008 19:17:02 9 C 82 % 6.1 C
1297 16-03-2008 19:29:03 9 C 83 % 6.27 C
1298 16-03-2008 19:41:01 9 C 84 % 6.45 C
1299 16-03-2008 19:53:01 9 C 84 % 6.45 C
1300 16-03-2008 20:05:02 9 C 85 % 6.62 C
Sensor: Nr:Datum:Temp:Feuchte:Taupunkt:
Aussen-T/F 1301 16-03-2008 20:17:02 9 C 84 % 6.45 C
1302 16-03-2008 20:29:02 9 C 82 % 6.1 C
1303 16-03-2008 20:41:01 9 C 80 % 5.74 C
1304 16-03-2008 20:53:01 9 C 79 % 5.56 C
1305 16-03-2008 21:05:02 9 C 79 % 5.56 C
1306 16-03-2008 21:17:02 8.8 C 81 % 5.72 C
1307 16-03-2008 21:29:02 8.7 C 82 % 5.8 C
1308 16-03-2008 21:41:01 8.6 C 84 % 6.05 C
1309 16-03-2008 21:53:01 8.5 C 84 % 5.96 C
1310 16-03-2008 22:05:02 8.6 C 85 % 6.23 C
1311 16-03-2008 22:17:01 8.5 C 86 % 6.3 C
1312 16-03-2008 22:29:01 8.5 C 87 % 6.46 C
1313 16-03-2008 22:41:02 8.4 C 88 % 6.53 C
1314 16-03-2008 22:53:02 8.4 C 88 % 6.53 C
1315 16-03-2008 23:06:03 8.4 C 88 % 6.53 C
1316 16-03-2008 23:18:03 8.4 C 88 % 6.53 C
1317 16-03-2008 23:30:03 8.4 C 89 % 6.7 C
1318 16-03-2008 23:42:03 8.4 C 89 % 6.7 C
1319 16-03-2008 23:54:03 8.4 C 89 % 6.7 C
1320 17-03-2008 00:06:03 8.4 C 89 % 6.7 C
1321 17-03-2008 00:18:03 8.4 C 89 % 6.7 C
1322 17-03-2008 00:30:04 8.4 C 89 % 6.7 C
1323 17-03-2008 00:42:04 8.4 C 90 % 6.86 C
1324 17-03-2008 00:54:04 8.3 C 89 % 6.6 C
1325 17-03-2008 01:06:04 8.2 C 89 % 6.5 C
Sensor: Nr:Datum:Temp:Feuchte:Taupunkt:
Aussen-T/F 1326 17-03-2008 01:18:04 8 C 87 % 5.97 C
1327 17-03-2008 01:30:04 7.7 C 83 % 5 C
1328 17-03-2008 01:42:04 7.7 C 78 % 4.11 C
1329 17-03-2008 01:54:04 7.4 C 79 % 4 C
1330 17-03-2008 02:06:04 7.1 C 79 % 3.71 C
1331 17-03-2008 02:18:04 7 C 78 % 3.43 C
1332 17-03-2008 02:30:04 6.8 C 79 % 3.42 C
1333 17-03-2008 02:42:04 6.4 C 79 % 3.03 C
1334 17-03-2008 02:54:04 6.3 C 78 % 2.75 C
1335 17-03-2008 03:06:04 6.1 C 78 % 2.56 C
1336 17-03-2008 03:18:04 6 C 75 % 1.91 C
1337 17-03-2008 03:30:04 5.8 C 77 % 2.09 C
1338 17-03-2008 03:42:04 5.9 C 77 % 2.19 C
1339 17-03-2008 03:54:04 5.8 C 75 % 1.72 C
1340 17-03-2008 04:06:04 5.8 C 73 % 1.34 C
1341 17-03-2008 04:18:04 5.8 C 72 % 1.15 C
1342 17-03-2008 04:30:05 5.8 C 72 % 1.15 C
1343 17-03-2008 04:42:05 5.8 C 70 % 0.76 C
1344 17-03-2008 04:54:05 5.9 C 70 % 0.86 C
1345 17-03-2008 05:06:05 5.8 C 70 % 0.76 C
1346 17-03-2008 05:18:05 5.8 C 70 % 0.76 C
1347 17-03-2008 05:30:05 5.8 C 70 % 0.76 C
1348 17-03-2008 05:42:05 5.8 C 69 % 0.56 C
1349 17-03-2008 05:54:05 5.8 C 69 % 0.56 C
1350 17-03-2008 06:06:05 5.8 C 68 % 0.36 C
Sensor: Nr:Datum:Temp:Feuchte:Taupunkt:
Aussen-T/F 1351 17-03-2008 06:18:05 5.7 C 69 % 0.47 C
1352 17-03-2008 06:30:05 5.7 C 67 % 0.06 C
1353 17-03-2008 06:42:05 5.7 C 67 % 0.06 C
1354 17-03-2008 06:54:05 5.7 C 64 % -0.56 C
1355 17-03-2008 07:06:05 5.7 C 65 % -0.35 C
1356 17-03-2008 07:18:02 5.8 C 64 % -0.47 C
1357 17-03-2008 07:30:02 5.8 C 64 % -0.47 C
1358 17-03-2008 07:42:03 5.7 C 61 % -1.22 C
1359 17-03-2008 07:54:03 5.7 C 61 % -1.22 C
1360 17-03-2008 08:06:02 5.6 C 58 % -2 C
1361 17-03-2008 08:18:02 5.6 C 58 % -2 C
1362 17-03-2008 08:30:02 5.5 C 56 % -2.56 C
1363 17-03-2008 08:42:02 5.7 C 53 % -3.12 C
1364 17-03-2008 08:54:02 5.9 C 51 % -3.44 C
1365 17-03-2008 09:06:02 6.1 C 48 % -4.07 C
1366 17-03-2008 09:18:01 5.9 C 47 % -4.53 C
1367 17-03-2008 09:30:01 5.9 C 50 % -3.71 C
1368 17-03-2008 09:42:02 6 C 50 % -3.62 C
1369 17-03-2008 09:54:02 6 C 50 % -3.62 C
1370 17-03-2008 10:06:01 6.4 C 48 % -3.79 C
1371 17-03-2008 10:18:02 6.6 C 49 % -3.33 C
1372 17-03-2008 10:30:02 6.5 C 44 % -4.85 C
1373 17-03-2008 10:42:02 6.4 C 45 % -4.65 C
1374 17-03-2008 10:54:02 6.5 C 50 % -3.16 C
1375 17-03-2008 11:06:02 6.4 C 52 % -2.72 C
Sensor: Nr:Datum:Temp:Feuchte:Taupunkt:
Aussen-T/F 1376 17-03-2008 11:18:02 6.3 C 54 % -2.31 C
1377 17-03-2008 11:30:02 6.8 C 47 % -3.71 C
1378 17-03-2008 11:42:02 7.3 C 43 % -4.43 C
1379 17-03-2008 11:54:02 7.3 C 43 % -4.43 C
1380 17-03-2008 12:06:02 6.8 C 43 % -4.88 C
1381 17-03-2008 12:18:03 5.8 C 46 % -4.91 C
1382 17-03-2008 12:30:03 6.5 C 46 % -4.27 C
1383 17-03-2008 12:42:02 7.1 C 42 % -4.92 C
1384 17-03-2008 12:54:01 6.5 C 46 % -4.27 C
1385 17-03-2008 13:06:01 6 C 47 % -4.44 C
1386 17-03-2008 13:18:02 6.3 C 43 % -5.34 C
1387 17-03-2008 13:30:02 7.1 C 40 % -5.56 C
1388 17-03-2008 13:42:01 7.1 C 37 % -6.58 C
1389 17-03-2008 13:54:02 6.5 C 36 % -7.47 C
1390 17-03-2008 14:06:02 7.1 C 35 % -7.3 C
1391 17-03-2008 14:18:02 7.7 C 33 % -7.53 C
1392 17-03-2008 14:30:03 6.4 C 35 % -7.92 C
1393 17-03-2008 14:42:02 6.9 C 35 % -7.48 C
1394 17-03-2008 14:54:02 6.9 C 33 % -8.23 C
1395 17-03-2008 15:06:02 6.8 C 33 % -8.32 C
1396 17-03-2008 15:18:02 7 C 31 % -8.94 C
1397 17-03-2008 15:30:02 6.8 C 33 % -8.32 C
1398 17-03-2008 15:42:02 7 C 35 % -7.39 C
1399 17-03-2008 15:54:01 7.4 C 35 % -7.03 C
1400 17-03-2008 16:06:02 6.7 C 36 % -7.29 C
Sensor: Nr:Datum:Temp:Feuchte:Taupunkt:
Aussen-T/F 1401 17-03-2008 16:18:02 6.6 C 37 % -7.03 C
1402 17-03-2008 16:30:02 6.5 C 38 % -6.77 C
1403 17-03-2008 16:42:01 6.5 C 39 % -6.43 C
1404 17-03-2008 16:54:01 6.2 C 39 % -6.7 C
1405 17-03-2008 17:06:02 6 C 40 % -6.55 C
1406 17-03-2008 17:18:02 5.9 C 40 % -6.64 C
1407 17-03-2008 17:30:02 5.9 C 40 % -6.64 C
1408 17-03-2008 17:42:01 5.7 C 42 % -6.19 C
1409 17-03-2008 17:54:01 5.5 C 45 % -5.47 C
1410 17-03-2008 18:06:02 5.4 C 46 % -5.27 C
1411 17-03-2008 18:18:01 5.3 C 46 % -5.36 C
1412 17-03-2008 18:30:01 5.2 C 47 % -5.17 C
1413 17-03-2008 18:42:02 5.1 C 48 % -4.99 C
1414 17-03-2008 18:54:02 4.7 C 50 % -4.82 C
1415 17-03-2008 19:06:01 4.7 C 50 % -4.82 C
1416 17-03-2008 19:18:01 4.8 C 49 % -4.99 C
1417 17-03-2008 19:30:01 4.8 C 47 % -5.54 C
1418 17-03-2008 19:42:02 4.8 C 45 % -6.11 C
1419 17-03-2008 19:54:02 4.7 C 46 % -5.91 C
1420 17-03-2008 20:06:02 4.7 C 46 % -5.91 C
1421 17-03-2008 20:18:02 4.7 C 46 % -5.91 C
1422 17-03-2008 20:30:02 4.7 C 46 % -5.91 C
1423 17-03-2008 20:42:02 4.6 C 46 % -6 C
1424 17-03-2008 20:54:02 4.5 C 47 % -5.81 C
1425 17-03-2008 21:06:01 4.1 C 48 % -5.9 C
Sensor: Nr:Datum:Temp:Feuchte:Taupunkt:
Aussen-T/F 1426 17-03-2008 21:18:02 3.9 C 50 % -5.55 C
1427 17-03-2008 21:30:02 3.9 C 51 % -5.29 C
1428 17-03-2008 21:42:02 4.1 C 47 % -6.18 C
1429 17-03-2008 21:54:02 4.2 C 48 % -5.81 C
1430 17-03-2008 22:06:02 4.2 C 49 % -5.54 C
1431 17-03-2008 22:19:04 4.2 C 49 % -5.54 C
1432 17-03-2008 22:31:04 4.2 C 49 % -5.54 C
1433 17-03-2008 22:43:04 4.2 C 48 % -5.81 C
1434 17-03-2008 22:55:04 4.2 C 49 % -5.54 C
1435 17-03-2008 23:07:04 4.1 C 50 % -5.37 C
1436 17-03-2008 23:19:04 3.8 C 54 % -4.63 C
1437 17-03-2008 23:31:04 3.6 C 55 % -4.58 C
1438 17-03-2008 23:43:04 3.4 C 57 % -4.29 C
1439 17-03-2008 23:55:04 3.3 C 58 % -4.16 C
1440 18-03-2008 00:07:04 3.3 C 58 % -4.16 C
1441 18-03-2008 00:19:04 3.4 C 58 % -4.06 C
1442 18-03-2008 00:31:04 3.4 C 57 % -4.29 C
1443 18-03-2008 00:43:04 3.5 C 57 % -4.2 C
1444 18-03-2008 00:55:04 3.4 C 58 % -4.06 C
1445 18-03-2008 01:07:04 3 C 61 % -3.77 C
1446 18-03-2008 01:19:05 2.9 C 63 % -3.43 C
1447 18-03-2008 01:31:05 2.8 C 63 % -3.53 C
1448 18-03-2008 01:43:05 2.8 C 63 % -3.53 C
1449 18-03-2008 01:55:05 2.7 C 63 % -3.62 C
1450 18-03-2008 02:07:05 2.7 C 62 % -3.84 C
Sensor: Nr:Datum:Temp:Feuchte:Taupunkt:
Aussen-T/F 1451 18-03-2008 02:19:05 2.7 C 61 % -4.05 C
1452 18-03-2008 02:31:05 2.7 C 60 % -4.27 C
1453 18-03-2008 02:43:05 2.4 C 60 % -4.55 C
1454 18-03-2008 02:55:05 2.1 C 61 % -4.62 C
1455 18-03-2008 03:07:05 2 C 60 % -4.93 C
1456 18-03-2008 03:19:05 2.2 C 60 % -4.74 C
1457 18-03-2008 03:31:05 2.2 C 60 % -4.74 C
1458 18-03-2008 03:43:05 2 C 61 % -4.71 C
1459 18-03-2008 03:55:05 1.7 C 64 % -4.36 C
1460 18-03-2008 04:07:05 1.7 C 65 % -4.16 C
1461 18-03-2008 04:19:05 1.5 C 64 % -4.55 C
1462 18-03-2008 04:31:05 1.3 C 64 % -4.74 C
1463 18-03-2008 04:43:05 0.9 C 66 % -4.72 C
1464 18-03-2008 04:55:05 0.6 C 67 % -4.81 C
1465 18-03-2008 05:07:06 0.8 C 71 % -3.85 C
1466 18-03-2008 05:19:03 0.7 C 71 % -3.94 C
1467 18-03-2008 05:31:03 0.7 C 71 % -3.94 C
1468 18-03-2008 05:43:03 0.5 C 71 % -4.13 C
1469 18-03-2008 05:55:02 0.5 C 73 % -3.76 C
1470 18-03-2008 06:07:02 0.5 C 74 % -3.58 C
1471 18-03-2008 06:19:02 0.2 C 75 % -3.69 C
1472 18-03-2008 06:31:03 0.1 C 76 % -3.62 C
1473 18-03-2008 06:43:03 0.4 C 78 % -2.98 C
1474 18-03-2008 06:55:02 0.8 C 76 % -2.94 C
1475 18-03-2008 07:07:02 0.9 C 75 % -3.02 C
Sensor: Nr:Datum:Temp:Feuchte:Taupunkt:
Aussen-T/F 1476 18-03-2008 07:19:02 0.7 C 74 % -3.39 C
1477 18-03-2008 07:31:02 0.7 C 74 % -3.39 C
1478 18-03-2008 07:43:02 1.1 C 73 % -3.19 C
1479 18-03-2008 07:55:02 1.7 C 72 % -2.79 C
1480 18-03-2008 08:07:02 2 C 68 % -3.27 C
1481 18-03-2008 08:19:01 2 C 66 % -3.67 C
1482 18-03-2008 08:31:02 1.8 C 67 % -3.66 C
1483 18-03-2008 08:43:02 1.8 C 67 % -3.66 C
1484 18-03-2008 08:55:02 1.8 C 67 % -3.66 C
1485 18-03-2008 09:07:02 2.2 C 65 % -3.68 C
1486 18-03-2008 09:19:02 2.5 C 63 % -3.81 C
1487 18-03-2008 09:31:02 3.1 C 59 % -4.12 C
1488 18-03-2008 09:43:02 3.8 C 53 % -4.88 C
1489 18-03-2008 09:55:02 4.2 C 49 % -5.54 C
1490 18-03-2008 10:07:02 4.7 C 48 % -5.35 C
1491 18-03-2008 10:19:01 4.9 C 45 % -6.02 C
1492 18-03-2008 10:31:02 5.1 C 41 % -7.04 C
1493 18-03-2008 10:43:02 5.2 C 40 % -7.27 C
1494 18-03-2008 10:55:02 5 C 40 % -7.45 C
1495 18-03-2008 11:07:01 4.7 C 40 % -7.72 C
1496 18-03-2008 11:19:01 5.5 C 37 % -8.01 C
1497 18-03-2008 11:31:02 5 C 33 % -9.91 C
1498 18-03-2008 11:43:02 5.7 C 34 % -8.91 C
1499 18-03-2008 11:55:02 5.9 C 30 % -10.32 C
1500 18-03-2008 12:07:02 5.7 C 29 % -10.92 C
Sensor: Nr:Datum:Temp:Feuchte:Taupunkt:
Aussen-T/F 1501 18-03-2008 12:19:01 5.9 C 27 % -11.63 C
1502 18-03-2008 12:31:02 6.5 C 20 % -14.8 C
1503 18-03-2008 12:43:02 6.5 C 20 % -14.8 C
1504 18-03-2008 12:55:01 7.4 C 20 % -14.05 C
1505 18-03-2008 13:07:01 7 C 20 % -14.39 C
1506 18-03-2008 13:19:02 7.4 C 20 % -14.05 C
1507 18-03-2008 13:31:01 7.6 C 20 % -13.89 C
1508 18-03-2008 13:43:01 7.3 C 20 % -14.14 C
1509 18-03-2008 13:55:02 7.3 C 20 % -14.14 C
1510 18-03-2008 14:07:01 7.8 C 20 % -13.72 C
1511 18-03-2008 14:19:02 6.9 C 25 % -11.73 C
1512 18-03-2008 14:31:02 6.8 C 30 % -9.53 C
1513 18-03-2008 14:43:02 7.5 C 28 % -9.8 C
1514 18-03-2008 14:55:02 9.2 C 20 % -12.56 C
1515 18-03-2008 15:07:02 7.7 C 25 % -11.05 C
1516 18-03-2008 15:19:02 9 C 20 % -12.72 C
1517 18-03-2008 15:31:02 7.9 C 25 % -10.88 C
1518 18-03-2008 15:43:02 8.2 C 21 % -12.79 C
1519 18-03-2008 15:55:01 8.7 C 20 % -12.97 C
1520 18-03-2008 16:07:01 9.1 C 20 % -12.64 C
1521 18-03-2008 16:19:02 9.2 C 20 % -12.56 C
1522 18-03-2008 16:31:01 9.2 C 20 % -12.56 C
1523 18-03-2008 16:43:01 8 C 20 % -13.56 C
1524 18-03-2008 16:55:02 6.2 C 44 % -5.13 C
1525 18-03-2008 17:07:01 7 C 37 % -6.67 C
Sensor: Nr:Datum:Temp:Feuchte:Taupunkt:
Aussen-T/F 1526 18-03-2008 17:19:02 7.5 C 31 % -8.51 C
1527 18-03-2008 17:31:02 7.8 C 28 % -9.54 C
1528 18-03-2008 17:43:02 7.7 C 27 % -10.09 C
1529 18-03-2008 17:55:03 7.7 C 28 % -9.63 C
1530 18-03-2008 18:07:03 7.2 C 26 % -10.99 C
1531 18-03-2008 18:19:02 6.8 C 27 % -10.86 C
1532 18-03-2008 18:31:02 6.3 C 29 % -10.4 C
1533 18-03-2008 18:43:02 5.9 C 31 % -9.91 C
1534 18-03-2008 18:55:02 5.6 C 32 % -9.77 C
1535 18-03-2008 19:07:03 5.3 C 35 % -8.9 C
1536 18-03-2008 19:19:03 5 C 36 % -8.8 C
1537 18-03-2008 19:31:02 4.8 C 39 % -7.96 C
1538 18-03-2008 19:43:02 4.8 C 40 % -7.63 C
1539 18-03-2008 19:55:02 4.6 C 40 % -7.81 C
1540 18-03-2008 20:07:02 4.6 C 40 % -7.81 C
1541 18-03-2008 20:19:01 4.5 C 40 % -7.9 C
1542 18-03-2008 20:31:02 4.3 C 41 % -7.77 C
1543 18-03-2008 20:43:02 4.2 C 41 % -7.86 C
1544 18-03-2008 20:55:01 4.3 C 41 % -7.77 C
1545 18-03-2008 21:07:02 4.2 C 41 % -7.86 C
1546 18-03-2008 21:19:02 3.9 C 45 % -6.93 C
1547 18-03-2008 21:31:01 3.4 C 50 % -6.02 C
1548 18-03-2008 21:43:01 3.4 C 51 % -5.76 C
1549 18-03-2008 21:55:01 3.5 C 51 % -5.66 C
1550 18-03-2008 22:07:01 3.6 C 52 % -5.32 C
Sensor: Nr:Datum:Temp:Feuchte:Taupunkt:
Aussen-T/F 1551 18-03-2008 22:19:01 3.6 C 53 % -5.07 C
1552 18-03-2008 22:31:01 4 C 51 % -5.2 C
1553 18-03-2008 22:43:01 4 C 51 % -5.2 C
1554 18-03-2008 22:55:01 4.2 C 52 % -4.76 C
1555 18-03-2008 23:07:01 4.2 C 55 % -4.02 C
1556 18-03-2008 23:19:01 4.1 C 56 % -3.87 C
1557 18-03-2008 23:31:01 4.1 C 57 % -3.64 C
1558 18-03-2008 23:43:01 4.1 C 57 % -3.64 C
1559 18-03-2008 23:55:02 4 C 59 % -3.27 C
1560 19-03-2008 00:07:02 3.8 C 62 % -2.8 C
1561 19-03-2008 00:19:02 3.7 C 65 % -2.25 C
1562 19-03-2008 00:31:02 3.5 C 67 % -2.04 C
1563 19-03-2008 00:43:02 3.4 C 67 % -2.13 C
1564 19-03-2008 00:55:02 3.6 C 67 % -1.94 C
1565 19-03-2008 01:07:02 3.6 C 66 % -2.14 C
1566 19-03-2008 01:19:02 3.5 C 67 % -2.04 C
1567 19-03-2008 01:31:02 3.3 C 65 % -2.64 C
1568 19-03-2008 01:43:02 3.2 C 65 % -2.73 C
1569 19-03-2008 01:55:02 3 C 66 % -2.72 C
1570 19-03-2008 02:07:02 2.8 C 67 % -2.7 C
1571 19-03-2008 02:19:02 2.7 C 67 % -2.8 C
1572 19-03-2008 02:31:02 2.7 C 68 % -2.6 C
1573 19-03-2008 02:43:02 2.9 C 69 % -2.21 C
1574 19-03-2008 02:55:02 3.1 C 65 % -2.83 C
1575 19-03-2008 03:07:02 3.1 C 63 % -3.24 C
Sensor: Nr:Datum:Temp:Feuchte:Taupunkt:
Aussen-T/F 1576 19-03-2008 03:19:02 3.1 C 62 % -3.46 C
1577 19-03-2008 03:31:02 2.9 C 64 % -3.22 C
1578 19-03-2008 03:43:02 2.7 C 65 % -3.21 C
1579 19-03-2008 03:55:03 2.5 C 65 % -3.4 C
1580 19-03-2008 04:07:03 2.4 C 66 % -3.29 C
1581 19-03-2008 04:19:03 2.3 C 67 % -3.18 C
1582 19-03-2008 04:31:03 2.4 C 67 % -3.09 C
1583 19-03-2008 04:43:03 2.6 C 66 % -3.1 C
1584 19-03-2008 04:55:03 2.5 C 67 % -2.99 C
1585 19-03-2008 05:07:03 2.4 C 68 % -2.89 C
1586 19-03-2008 05:19:03 2.5 C 67 % -2.99 C
1587 19-03-2008 05:31:03 2.4 C 66 % -3.29 C
1588 19-03-2008 05:43:03 2.4 C 67 % -3.09 C
1589 19-03-2008 05:55:03 2.3 C 67 % -3.18 C
1590 19-03-2008 06:07:03 2.3 C 67 % -3.18 C
1591 19-03-2008 06:19:01 2.1 C 68 % -3.17 C
1592 19-03-2008 06:31:02 1.8 C 70 % -3.07 C
1593 19-03-2008 06:43:02 2 C 70 % -2.88 C
1594 19-03-2008 06:55:02 2 C 69 % -3.08 C
1595 19-03-2008 07:07:01 2.2 C 69 % -2.88 C
1596 19-03-2008 07:19:01 2.2 C 67 % -3.28 C
1597 19-03-2008 07:31:02 2.2 C 68 % -3.08 C
1598 19-03-2008 07:43:02 2.3 C 72 % -2.22 C
1599 19-03-2008 07:55:02 2.2 C 74 % -1.94 C
1600 19-03-2008 08:07:01 2.1 C 75 % -1.86 C
Sensor: Nr:Datum:Temp:Feuchte:Taupunkt:
Aussen-T/F 1601 19-03-2008 08:19:01 2 C 77 % -1.6 C
1602 19-03-2008 08:31:02 2.2 C 78 % -1.23 C
1603 19-03-2008 08:43:02 2.2 C 79 % -1.05 C
1604 19-03-2008 08:55:01 2.2 C 79 % -1.05 C
1605 19-03-2008 09:07:01 2.5 C 78 % -0.94 C
1606 19-03-2008 09:19:02 2.5 C 77 % -1.11 C
1607 19-03-2008 09:31:01 2.6 C 76 % -1.19 C
1608 19-03-2008 09:43:01 2.7 C 76 % -1.1 C
1609 19-03-2008 09:55:01 2.9 C 73 % -1.45 C
1610 19-03-2008 10:07:01 3.2 C 70 % -1.73 C
1611 19-03-2008 10:19:02 3.4 C 66 % -2.33 C
1612 19-03-2008 10:31:01 3.6 C 62 % -2.98 C
1613 19-03-2008 10:43:01 4.4 C 55 % -3.83 C
1614 19-03-2008 10:55:01 4.6 C 53 % -4.14 C
1615 19-03-2008 11:07:02 4.6 C 55 % -3.65 C
1616 19-03-2008 11:19:01 4.8 C 53 % -3.95 C
1617 19-03-2008 11:31:01 5.1 C 49 % -4.71 C
1618 19-03-2008 11:43:01 5.1 C 47 % -5.26 C
1619 19-03-2008 11:55:01 6.2 C 45 % -4.83 C
1620 19-03-2008 12:07:02 5.8 C 43 % -5.79 C
1621 19-03-2008 12:19:01 6 C 45 % -5.01 C
1622 19-03-2008 12:31:02 6.1 C 40 % -6.46 C
1623 19-03-2008 12:43:02 4.1 C 57 % -3.64 C
1624 19-03-2008 12:55:02 4.2 C 56 % -3.78 C
1625 19-03-2008 13:07:01 4.6 C 55 % -3.65 C
Sensor: Nr:Datum:Temp:Feuchte:Taupunkt:
Aussen-T/F 1626 19-03-2008 13:19:01 4.4 C 51 % -4.83 C
1627 19-03-2008 13:31:02 5.4 C 47 % -4.99 C
1628 19-03-2008 13:43:02 5.1 C 49 % -4.71 C
1629 19-03-2008 13:55:02 4.8 C 52 % -4.2 C
1630 19-03-2008 14:07:01 5.2 C 54 % -3.33 C
1631 19-03-2008 14:19:02 6.1 C 49 % -3.79 C
1632 19-03-2008 14:31:01 7.8 C 37 % -5.96 C
1633 19-03-2008 14:43:02 3.8 C 60 % -3.23 C
1634 19-03-2008 14:55:01 2.9 C 71 % -1.83 C
1635 19-03-2008 15:07:01 3.6 C 74 % -0.59 C
1636 19-03-2008 15:19:02 5.4 C 68 % -0.02 C
1637 19-03-2008 15:31:01 4.6 C 62 % -2.04 C
1638 19-03-2008 15:43:01 4.4 C 63 % -2.01 C
1639 19-03-2008 15:55:01 6.5 C 50 % -3.16 C
1640 19-03-2008 16:07:01 6.4 C 45 % -4.65 C
1641 19-03-2008 16:19:02 6 C 47 % -4.44 C
1642 19-03-2008 16:31:01 5.1 C 52 % -3.93 C
1643 19-03-2008 16:43:01 4 C 63 % -2.39 C
1644 19-03-2008 16:55:01 5.5 C 58 % -2.09 C
1645 19-03-2008 17:07:02 4.5 C 59 % -2.8 C
1646 19-03-2008 17:19:01 4.4 C 60 % -2.67 C
1647 19-03-2008 17:31:01 4.6 C 57 % -3.17 C
1648 19-03-2008 17:43:01 5.2 C 52 % -3.83 C
1649 19-03-2008 17:55:01 5.6 C 51 % -3.72 C
1650 19-03-2008 18:07:02 5.1 C 52 % -3.93 C
Sensor: Nr:Datum:Temp:Feuchte:Taupunkt:
Aussen-T/F 1651 19-03-2008 18:19:01 4.6 C 55 % -3.65 C
1652 19-03-2008 18:31:01 3.8 C 60 % -3.23 C
1653 19-03-2008 18:43:01 3.4 C 64 % -2.75 C
1654 19-03-2008 18:55:01 3.2 C 66 % -2.53 C
1655 19-03-2008 19:07:02 3 C 67 % -2.51 C
1656 19-03-2008 19:19:01 3.1 C 69 % -2.02 C
1657 19-03-2008 19:31:01 3.3 C 69 % -1.83 C
1658 19-03-2008 19:43:01 3.4 C 68 % -1.93 C
1659 19-03-2008 19:55:01 3.3 C 68 % -2.03 C
1660 19-03-2008 20:07:02 3 C 70 % -1.92 C
1661 19-03-2008 20:19:01 2.8 C 71 % -1.92 C
1662 19-03-2008 20:31:02 2.9 C 71 % -1.83 C
1663 19-03-2008 20:43:02 2.6 C 69 % -2.5 C
1664 19-03-2008 20:55:02 2.4 C 67 % -3.09 C
1665 19-03-2008 21:07:01 2.4 C 67 % -3.09 C
1666 19-03-2008 21:19:01 2.2 C 68 % -3.08 C
1667 19-03-2008 21:31:02 1.9 C 70 % -2.98 C
1668 19-03-2008 21:43:02 1.7 C 72 % -2.79 C
1669 19-03-2008 21:55:02 1.6 C 72 % -2.89 C
1670 19-03-2008 22:08:03 1.4 C 73 % -2.9 C
1671 19-03-2008 22:20:03 1.3 C 74 % -2.81 C
1672 19-03-2008 22:32:03 1.4 C 75 % -2.53 C
1673 19-03-2008 22:44:03 1.5 C 73 % -2.8 C
1674 19-03-2008 22:56:03 1.4 C 73 % -2.9 C
1675 19-03-2008 23:08:03 1.5 C 73 % -2.8 C
Sensor: Nr:Datum:Temp:Feuchte:Taupunkt:
Aussen-T/F 1676 19-03-2008 23:20:03 1.7 C 72 % -2.79 C
1677 19-03-2008 23:32:03 1.7 C 71 % -2.98 C
1678 19-03-2008 23:44:03 1.6 C 71 % -3.08 C
1679 19-03-2008 23:56:03 1.7 C 72 % -2.79 C
1680 20-03-2008 00:08:03 1.7 C 71 % -2.98 C
1681 20-03-2008 00:20:03 1.7 C 71 % -2.98 C
1682 20-03-2008 00:32:03 1.7 C 71 % -2.98 C
1683 20-03-2008 00:44:03 2.1 C 69 % -2.98 C
1684 20-03-2008 00:56:03 2.3 C 69 % -2.79 C
1685 20-03-2008 01:08:03 2.4 C 67 % -3.09 C
1686 20-03-2008 01:20:03 2.4 C 67 % -3.09 C
1687 20-03-2008 01:32:03 2.5 C 67 % -2.99 C
1688 20-03-2008 01:44:04 2.6 C 66 % -3.1 C
1689 20-03-2008 01:56:04 2.6 C 66 % -3.1 C
1690 20-03-2008 02:08:04 2.6 C 66 % -3.1 C
1691 20-03-2008 02:20:04 2.6 C 68 % -2.7 C
1692 20-03-2008 02:32:04 2.5 C 70 % -2.4 C
1693 20-03-2008 02:44:04 2.6 C 67 % -2.9 C
1694 20-03-2008 02:56:04 2.7 C 66 % -3 C
1695 20-03-2008 03:08:04 2.5 C 68 % -2.79 C
1696 20-03-2008 03:20:04 2.4 C 70 % -2.5 C
1697 20-03-2008 03:32:04 2.2 C 71 % -2.5 C
1698 20-03-2008 03:44:04 2.1 C 73 % -2.22 C
1699 20-03-2008 03:56:04 2.1 C 74 % -2.04 C
1700 20-03-2008 04:08:04 1.9 C 75 % -2.05 C
Sensor: Nr:Datum:Temp:Feuchte:Taupunkt:
Aussen-T/F 1701 20-03-2008 04:20:04 1.8 C 74 % -2.33 C
1702 20-03-2008 04:32:04 1.7 C 74 % -2.42 C
1703 20-03-2008 04:44:04 1.6 C 74 % -2.52 C
1704 20-03-2008 04:56:04 1.7 C 75 % -2.24 C
1705 20-03-2008 05:08:04 1.9 C 73 % -2.41 C
1706 20-03-2008 05:20:04 2.2 C 71 % -2.5 C
1707 20-03-2008 05:32:04 2.3 C 69 % -2.79 C
1708 20-03-2008 05:44:05 2.1 C 68 % -3.17 C
1709 20-03-2008 05:56:05 2.2 C 69 % -2.88 C
1710 20-03-2008 06:08:05 2.4 C 67 % -3.09 C
1711 20-03-2008 06:20:05 2.4 C 66 % -3.29 C
1712 20-03-2008 06:32:05 2.6 C 64 % -3.51 C
1713 20-03-2008 06:44:05 2.5 C 64 % -3.6 C
1714 20-03-2008 06:56:01 2.6 C 65 % -3.3 C
1715 20-03-2008 07:08:02 2.5 C 65 % -3.4 C
1716 20-03-2008 07:20:02 2.5 C 65 % -3.4 C
1717 20-03-2008 07:32:01 2.5 C 65 % -3.4 C
1718 20-03-2008 07:44:01 2.6 C 65 % -3.3 C
1719 20-03-2008 07:56:01 2.8 C 65 % -3.11 C
1720 20-03-2008 08:08:02 3 C 63 % -3.34 C
1721 20-03-2008 08:20:01 3.1 C 63 % -3.24 C
1722 20-03-2008 08:32:02 3.2 C 62 % -3.36 C
1723 20-03-2008 08:44:02 3.5 C 61 % -3.3 C
1724 20-03-2008 08:56:03 3.8 C 60 % -3.23 C
1725 20-03-2008 09:08:03 3.7 C 59 % -3.55 C
Sensor: Nr:Datum:Temp:Feuchte:Taupunkt:
Aussen-T/F 1726 20-03-2008 09:20:02 3.8 C 59 % -3.46 C
1727 20-03-2008 09:32:02 4.1 C 60 % -2.95 C
1728 20-03-2008 09:44:02 4.4 C 58 % -3.12 C
1729 20-03-2008 09:56:02 4.8 C 56 % -3.22 C
1730 20-03-2008 10:08:02 4.8 C 52 % -4.2 C
1731 20-03-2008 10:20:02 5.2 C 51 % -4.09 C
1732 20-03-2008 10:32:03 5.4 C 49 % -4.44 C
1733 20-03-2008 10:44:03 5.9 C 46 % -4.81 C
1734 20-03-2008 10:56:02 6.3 C 44 % -5.03 C
1735 20-03-2008 11:08:02 6.7 C 41 % -5.6 C
1736 20-03-2008 11:20:02 6 C 42 % -5.92 C
1737 20-03-2008 11:32:02 6.1 C 44 % -5.22 C
1738 20-03-2008 11:44:02 5.8 C 46 % -4.91 C
1739 20-03-2008 11:56:02 6.2 C 44 % -5.13 C
1740 20-03-2008 12:08:01 5.7 C 48 % -4.43 C
1741 20-03-2008 12:20:02 4.9 C 60 % -2.2 C
1742 20-03-2008 12:32:02 4.8 C 62 % -1.85 C
1743 20-03-2008 12:44:02 4.7 C 67 % -0.89 C
1744 20-03-2008 12:56:02 4.4 C 68 % -0.98 C
1745 20-03-2008 13:08:02 4.4 C 68 % -0.98 C
1746 20-03-2008 13:20:02 4.5 C 70 % -0.48 C
1747 20-03-2008 13:32:02 4.7 C 70 % -0.29 C
1748 20-03-2008 13:44:02 4.9 C 69 % -0.3 C
1749 20-03-2008 13:56:02 5.3 C 67 % -0.32 C
1750 20-03-2008 14:08:03 5.9 C 61 % -1.03 C
Sensor: Nr:Datum:Temp:Feuchte:Taupunkt:
Aussen-T/F 1751 20-03-2008 14:20:02 6.4 C 53 % -2.47 C
1752 20-03-2008 14:32:02 6.3 C 50 % -3.34 C
1753 20-03-2008 14:44:02 4.7 C 62 % -1.94 C
1754 20-03-2008 14:56:01 3.6 C 71 % -1.15 C
1755 20-03-2008 15:08:02 4.2 C 74 % -0.01 C
1756 20-03-2008 15:20:01 4.5 C 72 % -0.1 C
1757 20-03-2008 15:32:01 4.9 C 72 % 0.29 C
1758 20-03-2008 15:44:01 5 C 71 % 0.19 C
1759 20-03-2008 15:56:01 5.5 C 70 % 0.48 C
1760 20-03-2008 16:08:02 5.1 C 65 % -0.92 C
1761 20-03-2008 16:20:01 5 C 68 % -0.4 C
1762 20-03-2008 16:32:02 5 C 65 % -1.02 C
1763 20-03-2008 16:44:02 5.2 C 61 % -1.69 C
1764 20-03-2008 16:56:03 5.5 C 59 % -1.86 C
1765 20-03-2008 17:08:02 5.8 C 52 % -3.28 C
1766 20-03-2008 17:20:02 5.9 C 51 % -3.44 C
1767 20-03-2008 17:32:02 5.9 C 50 % -3.71 C
1768 20-03-2008 17:44:02 5.9 C 50 % -3.71 C
1769 20-03-2008 17:56:02 5.9 C 48 % -4.25 C
1770 20-03-2008 18:08:02 5.8 C 48 % -4.34 C
1771 20-03-2008 18:20:02 5.4 C 53 % -3.39 C
1772 20-03-2008 18:32:02 4.9 C 58 % -2.65 C
1773 20-03-2008 18:44:02 4.7 C 60 % -2.39 C
1774 20-03-2008 18:56:01 4.7 C 61 % -2.16 C
1775 20-03-2008 19:08:02 4.7 C 60 % -2.39 C
Sensor: Nr:Datum:Temp:Feuchte:Taupunkt:
Aussen-T/F 1776 20-03-2008 19:20:02 4.7 C 61 % -2.16 C
1777 20-03-2008 19:32:01 4.7 C 61 % -2.16 C
1778 20-03-2008 19:44:01 4.6 C 62 % -2.04 C
1779 20-03-2008 19:56:02 4.6 C 63 % -1.82 C
1780 20-03-2008 20:08:01 4.5 C 65 % -1.49 C
1781 20-03-2008 20:20:02 4.2 C 67 % -1.37 C
1782 20-03-2008 20:32:02 3.9 C 72 % -0.68 C
1783 20-03-2008 20:44:02 3.8 C 74 % -0.4 C
1784 20-03-2008 20:56:02 3.6 C 76 % -0.22 C
1785 20-03-2008 21:08:02 3.5 C 77 % -0.14 C
1786 20-03-2008 21:20:02 3.5 C 78 % 0.04 C
1787 20-03-2008 21:32:02 3.6 C 77 % -0.05 C
1788 20-03-2008 21:44:02 3.7 C 76 % -0.13 C
1789 20-03-2008 21:56:01 3.9 C 74 % -0.3 C
1790 20-03-2008 22:08:01 3.9 C 73 % -0.49 C
1791 20-03-2008 22:20:01 4 C 71 % -0.77 C
1792 20-03-2008 22:32:02 4 C 71 % -0.77 C
1793 20-03-2008 22:44:03 3.9 C 73 % -0.49 C
1794 20-03-2008 22:56:02 3.8 C 73 % -0.58 C
1795 20-03-2008 23:08:02 3.8 C 73 % -0.58 C
1796 20-03-2008 23:20:02 3.8 C 74 % -0.4 C
1797 20-03-2008 23:32:02 3.8 C 74 % -0.4 C
1798 20-03-2008 23:44:02 3.7 C 74 % -0.49 C
1799 20-03-2008 23:56:02 3.8 C 74 % -0.4 C
1800 21-03-2008 00:08:02 3.8 C 74 % -0.4 C
Sensor: Nr:Datum:Temp:Feuchte:Taupunkt:
Aussen-T/F 1801 21-03-2008 00:20:03 3.7 C 75 % -0.31 C
1802 21-03-2008 00:32:02 3.6 C 76 % -0.22 C
1803 21-03-2008 00:44:03 3.5 C 76 % -0.32 C
1804 21-03-2008 00:56:02 3.4 C 77 % -0.24 C
1805 21-03-2008 01:08:02 3.3 C 78 % -0.16 C
1806 21-03-2008 01:20:02 3.4 C 77 % -0.24 C
1807 21-03-2008 01:32:02 3.3 C 77 % -0.34 C
1808 21-03-2008 01:44:02 3.2 C 78 % -0.26 C
1809 21-03-2008 01:56:02 3.3 C 78 % -0.16 C
1810 21-03-2008 02:08:02 3.2 C 78 % -0.26 C
1811 21-03-2008 02:20:02 3.2 C 79 % -0.08 C
1812 21-03-2008 02:32:02 3.3 C 79 % 0.02 C
1813 21-03-2008 02:44:02 3.4 C 78 % -0.06 C
1814 21-03-2008 02:57:03 3.5 C 78 % 0.04 C
1815 21-03-2008 03:09:03 3.6 C 77 % -0.05 C
1816 21-03-2008 03:21:03 3.6 C 77 % -0.05 C
1817 21-03-2008 03:33:01 3.6 C 77 % -0.05 C
1818 21-03-2008 03:45:01 3.5 C 78 % 0.04 C
1819 21-03-2008 03:57:01 3.4 C 78 % -0.06 C
1820 21-03-2008 04:09:01 3.3 C 79 % 0.02 C
1821 21-03-2008 04:21:02 3.2 C 79 % -0.08 C
1822 21-03-2008 04:33:01 3.2 C 80 % 0.09 C
1823 21-03-2008 04:45:02 3.2 C 79 % -0.08 C
1824 21-03-2008 04:57:02 3.1 C 80 % -0.01 C
1825 21-03-2008 05:09:02 3.3 C 80 % 0.19 C
Sensor: Nr:Datum:Temp:Feuchte:Taupunkt:
Aussen-T/F 1826 21-03-2008 05:21:01 3.5 C 78 % 0.04 C
1827 21-03-2008 05:33:02 3.8 C 76 % -0.03 C
1828 21-03-2008 05:45:02 4 C 72 % -0.58 C
1829 21-03-2008 05:57:02 4.1 C 72 % -0.48 C
1830 21-03-2008 06:09:02 4.2 C 72 % -0.39 C
1831 21-03-2008 06:21:02 4.4 C 70 % -0.58 C
1832 21-03-2008 06:33:02 4.6 C 69 % -0.58 C
1833 21-03-2008 06:45:02 4.6 C 68 % -0.78 C
1834 21-03-2008 06:57:02 4.6 C 69 % -0.58 C
1835 21-03-2008 07:09:03 4.8 C 69 % -0.39 C
1836 21-03-2008 07:21:02 4.8 C 68 % -0.59 C
1837 21-03-2008 07:33:02 5 C 66 % -0.81 C
1838 21-03-2008 07:45:02 4.9 C 66 % -0.91 C
1839 21-03-2008 07:57:02 4.9 C 65 % -1.11 C
1840 21-03-2008 08:09:03 4.9 C 64 % -1.32 C
1841 21-03-2008 08:21:02 5 C 65 % -1.02 C
1842 21-03-2008 08:33:02 5.5 C 63 % -0.97 C
1843 21-03-2008 08:45:02 5.5 C 62 % -1.19 C
1844 21-03-2008 08:57:02 5.6 C 61 % -1.31 C
1845 21-03-2008 09:09:02 5.5 C 61 % -1.41 C
1846 21-03-2008 09:21:02 6.3 C 60 % -0.88 C
1847 21-03-2008 09:33:02 6.2 C 58 % -1.43 C
1848 21-03-2008 09:45:02 6.2 C 60 % -0.97 C
1849 21-03-2008 09:57:02 5.6 C 65 % -0.45 C
1850 21-03-2008 10:09:02 6.1 C 62 % -0.62 C
Sensor: Nr:Datum:Temp:Feuchte:Taupunkt:
Aussen-T/F 1851 21-03-2008 10:21:02 6.1 C 61 % -0.84 C
1852 21-03-2008 10:33:02 6.1 C 63 % -0.4 C
1853 21-03-2008 10:45:02 5.8 C 66 % -0.05 C
1854 21-03-2008 10:57:02 2.7 C 75 % -1.28 C
1855 21-03-2008 11:09:02 3.3 C 79 % 0.02 C
1856 21-03-2008 11:21:03 3.4 C 79 % 0.11 C
1857 21-03-2008 11:33:02 3.8 C 77 % 0.15 C
1858 21-03-2008 11:45:02 4.4 C 70 % -0.58 C
1859 21-03-2008 11:57:03 4.3 C 67 % -1.27 C
1860 21-03-2008 12:09:02 3.3 C 72 % -1.25 C
1861 21-03-2008 12:21:02 2.6 C 76 % -1.19 C
1862 21-03-2008 12:33:02 2.7 C 78 % -0.74 C
1863 21-03-2008 12:45:01 3.2 C 76 % -0.61 C
1864 21-03-2008 12:57:01 4.4 C 72 % -0.19 C
1865 21-03-2008 13:09:02 4.6 C 63 % -1.82 C
1866 21-03-2008 13:21:02 5.1 C 60 % -2.01 C
1867 21-03-2008 13:33:02 5.2 C 51 % -4.09 C
1868 21-03-2008 13:45:02 5.1 C 52 % -3.93 C
1869 21-03-2008 13:57:02 5.5 C 47 % -4.9 C
1870 21-03-2008 14:09:02 5.5 C 44 % -5.76 C
1871 21-03-2008 14:21:02 4.3 C 58 % -3.22 C
1872 21-03-2008 14:33:01 4.8 C 62 % -1.85 C
1873 21-03-2008 14:45:02 5.7 C 56 % -2.38 C
1874 21-03-2008 14:57:02 6.1 C 44 % -5.22 C
1875 21-03-2008 15:09:02 5.7 C 41 % -6.5 C
Sensor: Nr:Datum:Temp:Feuchte:Taupunkt:
Aussen-T/F 1876 21-03-2008 15:21:02 5.4 C 40 % -7.09 C
1877 21-03-2008 15:33:02 5.9 C 41 % -6.32 C
1878 21-03-2008 15:45:02 5.9 C 38 % -7.31 C
1879 21-03-2008 15:57:03 5.6 C 39 % -7.24 C
1880 21-03-2008 16:09:02 6 C 37 % -7.56 C
1881 21-03-2008 16:21:03 5.8 C 36 % -8.09 C
1882 21-03-2008 16:33:02 5.5 C 38 % -7.66 C
1883 21-03-2008 16:45:02 6.5 C 36 % -7.47 C
1884 21-03-2008 16:57:02 5.5 C 36 % -8.36 C
1885 21-03-2008 17:09:02 5.5 C 36 % -8.36 C
1886 21-03-2008 17:21:02 5.9 C 35 % -8.36 C
1887 21-03-2008 17:33:02 5.6 C 36 % -8.27 C
1888 21-03-2008 17:45:02 5.4 C 38 % -7.75 C
1889 21-03-2008 17:57:02 5.3 C 38 % -7.84 C
1890 21-03-2008 18:09:02 5.3 C 38 % -7.84 C
1891 21-03-2008 18:21:02 5.3 C 39 % -7.51 C
1892 21-03-2008 18:33:02 5.1 C 40 % -7.36 C
1893 21-03-2008 18:45:02 4.8 C 43 % -6.7 C
1894 21-03-2008 18:57:02 4.7 C 44 % -6.49 C
1895 21-03-2008 19:09:02 4.4 C 50 % -5.09 C
1896 21-03-2008 19:21:05 4.1 C 52 % -4.85 C
1897 21-03-2008 19:33:02 4.1 C 55 % -4.11 C
1898 21-03-2008 19:45:03 3.3 C 61 % -3.49 C
1899 21-03-2008 19:57:03 2.2 C 75 % -1.76 C
1900 21-03-2008 20:09:03 1.8 C 80 % -1.27 C
Sensor: Nr:Datum:Temp:Feuchte:Taupunkt:
Aussen-T/F 1901 21-03-2008 20:21:02 1.7 C 83 % -0.87 C
1902 21-03-2008 20:33:02 1.8 C 85 % -0.45 C
1903 21-03-2008 20:45:01 1.7 C 86 % -0.38 C
1904 21-03-2008 20:57:01 1.7 C 86 % -0.38 C
1905 21-03-2008 21:09:01 1.7 C 87 % -0.23 C
1906 21-03-2008 21:21:02 1.7 C 88 % -0.07 C
1907 21-03-2008 21:33:01 1.6 C 88 % -0.17 C
1908 21-03-2008 21:45:02 1.7 C 88 % -0.07 C
1909 21-03-2008 21:57:02 2.1 C 85 % -0.15 C
1910 21-03-2008 22:09:02 2.1 C 83 % -0.48 C
1911 21-03-2008 22:21:02 2 C 81 % -0.91 C
1912 21-03-2008 22:33:02 1.8 C 78 % -1.62 C
1913 21-03-2008 22:45:02 1.3 C 80 % -1.76 C
1914 21-03-2008 22:57:02 1.2 C 82 % -1.52 C
1915 21-03-2008 23:09:02 1.1 C 82 % -1.62 C
1916 21-03-2008 23:21:02 0.9 C 83 % -1.65 C
1917 21-03-2008 23:33:03 0.8 C 84 % -1.59 C
1918 21-03-2008 23:45:02 0.7 C 84 % -1.69 C
1919 21-03-2008 23:57:02 0.8 C 85 % -1.43 C
1920 22-03-2008 00:09:02 0.8 C 86 % -1.27 C
1921 22-03-2008 00:21:02 0.9 C 86 % -1.17 C
1922 22-03-2008 00:33:02 1 C 85 % -1.23 C
1923 22-03-2008 00:45:02 1.1 C 85 % -1.13 C
1924 22-03-2008 00:57:02 1.1 C 85 % -1.13 C
1925 22-03-2008 01:09:01 1 C 85 % -1.23 C
Sensor: Nr:Datum:Temp:Feuchte:Taupunkt:
Aussen-T/F 1926 22-03-2008 01:21:01 0.9 C 86 % -1.17 C
1927 22-03-2008 01:33:02 0.7 C 86 % -1.37 C
1928 22-03-2008 01:45:03 0.7 C 86 % -1.37 C
1929 22-03-2008 01:57:03 0.6 C 86 % -1.46 C
1930 22-03-2008 02:09:02 0.7 C 87 % -1.21 C
1931 22-03-2008 02:21:02 0.6 C 87 % -1.31 C
1932 22-03-2008 02:33:02 0.7 C 88 % -1.05 C
1933 22-03-2008 02:46:03 0.8 C 88 % -0.96 C
1934 22-03-2008 02:58:03 0.8 C 89 % -0.8 C
1935 22-03-2008 03:10:03 0.9 C 89 % -0.7 C
1936 22-03-2008 03:22:03 1 C 88 % -0.76 C
1937 22-03-2008 03:34:02 1.1 C 88 % -0.66 C
1938 22-03-2008 03:46:02 1.2 C 88 % -0.56 C
1939 22-03-2008 03:58:02 1.3 C 88 % -0.46 C
1940 22-03-2008 04:10:02 1.3 C 88 % -0.46 C
1941 22-03-2008 04:22:01 1.3 C 87 % -0.62 C
1942 22-03-2008 04:34:02 1.3 C 87 % -0.62 C
1943 22-03-2008 04:46:02 1.2 C 88 % -0.56 C
1944 22-03-2008 04:58:02 1.1 C 88 % -0.66 C
1945 22-03-2008 05:10:02 1.1 C 88 % -0.66 C
1946 22-03-2008 05:22:02 1.1 C 88 % -0.66 C
1947 22-03-2008 05:34:02 1.2 C 89 % -0.41 C
1948 22-03-2008 05:46:01 1.2 C 89 % -0.41 C
1949 22-03-2008 05:58:01 1.3 C 89 % -0.31 C
1950 22-03-2008 06:10:02 1.4 C 90 % -0.06 C
Sensor: Nr:Datum:Temp:Feuchte:Taupunkt:
Aussen-T/F 1951 22-03-2008 06:22:01 1.4 C 90 % -0.06 C
1952 22-03-2008 06:34:01 1.5 C 91 % 0.19 C
1953 22-03-2008 06:46:01 1.5 C 91 % 0.19 C
1954 22-03-2008 06:58:01 1.6 C 91 % 0.29 C
1955 22-03-2008 07:10:01 1.7 C 91 % 0.39 C
1956 22-03-2008 07:22:02 1.8 C 91 % 0.49 C
1957 22-03-2008 07:34:01 1.9 C 90 % 0.44 C
1958 22-03-2008 07:46:02 2.2 C 89 % 0.58 C
1959 22-03-2008 07:58:03 2.2 C 89 % 0.58 C
1960 22-03-2008 08:10:01 2.2 C 89 % 0.58 C
1961 22-03-2008 08:22:01 2.2 C 88 % 0.42 C
1962 22-03-2008 08:34:02 2.4 C 88 % 0.62 C
1963 22-03-2008 08:46:02 2.7 C 88 % 0.92 C
1964 22-03-2008 08:58:02 2.9 C 87 % 0.96 C
1965 22-03-2008 09:10:02 3.1 C 85 % 0.83 C
1966 22-03-2008 09:22:02 3.6 C 84 % 1.16 C
1967 22-03-2008 09:34:01 3.7 C 82 % 0.92 C
1968 22-03-2008 09:46:01 3.8 C 80 % 0.68 C
1969 22-03-2008 09:58:01 3.7 C 79 % 0.4 C
1970 22-03-2008 10:10:02 3.9 C 79 % 0.6 C
1971 22-03-2008 10:22:02 3.7 C 79 % 0.4 C
1972 22-03-2008 10:34:01 3.7 C 79 % 0.4 C
1973 22-03-2008 10:46:02 4.2 C 78 % 0.71 C
1974 22-03-2008 10:58:02 4.6 C 77 % 0.92 C
1975 22-03-2008 11:10:02 5.4 C 74 % 1.15 C
Sensor: Nr:Datum:Temp:Feuchte:Taupunkt:
Aussen-T/F 1976 22-03-2008 11:22:02 5.3 C 69 % 0.09 C
1977 22-03-2008 11:34:02 3.8 C 75 % -0.21 C
1978 22-03-2008 11:46:02 2.6 C 78 % -0.84 C
1979 22-03-2008 11:58:02 2.4 C 83 % -0.18 C
1980 22-03-2008 12:10:02 2.6 C 85 % 0.34 C
1981 22-03-2008 12:22:02 3 C 86 % 0.89 C
1982 22-03-2008 12:34:02 3.7 C 86 % 1.58 C
1983 22-03-2008 12:46:02 4.1 C 85 % 1.81 C
1984 22-03-2008 12:58:02 4.2 C 84 % 1.74 C
1985 22-03-2008 13:10:02 4.3 C 83 % 1.67 C
1986 22-03-2008 13:22:02 3.9 C 82 % 1.12 C
1987 22-03-2008 13:34:02 3.8 C 83 % 1.19 C
1988 22-03-2008 13:46:02 4 C 81 % 1.04 C
1989 22-03-2008 13:58:02 3.9 C 82 % 1.12 C
1990 22-03-2008 14:10:01 3.7 C 81 % 0.75 C
1991 22-03-2008 14:22:01 3.6 C 82 % 0.82 C
1992 22-03-2008 14:34:02 3.2 C 81 % 0.26 C
1993 22-03-2008 14:46:02 3.1 C 82 % 0.33 C
1994 22-03-2008 14:58:02 3.5 C 86 % 1.38 C
1995 22-03-2008 15:10:02 4.2 C 86 % 2.07 C
1996 22-03-2008 15:22:02 4.3 C 84 % 1.84 C
1997 22-03-2008 15:34:01 5.2 C 81 % 2.21 C
1998 22-03-2008 15:46:02 5.4 C 76 % 1.52 C
1999 22-03-2008 15:58:02 7.2 C 71 % 2.3 C
2000 22-03-2008 16:10:01 6.9 C 64 % 0.57 C
Sensor: Nr:Datum:Temp:Feuchte:Taupunkt:
Aussen-T/F 2001 22-03-2008 16:22:02 7.2 C 63 % 0.64 C
2002 22-03-2008 16:34:02 7.2 C 61 % 0.2 C
2003 22-03-2008 16:46:02 7.5 C 59 % 0.02 C
2004 22-03-2008 16:58:02 7.1 C 56 % -1.07 C
2005 22-03-2008 17:10:02 6.9 C 57 % -1.01 C
2006 22-03-2008 17:22:02 5.4 C 63 % -1.06 C
2007 22-03-2008 17:34:02 3.6 C 72 % -0.96 C
2008 22-03-2008 17:46:02 3.3 C 76 % -0.52 C
2009 22-03-2008 17:58:02 3.6 C 79 % 0.31 C
2010 22-03-2008 18:10:02 3.8 C 81 % 0.85 C
2011 22-03-2008 18:22:01 3.7 C 82 % 0.92 C
2012 22-03-2008 18:34:02 3.6 C 81 % 0.65 C
2013 22-03-2008 18:46:01 3.8 C 79 % 0.5 C
2014 22-03-2008 18:58:01 3.8 C 77 % 0.15 C
2015 22-03-2008 19:10:02 3.7 C 72 % -0.87 C
2016 22-03-2008 19:22:02 3.6 C 72 % -0.96 C
2017 22-03-2008 19:34:02 3.5 C 72 % -1.06 C
2018 22-03-2008 19:46:02 3.5 C 72 % -1.06 C
2019 22-03-2008 19:58:02 3.5 C 71 % -1.25 C
2020 22-03-2008 20:10:02 3.4 C 72 % -1.16 C
2021 22-03-2008 20:22:01 3.3 C 71 % -1.44 C
2022 22-03-2008 20:34:02 3.2 C 71 % -1.54 C
2023 22-03-2008 20:46:02 3.1 C 71 % -1.63 C
2024 22-03-2008 20:58:02 2.8 C 72 % -1.73 C
2025 22-03-2008 21:10:02 2.6 C 73 % -1.74 C
Sensor: Nr:Datum:Temp:Feuchte:Taupunkt:
Aussen-T/F 2026 22-03-2008 21:22:01 2.6 C 73 % -1.74 C
2027 22-03-2008 21:34:02 2.6 C 71 % -2.12 C
2028 22-03-2008 21:46:02 2.5 C 72 % -2.02 C
2029 22-03-2008 21:58:02 2.4 C 69 % -2.69 C
2030 22-03-2008 22:10:02 2.2 C 69 % -2.88 C
2031 22-03-2008 22:22:02 1.9 C 72 % -2.6 C
2032 22-03-2008 22:34:02 1.8 C 74 % -2.33 C
2033 22-03-2008 22:46:02 1.9 C 76 % -1.87 C
2034 22-03-2008 22:58:02 1.8 C 73 % -2.51 C
2035 22-03-2008 23:10:02 1.7 C 71 % -2.98 C
2036 22-03-2008 23:22:02 1.7 C 70 % -3.17 C
2037 22-03-2008 23:34:01 1.6 C 71 % -3.08 C
2038 22-03-2008 23:46:02 1.6 C 69 % -3.46 C
2039 22-03-2008 23:58:02 1.6 C 67 % -3.85 C
2040 23-03-2008 00:10:02 1.4 C 65 % -4.44 C
2041 23-03-2008 00:22:02 1.2 C 66 % -4.43 C
2042 23-03-2008 00:34:02 1 C 69 % -4.03 C
2043 23-03-2008 00:46:02 1.1 C 67 % -4.33 C
2044 23-03-2008 00:58:03 1 C 66 % -4.62 C
2045 23-03-2008 01:10:01 1.1 C 67 % -4.33 C
2046 23-03-2008 01:22:02 1 C 66 % -4.62 C
2047 23-03-2008 01:34:02 1 C 68 % -4.23 C
2048 23-03-2008 01:46:02 0.9 C 68 % -4.32 C
2049 23-03-2008 01:58:02 0.9 C 66 % -4.72 C
2050 23-03-2008 02:10:02 0.8 C 65 % -5.01 C
Sensor: Nr:Datum:Temp:Feuchte:Taupunkt:
Aussen-T/F 2051 23-03-2008 02:22:02 0.7 C 64 % -5.31 C
2052 23-03-2008 02:34:02 0.6 C 64 % -5.41 C
2053 23-03-2008 02:46:01 0.5 C 66 % -5.1 C
2054 23-03-2008 02:58:01 0.4 C 66 % -5.19 C
2055 23-03-2008 03:10:01 0.4 C 66 % -5.19 C
2056 23-03-2008 03:22:01 0.2 C 66 % -5.38 C
2057 23-03-2008 03:34:02 -0.1 C 65 % -5.88 C
2058 23-03-2008 03:46:02 -0.1 C 67 % -5.48 C
2059 23-03-2008 03:58:02 -0.3 C 65 % -6.07 C
2060 23-03-2008 04:10:02 -0.4 C 65 % -6.16 C
2061 23-03-2008 04:22:01 -0.5 C 63 % -6.67 C
2062 23-03-2008 04:34:02 -0.4 C 61 % -6.99 C
2063 23-03-2008 04:46:01 -0.5 C 60 % -7.3 C
2064 23-03-2008 04:58:01 -0.6 C 61 % -7.18 C
2065 23-03-2008 05:10:01 -0.7 C 61 % -7.27 C
2066 23-03-2008 05:22:02 -0.7 C 61 % -7.27 C
2067 23-03-2008 05:34:01 -0.7 C 61 % -7.27 C
2068 23-03-2008 05:46:01 -0.6 C 62 % -6.97 C
2069 23-03-2008 05:58:01 -0.6 C 63 % -6.76 C
2070 23-03-2008 06:10:02 -0.5 C 63 % -6.67 C
2071 23-03-2008 06:22:02 -0.6 C 61 % -7.18 C
2072 23-03-2008 06:34:01 -0.7 C 60 % -7.49 C
2073 23-03-2008 06:46:01 -0.7 C 59 % -7.7 C
2074 23-03-2008 06:58:01 -0.7 C 58 % -7.92 C
2075 23-03-2008 07:10:02 -0.8 C 56 % -8.47 C
Sensor: Nr:Datum:Temp:Feuchte:Taupunkt:
Aussen-T/F 2076 23-03-2008 07:22:02 -0.9 C 56 % -8.56 C
2077 23-03-2008 07:34:01 -0.9 C 55 % -8.79 C
2078 23-03-2008 07:46:01 -1 C 53 % -9.36 C
2079 23-03-2008 07:58:01 -0.9 C 52 % -9.51 C
2080 23-03-2008 08:10:02 -0.7 C 52 % -9.32 C
2081 23-03-2008 08:22:02 -0.7 C 52 % -9.32 C
2082 23-03-2008 08:34:01 -0.8 C 52 % -9.41 C
2083 23-03-2008 08:46:01 -0.6 C 51 % -9.47 C
2084 23-03-2008 08:58:01 -0.6 C 50 % -9.73 C
2085 23-03-2008 09:10:01 -0.7 C 47 % -10.6 C
2086 23-03-2008 09:22:01 -0.4 C 46 % -10.59 C
2087 23-03-2008 09:34:02 -0.4 C 46 % -10.59 C
2088 23-03-2008 09:46:02 -0.4 C 46 % -10.59 C
2089 23-03-2008 09:58:02 0 C 45 % -10.49 C
2090 23-03-2008 10:10:01 0.5 C 43 % -10.6 C
2091 23-03-2008 10:22:01 0.3 C 40 % -11.69 C
2092 23-03-2008 10:34:01 0.8 C 39 % -11.55 C
2093 23-03-2008 10:46:01 1 C 37 % -12.02 C
2094 23-03-2008 10:58:01 1.7 C 35 % -12.09 C
2095 23-03-2008 11:10:02 1.4 C 25 % -16.43 C
2096 23-03-2008 11:22:01 1.3 C 25 % -16.52 C
2097 23-03-2008 11:34:01 1.5 C 25 % -16.35 C
2098 23-03-2008 11:46:01 2.1 C 25 % -15.84 C
2099 23-03-2008 11:58:01 2.2 C 23 % -16.74 C
2100 23-03-2008 12:10:01 2 C 21 % -17.99 C
Sensor: Nr:Datum:Temp:Feuchte:Taupunkt:
Aussen-T/F 2101 23-03-2008 12:22:02 1.7 C 25 % -16.18 C
2102 23-03-2008 12:34:01 2.6 C 27 % -14.48 C
2103 23-03-2008 12:46:01 2.4 C 20 % -18.22 C
2104 23-03-2008 12:58:01 3.4 C 23 % -15.73 C
2105 23-03-2008 13:10:01 2.8 C 20 % -17.89 C
2106 23-03-2008 13:22:01 3.2 C 20 % -17.56 C
2107 23-03-2008 13:34:01 3.7 C 20 % -17.14 C
2108 23-03-2008 13:46:01 4.3 C 20 % -16.64 C
2109 23-03-2008 13:58:01 4.5 C 20 % -16.47 C
2110 23-03-2008 14:10:02 5.8 C 20 % -15.39 C
2111 23-03-2008 14:22:01 5.8 C 20 % -15.39 C
2112 23-03-2008 14:34:01 5.8 C 20 % -15.39 C
2113 23-03-2008 14:46:01 6.6 C 20 % -14.72 C
2114 23-03-2008 14:58:01 6.3 C 20 % -14.97 C
2115 23-03-2008 15:10:02 6.1 C 20 % -15.14 C
2116 23-03-2008 15:22:02 6.4 C 20 % -14.89 C
2117 23-03-2008 15:34:01 5.5 C 20 % -15.64 C
2118 23-03-2008 15:46:01 5.6 C 20 % -15.55 C
2119 23-03-2008 15:58:01 7.6 C 20 % -13.89 C
2120 23-03-2008 16:10:01 7.5 C 20 % -13.97 C
2121 23-03-2008 16:22:02 7.4 C 20 % -14.05 C
2122 23-03-2008 16:34:01 8 C 20 % -13.56 C
2123 23-03-2008 16:46:01 8.1 C 20 % -13.47 C
2124 23-03-2008 16:58:01 8.4 C 20 % -13.22 C
2125 23-03-2008 17:10:01 7.5 C 20 % -13.97 C
Sensor: Nr:Datum:Temp:Feuchte:Taupunkt:
Aussen-T/F 2126 23-03-2008 17:22:02 7 C 20 % -14.39 C
2127 23-03-2008 17:34:01 6.8 C 20 % -14.55 C
2128 23-03-2008 17:46:02 5.8 C 20 % -15.39 C
2129 23-03-2008 17:58:02 5.4 C 20 % -15.72 C
2130 23-03-2008 18:10:01 5.6 C 20 % -15.55 C
2131 23-03-2008 18:22:01 5.4 C 20 % -15.72 C
2132 23-03-2008 18:34:02 4.3 C 20 % -16.64 C
2133 23-03-2008 18:46:01 3.4 C 20 % -17.39 C
2134 23-03-2008 18:58:01 2.4 C 21 % -17.65 C
2135 23-03-2008 19:10:02 1.7 C 26 % -15.71 C
2136 23-03-2008 19:22:01 1.5 C 30 % -14.16 C
2137 23-03-2008 19:34:01 1.2 C 36 % -12.19 C
2138 23-03-2008 19:46:01 1 C 40 % -11.05 C
2139 23-03-2008 19:58:01 0.8 C 39 % -11.55 C
2140 23-03-2008 20:10:02 0.7 C 38 % -11.96 C
2141 23-03-2008 20:22:01 0.5 C 40 % -11.51 C
2142 23-03-2008 20:34:01 0.3 C 43 % -10.78 C
2143 23-03-2008 20:46:01 0.1 C 41 % -11.56 C
2144 23-03-2008 20:58:01 -0.1 C 42 % -11.46 C
2145 23-03-2008 21:10:02 -0.3 C 44 % -11.06 C
2146 23-03-2008 21:22:01 -0.4 C 45 % -10.87 C
2147 23-03-2008 21:34:01 -0.7 C 45 % -11.14 C
2148 23-03-2008 21:46:01 -0.9 C 46 % -11.05 C
2149 23-03-2008 21:58:01 -0.9 C 47 % -10.78 C
2150 23-03-2008 22:12:05 -0.7 C 46 % -10.87 C
Sensor: Nr:Datum:Temp:Feuchte:Taupunkt:
Aussen-T/F 2151 23-03-2008 22:24:05 -0.7 C 46 % -10.87 C
2152 23-03-2008 22:36:05 -0.9 C 47 % -10.78 C
2153 23-03-2008 22:48:05 -1.1 C 49 % -10.44 C
2154 23-03-2008 23:00:05 -1.2 C 51 % -10.03 C
2155 23-03-2008 23:12:05 -1.4 C 53 % -9.73 C
2156 23-03-2008 23:24:05 -1.5 C 54 % -9.59 C
2157 23-03-2008 23:36:05 -1.7 C 55 % -9.54 C
2158 23-03-2008 23:48:05 -1.8 C 55 % -9.63 C
2159 24-03-2008 00:00:05 -2 C 55 % -9.82 C
2160 24-03-2008 00:12:05 -2 C 56 % -9.59 C
2161 24-03-2008 00:24:05 -2.3 C 56 % -9.87 C
2162 24-03-2008 00:36:06 -2.5 C 56 % -10.06 C
2163 24-03-2008 00:48:06 -2.6 C 58 % -9.71 C
2164 24-03-2008 01:00:06 -2.7 C 58 % -9.81 C
2165 24-03-2008 01:12:06 -2.8 C 58 % -9.9 C
2166 24-03-2008 01:24:06 -2.8 C 60 % -9.47 C
2167 24-03-2008 01:36:06 -2.8 C 60 % -9.47 C
2168 24-03-2008 01:48:06 -2.8 C 60 % -9.47 C
2169 24-03-2008 02:00:06 -2.9 C 60 % -9.57 C
2170 24-03-2008 02:12:06 -3 C 60 % -9.66 C
2171 24-03-2008 02:24:06 -3.3 C 60 % -9.94 C
2172 24-03-2008 02:36:06 -3.6 C 60 % -10.23 C
2173 24-03-2008 02:48:06 -3.6 C 62 % -9.81 C
2174 24-03-2008 03:00:06 -3.8 C 62 % -10 C
2175 24-03-2008 03:12:06 -3.7 C 63 % -9.71 C
Sensor: Nr:Datum:Temp:Feuchte:Taupunkt:
Aussen-T/F 2176 24-03-2008 03:24:06 -3.7 C 64 % -9.51 C
2177 24-03-2008 03:36:06 -3.8 C 64 % -9.6 C
2178 24-03-2008 03:48:06 -3.7 C 66 % -9.11 C
2179 24-03-2008 04:00:06 -3.9 C 66 % -9.31 C
2180 24-03-2008 04:12:06 -3.8 C 68 % -8.83 C
2181 24-03-2008 04:24:06 -3.7 C 69 % -8.55 C
2182 24-03-2008 04:36:07 -3.7 C 69 % -8.55 C
2183 24-03-2008 04:48:07 -3.8 C 68 % -8.83 C
2184 24-03-2008 05:00:07 -3.7 C 69 % -8.55 C
2185 24-03-2008 05:12:07 -3.6 C 69 % -8.45 C
2186 24-03-2008 05:24:07 -3.5 C 69 % -8.36 C
2187 24-03-2008 05:36:07 -3.5 C 69 % -8.36 C
2188 24-03-2008 05:48:07 -3.3 C 69 % -8.16 C
2189 24-03-2008 06:00:07 -3.3 C 69 % -8.16 C
2190 24-03-2008 06:12:07 -3.2 C 69 % -8.07 C
2191 24-03-2008 06:24:07 -3.1 C 69 % -7.97 C
2192 24-03-2008 06:36:07 -3 C 69 % -7.88 C
2193 24-03-2008 06:48:07 -2.8 C 68 % -7.87 C
2194 24-03-2008 07:00:07 -2.6 C 67 % -7.87 C
2195 24-03-2008 07:12:07 -2.3 C 67 % -7.58 C
2196 24-03-2008 07:24:07 -2.1 C 66 % -7.59 C
2197 24-03-2008 07:36:05 -1.8 C 65 % -7.5 C
2198 24-03-2008 07:48:03 -1.8 C 63 % -7.9 C
2199 24-03-2008 08:00:03 -1.6 C 62 % -7.92 C
2200 24-03-2008 08:12:03 -1.3 C 61 % -7.84 C
Sensor: Nr:Datum:Temp:Feuchte:Taupunkt:
Aussen-T/F 2201 24-03-2008 08:24:02 -1.1 C 60 % -7.87 C
2202 24-03-2008 08:36:02 -0.8 C 60 % -7.58 C
2203 24-03-2008 08:48:01 -0.6 C 59 % -7.61 C
2204 24-03-2008 09:00:01 0 C 58 % -7.26 C
2205 24-03-2008 09:12:02 0.3 C 55 % -7.66 C
2206 24-03-2008 09:24:01 0.7 C 54 % -7.52 C
2207 24-03-2008 09:36:01 0.7 C 55 % -7.29 C
2208 24-03-2008 09:48:02 1.1 C 55 % -6.91 C
2209 24-03-2008 10:00:02 1.5 C 53 % -7.02 C
2210 24-03-2008 10:12:01 2 C 51 % -7.05 C
2211 24-03-2008 10:24:02 2.2 C 49 % -7.39 C
2212 24-03-2008 10:36:01 2.6 C 46 % -7.83 C
2213 24-03-2008 10:48:02 2.6 C 45 % -8.11 C
2214 24-03-2008 11:00:02 2.4 C 46 % -8.01 C
2215 24-03-2008 11:12:02 2.9 C 47 % -7.28 C
2216 24-03-2008 11:24:03 3.3 C 48 % -6.64 C
2217 24-03-2008 11:36:02 2.7 C 50 % -6.66 C
2218 24-03-2008 11:48:01 2.2 C 53 % -6.37 C
2219 24-03-2008 12:00:01 2.2 C 55 % -5.89 C
2220 24-03-2008 12:12:02 2.2 C 57 % -5.42 C
2221 24-03-2008 12:24:02 2 C 60 % -4.93 C
2222 24-03-2008 12:36:02 2 C 63 % -4.29 C
2223 24-03-2008 12:48:02 2 C 65 % -3.87 C
2224 24-03-2008 13:00:02 2 C 64 % -4.08 C
2225 24-03-2008 13:12:03 1.7 C 65 % -4.16 C
Sensor: Nr:Datum:Temp:Feuchte:Taupunkt:
Aussen-T/F 2226 24-03-2008 13:24:02 1.6 C 69 % -3.46 C
2227 24-03-2008 13:36:02 1.9 C 69 % -3.17 C
2228 24-03-2008 13:48:01 1.9 C 67 % -3.56 C
2229 24-03-2008 14:00:01 1.7 C 69 % -3.36 C
2230 24-03-2008 14:12:02 1.4 C 73 % -2.9 C
2231 24-03-2008 14:24:01 1.8 C 75 % -2.15 C
2232 24-03-2008 14:36:01 1.9 C 76 % -1.87 C
2233 24-03-2008 14:48:01 3.5 C 75 % -0.5 C
2234 24-03-2008 15:00:01 4.7 C 65 % -1.3 C
2235 24-03-2008 15:12:02 5.7 C 57 % -2.14 C
2236 24-03-2008 15:24:01 5.3 C 52 % -3.74 C
2237 24-03-2008 15:36:01 7.1 C 51 % -2.34 C
2238 24-03-2008 15:48:02 6.3 C 42 % -5.65 C
2239 24-03-2008 16:00:02 5.2 C 44 % -6.04 C
2240 24-03-2008 16:12:03 5.1 C 43 % -6.43 C
2241 24-03-2008 16:24:03 4.1 C 50 % -5.37 C
2242 24-03-2008 16:36:03 2.1 C 62 % -4.4 C
2243 24-03-2008 16:48:03 1.3 C 72 % -3.18 C
2244 24-03-2008 17:00:03 1.3 C 76 % -2.45 C
2245 24-03-2008 17:12:02 1.5 C 76 % -2.26 C
2246 24-03-2008 17:24:02 1.2 C 76 % -2.55 C
2247 24-03-2008 17:36:02 1.5 C 76 % -2.26 C
2248 24-03-2008 17:48:02 1.8 C 76 % -1.97 C
2249 24-03-2008 18:00:02 1.8 C 74 % -2.33 C
2250 24-03-2008 18:12:02 1.6 C 74 % -2.52 C
Sensor: Nr:Datum:Temp:Feuchte:Taupunkt:
Aussen-T/F 2251 24-03-2008 18:24:03 1.5 C 73 % -2.8 C
2252 24-03-2008 18:36:02 1.1 C 73 % -3.19 C
2253 24-03-2008 18:48:02 0.8 C 75 % -3.11 C
2254 24-03-2008 19:00:02 0.7 C 76 % -3.03 C
2255 24-03-2008 19:12:02 1 C 76 % -2.74 C
2256 24-03-2008 19:24:01 1 C 75 % -2.92 C
2257 24-03-2008 19:36:02 1 C 76 % -2.74 C
2258 24-03-2008 19:48:02 0.8 C 78 % -2.59 C
2259 24-03-2008 20:00:02 0.6 C 81 % -2.28 C
2260 24-03-2008 20:12:01 0.4 C 82 % -2.3 C
2261 24-03-2008 20:24:01 0.2 C 83 % -2.34 C
2262 24-03-2008 20:36:02 0 C 83 % -2.53 C
2263 24-03-2008 20:48:02 -0.1 C 83 % -2.63 C
2264 24-03-2008 21:00:03 0 C 84 % -2.37 C
2265 24-03-2008 21:12:02 0.1 C 84 % -2.27 C
2266 24-03-2008 21:24:01 0.1 C 84 % -2.27 C
2267 24-03-2008 21:36:02 0.2 C 84 % -2.18 C
2268 24-03-2008 21:48:02 0.3 C 84 % -2.08 C
2269 24-03-2008 22:00:02 0.4 C 83 % -2.14 C
2270 24-03-2008 22:12:02 0.4 C 82 % -2.3 C
2271 24-03-2008 22:25:03 0.3 C 80 % -2.73 C
2272 24-03-2008 22:37:03 0.3 C 79 % -2.9 C
2273 24-03-2008 22:49:03 0.3 C 78 % -3.07 C
2274 24-03-2008 23:01:03 0.3 C 78 % -3.07 C
2275 24-03-2008 23:13:03 0.3 C 79 % -2.9 C
Sensor: Nr:Datum:Temp:Feuchte:Taupunkt:
Aussen-T/F 2276 24-03-2008 23:25:03 0.2 C 80 % -2.83 C
2277 24-03-2008 23:37:03 0.2 C 81 % -2.67 C
2278 24-03-2008 23:49:03 0.2 C 82 % -2.5 C
2279 25-03-2008 00:01:03 0.2 C 82 % -2.5 C
2280 25-03-2008 00:13:03 0.2 C 82 % -2.5 C
2281 25-03-2008 00:25:03 0.2 C 82 % -2.5 C
2282 25-03-2008 00:37:03 0.2 C 82 % -2.5 C
2283 25-03-2008 00:49:03 0.2 C 82 % -2.5 C
2284 25-03-2008 01:01:03 0.1 C 82 % -2.6 C
2285 25-03-2008 01:13:03 0.2 C 82 % -2.5 C
2286 25-03-2008 01:25:03 0.2 C 81 % -2.67 C
2287 25-03-2008 01:37:03 0.2 C 78 % -3.17 C
2288 25-03-2008 01:49:04 0.1 C 76 % -3.62 C
2289 25-03-2008 02:01:04 0.1 C 73 % -4.15 C
2290 25-03-2008 02:13:04 0 C 70 % -4.8 C
2291 25-03-2008 02:25:04 -0.1 C 68 % -5.29 C
2292 25-03-2008 02:37:04 -0.3 C 69 % -5.29 C
2293 25-03-2008 02:49:04 -0.3 C 70 % -5.1 C
2294 25-03-2008 03:01:04 -0.3 C 70 % -5.1 C
2295 25-03-2008 03:13:04 -0.4 C 71 % -5.01 C
2296 25-03-2008 03:25:04 -0.7 C 76 % -4.4 C
2297 25-03-2008 03:37:04 -0.8 C 79 % -3.98 C
2298 25-03-2008 03:49:04 -0.9 C 82 % -3.58 C
2299 25-03-2008 04:01:04 -1 C 83 % -3.51 C
2300 25-03-2008 04:13:04 -0.9 C 83 % -3.42 C
Sensor: Nr:Datum:Temp:Feuchte:Taupunkt:
Aussen-T/F 2301 25-03-2008 04:25:04 -0.9 C 82 % -3.58 C
2302 25-03-2008 04:37:03 -1.1 C 81 % -3.94 C
2303 25-03-2008 04:49:02 -0.9 C 81 % -3.74 C
2304 25-03-2008 05:01:02 -0.8 C 81 % -3.64 C
2305 25-03-2008 05:13:02 -0.9 C 81 % -3.74 C
2306 25-03-2008 05:25:01 -0.9 C 81 % -3.74 C
2307 25-03-2008 05:37:02 -0.8 C 81 % -3.64 C
2308 25-03-2008 05:49:01 -0.7 C 82 % -3.38 C
2309 25-03-2008 06:01:02 -0.9 C 82 % -3.58 C
2310 25-03-2008 06:13:02 -0.8 C 82 % -3.48 C
2311 25-03-2008 06:25:02 -0.7 C 82 % -3.38 C
2312 25-03-2008 06:37:01 -0.8 C 81 % -3.64 C
2313 25-03-2008 06:49:01 -0.8 C 79 % -3.98 C
2314 25-03-2008 07:01:02 -0.7 C 76 % -4.4 C
2315 25-03-2008 07:13:02 -0.6 C 71 % -5.2 C
2316 25-03-2008 07:25:02 -0.5 C 70 % -5.29 C
2317 25-03-2008 07:37:02 -0.3 C 67 % -5.67 C
2318 25-03-2008 07:49:03 -0.2 C 66 % -5.77 C
2319 25-03-2008 08:01:02 -0.2 C 65 % -5.97 C
2320 25-03-2008 08:13:02 0.1 C 64 % -5.88 C
2321 25-03-2008 08:25:02 0.4 C 61 % -6.23 C
2322 25-03-2008 08:37:02 0.4 C 60 % -6.44 C
2323 25-03-2008 08:49:02 0.4 C 60 % -6.44 C
2324 25-03-2008 09:01:02 0.5 C 61 % -6.13 C
2325 25-03-2008 09:13:02 0.7 C 61 % -5.94 C
Sensor: Nr:Datum:Temp:Feuchte:Taupunkt:
Aussen-T/F 2326 25-03-2008 09:25:01 0.9 C 57 % -6.64 C
2327 25-03-2008 09:37:02 1.4 C 55 % -6.63 C
2328 25-03-2008 09:49:02 1.4 C 52 % -7.36 C
2329 25-03-2008 10:01:02 1.4 C 52 % -7.36 C
2330 25-03-2008 10:13:02 0.8 C 62 % -5.63 C
2331 25-03-2008 10:25:03 1 C 63 % -5.23 C
2332 25-03-2008 10:37:02 1.6 C 59 % -5.53 C
2333 25-03-2008 10:49:01 2 C 56 % -5.84 C
2334 25-03-2008 11:01:01 2.4 C 48 % -7.47 C
2335 25-03-2008 11:13:01 2.4 C 43 % -8.88 C
2336 25-03-2008 11:25:02 2.6 C 44 % -8.4 C
2337 25-03-2008 11:37:01 3.1 C 40 % -9.16 C
2338 25-03-2008 11:49:01 3.2 C 40 % -9.07 C
2339 25-03-2008 12:01:02 2.8 C 35 % -11.11 C
2340 25-03-2008 12:13:02 3.3 C 36 % -10.32 C
2341 25-03-2008 12:25:02 3.9 C 36 % -9.78 C
2342 25-03-2008 12:37:01 3.7 C 41 % -8.31 C
2343 25-03-2008 12:49:01 4.1 C 40 % -8.26 C
2344 25-03-2008 13:01:02 4.7 C 36 % -9.07 C
2345 25-03-2008 13:13:02 5.6 C 30 % -10.58 C
2346 25-03-2008 13:25:02 5.3 C 30 % -10.84 C
2347 25-03-2008 13:37:01 5 C 29 % -11.52 C
2348 25-03-2008 13:49:01 4.8 C 30 % -11.28 C
2349 25-03-2008 14:01:02 5.4 C 30 % -10.75 C
2350 25-03-2008 14:13:02 5.6 C 30 % -10.58 C
Sensor: Nr:Datum:Temp:Feuchte:Taupunkt:
Aussen-T/F 2351 25-03-2008 14:25:01 6.3 C 28 % -10.84 C
2352 25-03-2008 14:37:02 6.3 C 25 % -12.25 C
2353 25-03-2008 14:49:02 6.3 C 25 % -12.25 C
2354 25-03-2008 15:01:01 6.2 C 25 % -12.33 C
2355 25-03-2008 15:13:01 6.1 C 26 % -11.93 C
2356 25-03-2008 15:25:01 6.1 C 27 % -11.46 C
2357 25-03-2008 15:37:02 5.8 C 30 % -10.41 C
2358 25-03-2008 15:49:02 5 C 31 % -10.69 C
2359 25-03-2008 16:01:02 5.3 C 34 % -9.26 C
2360 25-03-2008 16:13:02 5.4 C 35 % -8.81 C
2361 25-03-2008 16:25:02 5.4 C 33 % -9.55 C
2362 25-03-2008 16:37:02 4.6 C 33 % -10.26 C
2363 25-03-2008 16:49:02 4.3 C 33 % -10.52 C
2364 25-03-2008 17:01:01 4.5 C 35 % -9.6 C
2365 25-03-2008 17:13:01 4.1 C 39 % -8.59 C
2366 25-03-2008 17:25:02 3 C 53 % -5.62 C
2367 25-03-2008 17:37:02 2.1 C 58 % -5.28 C
2368 25-03-2008 17:49:02 1.6 C 67 % -3.85 C
2369 25-03-2008 18:01:02 1.9 C 63 % -4.38 C
2370 25-03-2008 18:13:02 1.8 C 62 % -4.69 C
2371 25-03-2008 18:25:02 1.4 C 67 % -4.04 C
2372 25-03-2008 18:37:02 1.4 C 68 % -3.84 C
2373 25-03-2008 18:49:02 1.6 C 69 % -3.46 C
2374 25-03-2008 19:01:02 1.7 C 70 % -3.17 C
2375 25-03-2008 19:13:02 1.7 C 68 % -3.56 C
Sensor: Nr:Datum:Temp:Feuchte:Taupunkt:
Aussen-T/F 2376 25-03-2008 19:25:01 1.8 C 64 % -4.27 C
2377 25-03-2008 19:37:02 1.8 C 57 % -5.79 C
2378 25-03-2008 19:49:03 1.7 C 55 % -6.35 C
2379 25-03-2008 20:02:02 1.7 C 52 % -7.08 C
2380 25-03-2008 20:14:02 1.5 C 50 % -7.77 C
2381 25-03-2008 20:26:02 1.6 C 50 % -7.68 C
2382 25-03-2008 20:38:02 1.6 C 49 % -7.94 C
2383 25-03-2008 20:50:02 1.4 C 47 % -8.66 C
2384 25-03-2008 21:02:02 1.2 C 48 % -8.57 C
2385 25-03-2008 21:14:02 1.1 C 47 % -8.93 C
2386 25-03-2008 21:26:02 0.8 C 50 % -8.42 C
2387 25-03-2008 21:38:02 0.5 C 55 % -7.47 C
2388 25-03-2008 21:50:02 0.4 C 54 % -7.8 C
2389 25-03-2008 22:02:02 0.4 C 52 % -8.29 C
2390 25-03-2008 22:14:02 0.2 C 52 % -8.47 C
2391 25-03-2008 22:26:02 0.2 C 51 % -8.72 C
2392 25-03-2008 22:38:02 0 C 51 % -8.91 C
2393 25-03-2008 22:50:02 0.1 C 51 % -8.81 C
2394 25-03-2008 23:02:02 0 C 50 % -9.16 C
2395 25-03-2008 23:14:03 -0.1 C 50 % -9.26 C
2396 25-03-2008 23:26:03 -0.1 C 49 % -9.52 C
2397 25-03-2008 23:38:03 0.1 C 48 % -9.58 C
2398 25-03-2008 23:50:03 0.2 C 49 % -9.23 C
2399 26-03-2008 00:02:03 0.1 C 50 % -9.06 C
2400 26-03-2008 00:14:03 0.1 C 50 % -9.06 C
Sensor: Nr:Datum:Temp:Feuchte:Taupunkt:
Aussen-T/F 2401 26-03-2008 00:26:03 0.1 C 50 % -9.06 C
2402 26-03-2008 00:38:03 -0.2 C 50 % -9.36 C
2403 26-03-2008 00:50:03 -0.1 C 50 % -9.26 C
2404 26-03-2008 01:02:03 -0.3 C 50 % -9.45 C
2405 26-03-2008 01:14:03 -0.1 C 50 % -9.26 C
2406 26-03-2008 01:26:03 -0.3 C 50 % -9.45 C
2407 26-03-2008 01:38:03 -0.5 C 52 % -9.14 C
2408 26-03-2008 01:50:03 -0.4 C 52 % -9.04 C
2409 26-03-2008 02:02:03 -0.4 C 52 % -9.04 C
2410 26-03-2008 02:14:03 -0.3 C 51 % -9.2 C
2411 26-03-2008 02:26:03 -0.1 C 51 % -9.01 C
2412 26-03-2008 02:38:03 0 C 51 % -8.91 C
2413 26-03-2008 02:50:03 0 C 51 % -8.91 C
2414 26-03-2008 03:02:04 0.2 C 51 % -8.72 C
2415 26-03-2008 03:14:04 0.2 C 51 % -8.72 C
2416 26-03-2008 03:26:04 0.3 C 51 % -8.63 C
2417 26-03-2008 03:38:04 0.3 C 52 % -8.38 C
2418 26-03-2008 03:50:04 0.4 C 53 % -8.04 C
2419 26-03-2008 04:02:04 0.4 C 54 % -7.8 C
2420 26-03-2008 04:14:04 0.5 C 55 % -7.47 C
2421 26-03-2008 04:26:04 0.5 C 56 % -7.24 C
2422 26-03-2008 04:38:04 0.6 C 59 % -6.47 C
2423 26-03-2008 04:50:04 0.5 C 63 % -5.71 C
2424 26-03-2008 05:02:04 0.4 C 66 % -5.19 C
2425 26-03-2008 05:14:04 0.3 C 69 % -4.7 C
Sensor: Nr:Datum:Temp:Feuchte:Taupunkt:
Aussen-T/F 2426 26-03-2008 05:26:04 0.2 C 73 % -4.05 C
2427 26-03-2008 05:38:04 0.1 C 76 % -3.62 C
2428 26-03-2008 05:50:04 0.1 C 78 % -3.27 C
2429 26-03-2008 06:02:04 0 C 81 % -2.86 C
2430 26-03-2008 06:14:04 0.1 C 83 % -2.44 C
2431 26-03-2008 06:26:04 0.1 C 83 % -2.44 C
2432 26-03-2008 06:38:04 0.1 C 84 % -2.27 C
2433 26-03-2008 06:50:05 0.1 C 85 % -2.11 C
2434 26-03-2008 07:02:02 0.1 C 86 % -1.96 C
2435 26-03-2008 07:14:02 0.3 C 87 % -1.6 C
2436 26-03-2008 07:26:02 0.4 C 87 % -1.5 C
2437 26-03-2008 07:38:02 0.5 C 87 % -1.41 C
2438 26-03-2008 07:50:02 0.6 C 87 % -1.31 C
2439 26-03-2008 08:02:02 0.7 C 87 % -1.21 C
2440 26-03-2008 08:14:02 0.8 C 86 % -1.27 C
2441 26-03-2008 08:26:01 0.9 C 86 % -1.17 C
2442 26-03-2008 08:38:02 1.1 C 85 % -1.13 C
2443 26-03-2008 08:50:02 1.3 C 84 % -1.1 C
2444 26-03-2008 09:02:02 1.5 C 83 % -1.06 C
2445 26-03-2008 09:14:02 1.7 C 82 % -1.03 C
2446 26-03-2008 09:26:01 1.9 C 80 % -1.18 C
2447 26-03-2008 09:38:02 2.1 C 79 % -1.15 C
2448 26-03-2008 09:50:02 2.3 C 78 % -1.13 C
2449 26-03-2008 10:02:02 2.2 C 77 % -1.4 C
2450 26-03-2008 10:14:02 2.3 C 77 % -1.31 C
Sensor: Nr:Datum:Temp:Feuchte:Taupunkt:
Aussen-T/F 2451 26-03-2008 10:26:03 2.3 C 77 % -1.31 C
2452 26-03-2008 10:38:02 2.4 C 77 % -1.21 C
2453 26-03-2008 10:50:02 2.5 C 78 % -0.94 C
2454 26-03-2008 11:02:02 2.6 C 79 % -0.67 C
2455 26-03-2008 11:14:02 2.7 C 79 % -0.57 C
2456 26-03-2008 11:26:02 2.9 C 78 % -0.55 C
2457 26-03-2008 11:38:02 3.1 C 76 % -0.71 C
2458 26-03-2008 11:50:01 3.3 C 76 % -0.52 C
2459 26-03-2008 12:02:01 3.5 C 76 % -0.32 C
2460 26-03-2008 12:14:01 3.4 C 74 % -0.78 C
2461 26-03-2008 12:26:02 3.5 C 75 % -0.5 C
2462 26-03-2008 12:38:01 3.8 C 76 % -0.03 C
2463 26-03-2008 12:50:01 4 C 75 % -0.02 C
2464 26-03-2008 13:02:02 4.2 C 74 % -0.01 C
2465 26-03-2008 13:14:02 4.7 C 73 % 0.28 C
2466 26-03-2008 13:26:02 4.9 C 72 % 0.29 C
2467 26-03-2008 13:38:01 5 C 69 % -0.2 C
2468 26-03-2008 13:50:01 5.1 C 69 % -0.11 C
2469 26-03-2008 14:02:02 5.1 C 66 % -0.71 C
2470 26-03-2008 14:14:02 5.3 C 66 % -0.52 C
2471 26-03-2008 14:26:01 5.5 C 64 % -0.75 C
2472 26-03-2008 14:38:01 5.9 C 65 % -0.16 C
2473 26-03-2008 14:50:01 5.8 C 66 % -0.05 C
2474 26-03-2008 15:02:01 5.6 C 66 % -0.24 C
2475 26-03-2008 15:14:02 5.3 C 67 % -0.32 C
Sensor: Nr:Datum:Temp:Feuchte:Taupunkt:
Aussen-T/F 2476 26-03-2008 15:26:01 5.1 C 68 % -0.31 C
2477 26-03-2008 15:38:02 4.9 C 71 % 0.09 C
2478 26-03-2008 15:50:02 4.8 C 73 % 0.38 C
2479 26-03-2008 16:02:02 4.5 C 75 % 0.46 C
2480 26-03-2008 16:14:02 4.4 C 77 % 0.73 C
2481 26-03-2008 16:26:02 4.4 C 78 % 0.91 C
2482 26-03-2008 16:38:02 4.4 C 78 % 0.91 C
2483 26-03-2008 16:50:02 4.4 C 80 % 1.26 C
2484 26-03-2008 17:02:01 4.3 C 81 % 1.34 C
2485 26-03-2008 17:14:01 4.4 C 83 % 1.77 C
2486 26-03-2008 17:26:02 4.4 C 84 % 1.94 C
2487 26-03-2008 17:38:01 4.3 C 84 % 1.84 C
2488 26-03-2008 17:50:02 4.1 C 84 % 1.65 C
2489 26-03-2008 18:02:02 4.2 C 85 % 1.91 C
2490 26-03-2008 18:14:02 4.1 C 86 % 1.97 C
2491 26-03-2008 18:26:01 4 C 86 % 1.88 C
2492 26-03-2008 18:38:02 3.9 C 87 % 1.94 C
2493 26-03-2008 18:50:02 3.9 C 88 % 2.1 C
2494 26-03-2008 19:02:01 3.9 C 88 % 2.1 C
2495 26-03-2008 19:14:01 3.8 C 89 % 2.16 C
2496 26-03-2008 19:26:01 3.7 C 89 % 2.06 C
2497 26-03-2008 19:38:02 3.7 C 89 % 2.06 C
2498 26-03-2008 19:50:02 3.6 C 89 % 1.96 C
2499 26-03-2008 20:02:02 3.5 C 89 % 1.86 C
2500 26-03-2008 20:14:03 3.5 C 89 % 1.86 C
Sensor: Nr:Datum:Temp:Feuchte:Taupunkt:
Aussen-T/F 2501 26-03-2008 20:26:02 3.5 C 89 % 1.86 C
2502 26-03-2008 20:38:02 3.5 C 89 % 1.86 C
2503 26-03-2008 20:50:02 3.4 C 90 % 1.92 C
2504 26-03-2008 21:02:02 3.3 C 90 % 1.82 C
2505 26-03-2008 21:14:02 3.3 C 90 % 1.82 C
2506 26-03-2008 21:26:02 3.3 C 90 % 1.82 C
2507 26-03-2008 21:38:01 3.3 C 90 % 1.82 C
2508 26-03-2008 21:50:01 3.2 C 90 % 1.72 C
2509 26-03-2008 22:02:02 3.2 C 91 % 1.88 C
2510 26-03-2008 22:14:02 3.3 C 91 % 1.98 C
2511 26-03-2008 22:26:02 3.1 C 91 % 1.78 C
2512 26-03-2008 22:39:41 3 C 91 % 1.68 C
2513 26-03-2008 22:51:41 3 C 91 % 1.68 C
2514 26-03-2008 23:03:41 3 C 91 % 1.68 C
2515 26-03-2008 23:15:41 3 C 91 % 1.68 C
2516 26-03-2008 23:27:42 3 C 91 % 1.68 C
2517 26-03-2008 23:39:42 2.9 C 92 % 1.73 C
2518 26-03-2008 23:51:42 3 C 91 % 1.68 C
2519 27-03-2008 00:03:42 2.9 C 92 % 1.73 C
2520 27-03-2008 00:15:42 2.9 C 92 % 1.73 C
2521 27-03-2008 00:27:42 2.8 C 92 % 1.63 C
2522 27-03-2008 00:39:42 2.8 C 92 % 1.63 C
2523 27-03-2008 00:51:42 2.7 C 92 % 1.53 C
2524 27-03-2008 01:03:42 2.8 C 92 % 1.63 C
2525 27-03-2008 01:15:42 2.9 C 92 % 1.73 C
Sensor: Nr:Datum:Temp:Feuchte:Taupunkt:
Aussen-T/F 2526 27-03-2008 01:27:42 3 C 92 % 1.83 C
2527 27-03-2008 01:39:42 2.9 C 92 % 1.73 C
2528 27-03-2008 01:51:42 2.8 C 92 % 1.63 C
2529 27-03-2008 02:03:42 2.8 C 92 % 1.63 C
2530 27-03-2008 02:15:42 2.8 C 92 % 1.63 C
2531 27-03-2008 02:27:42 2.9 C 93 % 1.88 C
2532 27-03-2008 02:39:42 2.9 C 93 % 1.88 C
2533 27-03-2008 02:51:42 3 C 92 % 1.83 C
2534 27-03-2008 03:03:42 2.8 C 92 % 1.63 C
2535 27-03-2008 03:15:42 2.8 C 92 % 1.63 C
2536 27-03-2008 03:27:43 2.4 C 91 % 1.08 C
2537 27-03-2008 03:39:43 2.2 C 91 % 0.89 C
2538 27-03-2008 03:51:43 2.2 C 92 % 1.04 C
2539 27-03-2008 04:03:43 2.3 C 92 % 1.14 C
2540 27-03-2008 04:15:43 2.4 C 92 % 1.24 C
2541 27-03-2008 04:27:43 2.3 C 92 % 1.14 C
2542 27-03-2008 04:39:43 2.3 C 91 % 0.99 C
2543 27-03-2008 04:51:43 2.3 C 91 % 0.99 C
2544 27-03-2008 05:03:43 2.3 C 91 % 0.99 C
2545 27-03-2008 05:15:43 2.4 C 91 % 1.08 C
2546 27-03-2008 05:27:43 2.4 C 91 % 1.08 C
2547 27-03-2008 05:39:43 2.3 C 91 % 0.99 C
2548 27-03-2008 05:51:43 2.2 C 91 % 0.89 C
2549 27-03-2008 06:03:43 2.4 C 90 % 0.93 C
2550 27-03-2008 06:15:43 2.3 C 90 % 0.83 C
Sensor: Nr:Datum:Temp:Feuchte:Taupunkt:
Aussen-T/F 2551 27-03-2008 06:27:02 2.4 C 90 % 0.93 C
2552 27-03-2008 06:39:02 2.5 C 90 % 1.03 C
2553 27-03-2008 06:51:01 2.6 C 90 % 1.13 C
2554 27-03-2008 07:03:02 2.6 C 90 % 1.13 C
2555 27-03-2008 07:15:02 2.6 C 89 % 0.97 C
2556 27-03-2008 07:27:02 2.7 C 89 % 1.07 C
2557 27-03-2008 07:39:02 3 C 89 % 1.37 C
2558 27-03-2008 07:51:02 3.2 C 88 % 1.41 C
2559 27-03-2008 08:03:02 3.2 C 88 % 1.41 C
2560 27-03-2008 08:15:02 3.3 C 88 % 1.51 C
2561 27-03-2008 08:27:02 3.4 C 87 % 1.45 C
2562 27-03-2008 08:39:02 3.3 C 87 % 1.35 C
2563 27-03-2008 08:51:02 3.3 C 86 % 1.19 C
2564 27-03-2008 09:03:02 3.4 C 87 % 1.45 C
2565 27-03-2008 09:15:02 3.5 C 87 % 1.55 C
2566 27-03-2008 09:27:02 3.6 C 87 % 1.64 C
2567 27-03-2008 09:39:02 3.6 C 86 % 1.48 C
2568 27-03-2008 09:51:02 3.6 C 87 % 1.64 C
2569 27-03-2008 10:03:02 3.7 C 87 % 1.74 C
2570 27-03-2008 10:15:02 3.8 C 88 % 2 C
2571 27-03-2008 10:27:02 4.4 C 88 % 2.59 C
2572 27-03-2008 10:39:02 5.5 C 87 % 3.51 C
2573 27-03-2008 10:51:01 5.5 C 85 % 3.18 C
2574 27-03-2008 11:03:02 6 C 84 % 3.51 C
2575 27-03-2008 11:15:02 6.2 C 83 % 3.53 C
Sensor: Nr:Datum:Temp:Feuchte:Taupunkt:
Aussen-T/F 2576 27-03-2008 11:27:02 7.4 C 81 % 4.36 C
2577 27-03-2008 11:39:02 7.8 C 75 % 3.65 C
2578 27-03-2008 11:51:02 8.4 C 71 % 3.46 C
2579 27-03-2008 12:03:02 8.1 C 67 % 2.35 C
2580 27-03-2008 12:15:01 8.1 C 67 % 2.35 C
2581 27-03-2008 12:27:01 8.2 C 67 % 2.45 C
2582 27-03-2008 12:39:02 8.5 C 65 % 2.31 C
2583 27-03-2008 12:51:02 8.4 C 65 % 2.21 C
2584 27-03-2008 13:03:01 8.7 C 66 % 2.71 C
2585 27-03-2008 13:15:01 8.8 C 65 % 2.59 C
2586 27-03-2008 13:27:01 8.4 C 62 % 1.55 C
2587 27-03-2008 13:39:02 8 C 63 % 1.4 C
2588 27-03-2008 13:51:02 8.2 C 64 % 1.81 C
2589 27-03-2008 14:03:02 8.7 C 62 % 1.84 C
2590 27-03-2008 14:15:02 8.8 C 61 % 1.71 C
2591 27-03-2008 14:27:02 8.7 C 59 % 1.15 C
2592 27-03-2008 14:39:02 8.9 C 59 % 1.34 C
2593 27-03-2008 14:51:01 8.5 C 59 % 0.96 C
2594 27-03-2008 15:03:01 8.1 C 60 % 0.82 C
2595 27-03-2008 15:15:02 8.1 C 61 % 1.05 C
2596 27-03-2008 15:27:02 8.3 C 61 % 1.23 C
2597 27-03-2008 15:39:01 8.3 C 60 % 1 C
2598 27-03-2008 15:51:02 8.4 C 59 % 0.87 C
2599 27-03-2008 16:03:01 8.5 C 60 % 1.19 C
2600 27-03-2008 16:15:02 8.8 C 59 % 1.24 C
Sensor: Nr:Datum:Temp:Feuchte:Taupunkt:
Aussen-T/F 2601 27-03-2008 16:27:02 9.1 C 57 % 1.04 C
2602 27-03-2008 16:39:02 9.2 C 56 % 0.89 C
2603 27-03-2008 16:51:02 9 C 54 % 0.2 C
2604 27-03-2008 17:03:02 8.9 C 56 % 0.61 C
2605 27-03-2008 17:15:02 8.7 C 57 % 0.67 C
2606 27-03-2008 17:27:02 8.4 C 57 % 0.39 C
2607 27-03-2008 17:39:02 8.1 C 58 % 0.35 C
2608 27-03-2008 17:51:02 7.6 C 64 % 1.24 C
2609 27-03-2008 18:03:03 7.5 C 68 % 1.99 C
2610 27-03-2008 18:15:02 7.6 C 69 % 2.29 C
2611 27-03-2008 18:27:03 7.5 C 71 % 2.59 C
2612 27-03-2008 18:39:02 7.1 C 70 % 2.01 C
2613 27-03-2008 18:51:02 6.7 C 70 % 1.63 C
2614 27-03-2008 19:03:02 6.5 C 72 % 1.83 C
2615 27-03-2008 19:15:01 6.2 C 74 % 1.92 C
2616 27-03-2008 19:27:01 6 C 76 % 2.1 C
2617 27-03-2008 19:39:02 5.9 C 78 % 2.37 C
2618 27-03-2008 19:51:01 6 C 77 % 2.28 C
2619 27-03-2008 20:03:02 6 C 77 % 2.28 C
2620 27-03-2008 20:15:01 6 C 77 % 2.28 C
2621 27-03-2008 20:27:01 5.9 C 78 % 2.37 C
2622 27-03-2008 20:39:01 6 C 77 % 2.28 C
2623 27-03-2008 20:51:01 5.9 C 77 % 2.19 C
2624 27-03-2008 21:03:02 5.9 C 77 % 2.19 C
2625 27-03-2008 21:15:01 6 C 76 % 2.1 C
Sensor: Nr:Datum:Temp:Feuchte:Taupunkt:
Aussen-T/F 2626 27-03-2008 21:27:01 6 C 75 % 1.91 C
2627 27-03-2008 21:39:01 6 C 74 % 1.73 C
2628 27-03-2008 21:51:01 5.9 C 75 % 1.82 C
2629 27-03-2008 22:03:02 5.9 C 75 % 1.82 C
2630 27-03-2008 22:15:01 5.9 C 75 % 1.82 C
2631 27-03-2008 22:27:01 5.9 C 75 % 1.82 C
2632 27-03-2008 22:39:01 5.9 C 74 % 1.63 C
2633 27-03-2008 22:52:03 5.9 C 73 % 1.44 C
2634 27-03-2008 23:04:03 5.9 C 71 % 1.06 C
2635 27-03-2008 23:16:03 5.6 C 73 % 1.15 C
2636 27-03-2008 23:28:03 5.3 C 76 % 1.42 C
2637 27-03-2008 23:40:03 5.1 C 78 % 1.59 C
2638 27-03-2008 23:52:03 5.1 C 79 % 1.77 C
2639 28-03-2008 00:04:03 5 C 80 % 1.84 C
2640 28-03-2008 00:16:03 5.1 C 79 % 1.77 C
2641 28-03-2008 00:28:03 5.1 C 79 % 1.77 C
2642 28-03-2008 00:40:03 5.1 C 78 % 1.59 C
2643 28-03-2008 00:52:03 5.2 C 77 % 1.51 C
2644 28-03-2008 01:04:03 5.1 C 76 % 1.23 C
2645 28-03-2008 01:16:03 5.2 C 76 % 1.32 C
2646 28-03-2008 01:28:04 5.2 C 75 % 1.14 C
2647 28-03-2008 01:40:04 5.3 C 74 % 1.05 C
2648 28-03-2008 01:52:04 5.3 C 74 % 1.05 C
2649 28-03-2008 02:04:04 5.3 C 74 % 1.05 C
2650 28-03-2008 02:16:04 5.2 C 74 % 0.95 C
Sensor: Nr:Datum:Temp:Feuchte:Taupunkt:
Aussen-T/F 2651 28-03-2008 02:28:04 5.2 C 73 % 0.77 C
2652 28-03-2008 02:40:04 5.1 C 72 % 0.48 C
2653 28-03-2008 02:52:04 5.1 C 71 % 0.29 C
2654 28-03-2008 03:04:04 5.1 C 71 % 0.29 C
2655 28-03-2008 03:16:04 5 C 72 % 0.38 C
2656 28-03-2008 03:28:04 5 C 72 % 0.38 C
2657 28-03-2008 03:40:04 4.9 C 73 % 0.48 C
2658 28-03-2008 03:52:04 4.9 C 73 % 0.48 C
2659 28-03-2008 04:04:04 4.9 C 72 % 0.29 C
2660 28-03-2008 04:16:04 4.9 C 71 % 0.09 C
2661 28-03-2008 04:28:04 4.9 C 70 % -0.1 C
2662 28-03-2008 04:40:04 4.9 C 70 % -0.1 C
2663 28-03-2008 04:52:04 4.9 C 69 % -0.3 C
2664 28-03-2008 05:04:04 4.9 C 69 % -0.3 C
2665 28-03-2008 05:16:05 4.9 C 70 % -0.1 C
2666 28-03-2008 05:28:05 5 C 69 % -0.2 C
2667 28-03-2008 05:40:05 4.9 C 70 % -0.1 C
2668 28-03-2008 05:52:05 4.9 C 71 % 0.09 C
2669 28-03-2008 06:04:05 4.9 C 72 % 0.29 C
2670 28-03-2008 06:16:05 4.9 C 71 % 0.09 C
2671 28-03-2008 06:28:05 4.9 C 72 % 0.29 C
2672 28-03-2008 06:40:05 4.9 C 72 % 0.29 C
2673 28-03-2008 06:52:05 5 C 70 % 0 C
2674 28-03-2008 07:04:02 5 C 67 % -0.6 C
2675 28-03-2008 07:16:02 5 C 66 % -0.81 C
Sensor: Nr:Datum:Temp:Feuchte:Taupunkt:
Aussen-T/F 2676 28-03-2008 07:28:02 5.1 C 63 % -1.35 C
2677 28-03-2008 07:40:02 5.3 C 61 % -1.6 C
2678 28-03-2008 07:52:02 5.4 C 59 % -1.95 C
2679 28-03-2008 08:04:02 5.4 C 59 % -1.95 C
2680 28-03-2008 08:16:01 5.6 C 59 % -1.77 C
2681 28-03-2008 08:28:01 5.7 C 57 % -2.14 C
2682 28-03-2008 08:40:02 5.9 C 56 % -2.19 C
2683 28-03-2008 08:52:02 6 C 55 % -2.34 C
2684 28-03-2008 09:04:01 6.2 C 52 % -2.91 C
2685 28-03-2008 09:16:01 6.5 C 51 % -2.89 C
2686 28-03-2008 09:28:01 6.9 C 50 % -2.79 C
2687 28-03-2008 09:40:02 7 C 47 % -3.52 C
2688 28-03-2008 09:52:02 7.3 C 44 % -4.13 C
2689 28-03-2008 10:04:02 7.4 C 45 % -3.74 C
2690 28-03-2008 10:16:01 7.2 C 43 % -4.52 C
2691 28-03-2008 10:28:01 7.8 C 43 % -3.98 C
2692 28-03-2008 10:40:02 7.7 C 42 % -4.38 C
2693 28-03-2008 10:52:01 7.7 C 43 % -4.07 C
2694 28-03-2008 11:04:01 7.5 C 43 % -4.25 C
2695 28-03-2008 11:16:02 7.6 C 43 % -4.16 C
2696 28-03-2008 11:28:02 8.5 C 42 % -3.66 C
2697 28-03-2008 11:40:01 9.1 C 39 % -4.1 C
2698 28-03-2008 11:52:02 9.6 C 35 % -5.09 C
2699 28-03-2008 12:04:01 10.5 C 31 % -5.89 C
2700 28-03-2008 12:16:02 10.2 C 31 % -6.15 C
Sensor: Nr:Datum:Temp:Feuchte:Taupunkt:
Aussen-T/F 2701 28-03-2008 12:28:02 10.9 C 31 % -5.54 C
2702 28-03-2008 12:40:02 11.7 C 29 % -5.72 C
2703 28-03-2008 12:52:02 11.7 C 29 % -5.72 C
2704 28-03-2008 13:04:01 11.7 C 26 % -7.14 C
2705 28-03-2008 13:16:02 11.9 C 25 % -7.47 C
2706 28-03-2008 13:28:02 11.4 C 25 % -7.9 C
2707 28-03-2008 13:40:02 11.4 C 26 % -7.39 C
2708 28-03-2008 13:52:02 11.4 C 27 % -6.91 C
2709 28-03-2008 14:04:02 11.4 C 26 % -7.39 C
2710 28-03-2008 14:16:02 11.7 C 27 % -6.65 C
2711 28-03-2008 14:28:03 11.8 C 27 % -6.56 C
2712 28-03-2008 14:40:01 12.2 C 26 % -6.71 C
2713 28-03-2008 14:52:02 12.7 C 20 % -9.65 C
2714 28-03-2008 15:04:02 12.6 C 20 % -9.73 C
2715 28-03-2008 15:16:02 13.1 C 20 % -9.32 C
2716 28-03-2008 15:28:02 13.1 C 20 % -9.32 C
2717 28-03-2008 15:40:01 13.9 C 20 % -8.66 C
2718 28-03-2008 15:52:01 13 C 20 % -9.4 C
2719 28-03-2008 16:04:02 12.8 C 20 % -9.57 C
2720 28-03-2008 16:16:02 12.4 C 20 % -9.9 C
2721 28-03-2008 16:28:02 12.3 C 21 % -9.37 C
2722 28-03-2008 16:40:01 12.4 C 20 % -9.9 C
2723 28-03-2008 16:52:01 12.2 C 21 % -9.45 C
2724 28-03-2008 17:04:02 12 C 20 % -10.23 C
2725 28-03-2008 17:16:01 11.8 C 21 % -9.78 C
Sensor: Nr:Datum:Temp:Feuchte:Taupunkt:
Aussen-T/F 2726 28-03-2008 17:28:01 11.7 C 21 % -9.87 C
2727 28-03-2008 17:40:01 11.7 C 21 % -9.87 C
2728 28-03-2008 17:52:01 11.6 C 25 % -7.73 C
2729 28-03-2008 18:04:02 11.8 C 23 % -8.63 C
2730 28-03-2008 18:16:01 11.8 C 22 % -9.19 C
2731 28-03-2008 18:28:01 11.5 C 22 % -9.45 C
2732 28-03-2008 18:40:01 11.5 C 20 % -10.65 C
2733 28-03-2008 18:52:01 11.2 C 20 % -10.9 C
2734 28-03-2008 19:04:02 11 C 23 % -9.3 C
2735 28-03-2008 19:16:01 10.8 C 25 % -8.41 C
2736 28-03-2008 19:28:01 10.6 C 28 % -7.12 C
2737 28-03-2008 19:40:01 10.6 C 29 % -6.67 C
2738 28-03-2008 19:52:02 10.6 C 30 % -6.23 C
2739 28-03-2008 20:04:02 10.4 C 30 % -6.4 C
2740 28-03-2008 20:16:02 10.4 C 30 % -6.4 C
2741 28-03-2008 20:28:02 10.4 C 30 % -6.4 C
2742 28-03-2008 20:40:02 10.4 C 30 % -6.4 C
2743 28-03-2008 20:52:02 10.4 C 30 % -6.4 C
2744 28-03-2008 21:04:02 10.4 C 31 % -5.98 C
2745 28-03-2008 21:16:02 8.6 C 49 % -1.49 C
2746 28-03-2008 21:28:02 7.8 C 59 % 0.3 C
2747 28-03-2008 21:40:02 7.5 C 63 % 0.92 C
2748 28-03-2008 21:52:02 7.1 C 70 % 2.01 C
2749 28-03-2008 22:04:02 6.9 C 76 % 2.97 C
2750 28-03-2008 22:16:02 6.9 C 79 % 3.52 C
Sensor: Nr:Datum:Temp:Feuchte:Taupunkt:
Aussen-T/F 2751 28-03-2008 22:28:02 6.8 C 79 % 3.42 C
2752 28-03-2008 22:40:02 6.8 C 78 % 3.24 C
2753 28-03-2008 22:52:03 6.8 C 77 % 3.06 C
2754 28-03-2008 23:04:02 6.8 C 77 % 3.06 C
2755 28-03-2008 23:16:02 6.9 C 75 % 2.78 C
2756 28-03-2008 23:28:03 7.5 C 71 % 2.59 C
2757 28-03-2008 23:40:02 7.4 C 72 % 2.69 C
2758 28-03-2008 23:52:02 7.1 C 75 % 2.98 C
2759 29-03-2008 00:04:02 7.1 C 78 % 3.53 C
2760 29-03-2008 00:16:02 7.1 C 79 % 3.71 C
2761 29-03-2008 00:28:02 7.2 C 79 % 3.81 C
2762 29-03-2008 00:40:01 7.5 C 76 % 3.55 C
2763 29-03-2008 00:52:01 7.6 C 75 % 3.46 C
2764 29-03-2008 01:04:02 7.5 C 75 % 3.36 C
2765 29-03-2008 01:16:01 7.4 C 74 % 3.08 C
2766 29-03-2008 01:28:01 7.4 C 75 % 3.27 C
2767 29-03-2008 01:40:01 7.3 C 72 % 2.6 C
2768 29-03-2008 01:52:01 7.3 C 67 % 1.59 C
2769 29-03-2008 02:04:02 7 C 68 % 1.51 C
2770 29-03-2008 02:16:01 7.3 C 65 % 1.17 C
2771 29-03-2008 02:28:01 7.2 C 60 % -0.03 C
2772 29-03-2008 02:40:02 7.2 C 58 % -0.5 C
2773 29-03-2008 02:52:01 7.2 C 59 % -0.26 C
2774 29-03-2008 03:04:01 7.3 C 57 % -0.64 C
2775 29-03-2008 03:16:02 7.5 C 56 % -0.7 C
Sensor: Nr:Datum:Temp:Feuchte:Taupunkt:
Aussen-T/F 2776 29-03-2008 03:28:02 7.3 C 55 % -1.13 C
2777 29-03-2008 03:40:01 7.1 C 55 % -1.31 C
2778 29-03-2008 03:52:01 7.1 C 54 % -1.56 C
2779 29-03-2008 04:04:02 7.1 C 54 % -1.56 C
2780 29-03-2008 04:16:01 7.1 C 53 % -1.82 C
2781 29-03-2008 04:28:01 7.2 C 53 % -1.72 C
2782 29-03-2008 04:40:01 7 C 54 % -1.66 C
2783 29-03-2008 04:52:02 7 C 55 % -1.41 C
2784 29-03-2008 05:04:01 6.8 C 55 % -1.59 C
2785 29-03-2008 05:16:02 6.8 C 55 % -1.59 C
2786 29-03-2008 05:28:02 6.6 C 55 % -1.78 C
2787 29-03-2008 05:40:01 6 C 59 % -1.39 C
2788 29-03-2008 05:52:01 5.9 C 61 % -1.03 C
2789 29-03-2008 06:04:02 6 C 59 % -1.39 C
2790 29-03-2008 06:16:01 6.2 C 57 % -1.67 C
2791 29-03-2008 06:28:02 6.2 C 57 % -1.67 C
2792 29-03-2008 06:40:01 6.3 C 55 % -2.06 C
2793 29-03-2008 06:52:01 6.3 C 55 % -2.06 C
2794 29-03-2008 07:04:02 6.3 C 55 % -2.06 C
2795 29-03-2008 07:16:01 6.2 C 57 % -1.67 C
2796 29-03-2008 07:28:01 6.3 C 58 % -1.34 C
2797 29-03-2008 07:40:01 6.5 C 56 % -1.63 C
2798 29-03-2008 07:52:01 6.8 C 54 % -1.84 C
2799 29-03-2008 08:04:02 6.9 C 54 % -1.75 C
2800 29-03-2008 08:16:01 7 C 52 % -2.17 C
Sensor: Nr:Datum:Temp:Feuchte:Taupunkt:
Aussen-T/F 2801 29-03-2008 08:28:01 7.2 C 52 % -1.98 C
2802 29-03-2008 08:40:01 7.9 C 49 % -2.14 C
2803 29-03-2008 08:52:02 8.1 C 48 % -2.23 C
2804 29-03-2008 09:04:01 8.2 C 47 % -2.42 C
2805 29-03-2008 09:16:01 8.5 C 46 % -2.44 C
2806 29-03-2008 09:28:01 8.5 C 45 % -2.73 C
2807 29-03-2008 09:40:02 8.5 C 45 % -2.73 C
2808 29-03-2008 09:52:02 8.6 C 45 % -2.64 C
2809 29-03-2008 10:04:01 8.6 C 45 % -2.64 C
2810 29-03-2008 10:16:01 8.9 C 45 % -2.37 C
2811 29-03-2008 10:28:01 8.9 C 45 % -2.37 C
2812 29-03-2008 10:40:02 9.6 C 41 % -2.99 C
2813 29-03-2008 10:52:02 9.9 C 39 % -3.39 C
2814 29-03-2008 11:04:01 9.9 C 36 % -4.45 C
2815 29-03-2008 11:16:01 10.4 C 35 % -4.38 C
2816 29-03-2008 11:28:01 10.2 C 35 % -4.56 C
2817 29-03-2008 11:40:02 10.2 C 33 % -5.33 C
2818 29-03-2008 11:52:02 10.4 C 32 % -5.56 C
2819 29-03-2008 12:04:01 10.5 C 33 % -5.07 C
2820 29-03-2008 12:16:01 10.5 C 32 % -5.47 C
2821 29-03-2008 12:28:01 10.9 C 32 % -5.12 C
2822 29-03-2008 12:40:02 11 C 31 % -5.45 C
2823 29-03-2008 12:52:02 11.5 C 29 % -5.89 C
2824 29-03-2008 13:04:01 11.4 C 27 % -6.91 C
2825 29-03-2008 13:16:01 12 C 27 % -6.39 C
Sensor: Nr:Datum:Temp:Feuchte:Taupunkt:
Aussen-T/F 2826 29-03-2008 13:28:01 12.5 C 25 % -6.96 C
2827 29-03-2008 13:40:02 12.9 C 25 % -6.62 C
2828 29-03-2008 13:52:02 13 C 21 % -8.78 C
2829 29-03-2008 14:04:01 13 C 20 % -9.4 C
2830 29-03-2008 14:16:01 13.3 C 21 % -8.53 C
2831 29-03-2008 14:28:01 13.6 C 20 % -8.91 C
2832 29-03-2008 14:40:02 13.2 C 21 % -8.62 C
2833 29-03-2008 14:52:02 13.4 C 20 % -9.07 C
2834 29-03-2008 15:04:01 14.3 C 20 % -8.33 C
2835 29-03-2008 15:16:02 14.3 C 20 % -8.33 C
2836 29-03-2008 15:28:02 14.6 C 20 % -8.08 C
2837 29-03-2008 15:40:02 14.7 C 20 % -7.99 C
2838 29-03-2008 15:52:01 15.3 C 20 % -7.5 C
2839 29-03-2008 16:04:01 15.2 C 20 % -7.58 C
2840 29-03-2008 16:16:02 15.7 C 20 % -7.17 C
2841 29-03-2008 16:28:02 15.4 C 20 % -7.41 C
2842 29-03-2008 16:40:02 14.9 C 20 % -7.83 C
2843 29-03-2008 16:52:02 15 C 20 % -7.75 C
2844 29-03-2008 17:04:01 15 C 20 % -7.75 C
2845 29-03-2008 17:16:01 14.7 C 20 % -7.99 C
2846 29-03-2008 17:28:01 14.9 C 20 % -7.83 C
2847 29-03-2008 17:40:01 14.8 C 20 % -7.91 C
2848 29-03-2008 17:52:01 14.8 C 20 % -7.91 C
2849 29-03-2008 18:04:02 14.4 C 20 % -8.24 C
2850 29-03-2008 18:16:02 13.8 C 20 % -8.74 C
Sensor: Nr:Datum:Temp:Feuchte:Taupunkt:
Aussen-T/F 2851 29-03-2008 18:28:02 13.3 C 23 % -7.36 C
2852 29-03-2008 18:40:01 12.4 C 29 % -5.11 C
2853 29-03-2008 18:52:01 11.8 C 31 % -4.76 C
2854 29-03-2008 19:04:01 11.1 C 36 % -3.39 C
2855 29-03-2008 19:16:02 10.6 C 37 % -3.46 C
2856 29-03-2008 19:28:02 10.1 C 39 % -3.21 C
2857 29-03-2008 19:40:01 10 C 39 % -3.3 C
2858 29-03-2008 19:52:01 9.8 C 39 % -3.48 C
2859 29-03-2008 20:04:01 9.6 C 40 % -3.32 C
2860 29-03-2008 20:16:02 9.4 C 39 % -3.83 C
2861 29-03-2008 20:28:02 9.4 C 40 % -3.5 C
2862 29-03-2008 20:40:01 9.3 C 42 % -2.93 C
2863 29-03-2008 20:52:01 9.3 C 41 % -3.26 C
2864 29-03-2008 21:04:01 9.4 C 42 % -2.84 C
2865 29-03-2008 21:16:02 9.4 C 41 % -3.17 C
2866 29-03-2008 21:28:02 9.5 C 42 % -2.75 C
2867 29-03-2008 21:40:01 9.1 C 42 % -3.12 C
2868 29-03-2008 21:52:01 8.7 C 42 % -3.48 C
2869 29-03-2008 22:05:40 8.4 C 44 % -3.13 C
2870 29-03-2008 22:17:40 8.2 C 44 % -3.31 C
2871 29-03-2008 22:29:40 8 C 45 % -3.19 C
2872 29-03-2008 22:41:40 7.6 C 47 % -2.97 C
2873 29-03-2008 22:53:40 7.6 C 47 % -2.97 C
2874 29-03-2008 23:05:40 7.5 C 47 % -3.06 C
2875 29-03-2008 23:17:40 7.4 C 48 % -2.87 C
Sensor: Nr:Datum:Temp:Feuchte:Taupunkt:
Aussen-T/F 2876 29-03-2008 23:29:40 7.4 C 47 % -3.16 C
2877 29-03-2008 23:41:40 7.4 C 47 % -3.16 C
2878 29-03-2008 23:53:40 7.3 C 48 % -2.97 C
2879 30-03-2008 00:05:40 7.5 C 46 % -3.35 C
2880 30-03-2008 00:17:40 7.5 C 47 % -3.06 C
2881 30-03-2008 00:29:40 7.8 C 46 % -3.08 C
2882 30-03-2008 00:41:40 7.9 C 45 % -3.28 C
2883 30-03-2008 00:53:40 7.7 C 45 % -3.46 C
2884 30-03-2008 01:05:40 7.5 C 46 % -3.35 C
2885 30-03-2008 01:17:40 7.2 C 46 % -3.63 C
2886 30-03-2008 01:29:40 7.4 C 45 % -3.74 C
2887 30-03-2008 01:41:40 7.1 C 45 % -4.01 C
2888 30-03-2008 01:53:41 7.1 C 46 % -3.72 C
2889 30-03-2008 02:05:41 7.1 C 47 % -3.43 C
2890 30-03-2008 02:17:41 7 C 48 % -3.24 C
2891 30-03-2008 02:29:41 7.1 C 48 % -3.15 C
2892 30-03-2008 02:41:41 7.1 C 47 % -3.43 C
2893 30-03-2008 02:53:41 7 C 47 % -3.52 C
2894 30-03-2008 04:05:41 6.9 C 48 % -3.33 C
2895 30-03-2008 04:17:41 6.9 C 45 % -4.19 C
2896 30-03-2008 04:29:41 6.9 C 47 % -3.61 C
2897 30-03-2008 04:41:41 6.8 C 47 % -3.71 C
2898 30-03-2008 04:53:41 6.8 C 46 % -3.99 C
2899 30-03-2008 05:05:41 6.7 C 46 % -4.08 C
2900 30-03-2008 05:17:41 6.4 C 47 % -4.07 C
Sensor: Nr:Datum:Temp:Feuchte:Taupunkt:
Aussen-T/F 2901 30-03-2008 05:29:41 6.2 C 48 % -3.98 C
2902 30-03-2008 05:41:41 5.9 C 50 % -3.71 C
2903 30-03-2008 05:53:41 5.7 C 50 % -3.89 C
2904 30-03-2008 06:05:41 5.8 C 50 % -3.8 C
2905 30-03-2008 06:17:41 5.8 C 50 % -3.8 C
2906 30-03-2008 06:29:41 5.9 C 51 % -3.44 C
2907 30-03-2008 06:41:41 5.8 C 50 % -3.8 C
2908 30-03-2008 06:53:41 5.5 C 52 % -3.56 C
2909 30-03-2008 07:05:42 5.7 C 49 % -4.16 C
2910 30-03-2008 07:17:42 5.7 C 50 % -3.89 C
2911 30-03-2008 07:29:42 5.6 C 49 % -4.25 C
2912 30-03-2008 07:41:42 6 C 46 % -4.72 C
2913 30-03-2008 07:53:42 6.8 C 42 % -5.19 C
2914 30-03-2008 08:05:42 6.7 C 42 % -5.28 C
2915 30-03-2008 08:17:42 7 C 41 % -5.33 C
2916 30-03-2008 08:29:42 7.2 C 41 % -5.15 C
2917 30-03-2008 08:41:42 7.6 C 38 % -5.79 C
2918 30-03-2008 08:53:42 7.7 C 39 % -5.36 C
2919 30-03-2008 09:05:42 8 C 37 % -5.78 C
2920 30-03-2008 09:17:04 8.3 C 37 % -5.51 C
2921 30-03-2008 09:29:04 8.7 C 35 % -5.88 C
2922 30-03-2008 09:41:03 8.9 C 34 % -6.09 C
2923 30-03-2008 09:53:02 9.4 C 32 % -6.44 C
2924 30-03-2008 10:05:03 9.9 C 32 % -6 C
2925 30-03-2008 10:17:02 10.2 C 30 % -6.58 C
Sensor: Nr:Datum:Temp:Feuchte:Taupunkt:
Aussen-T/F 2926 30-03-2008 10:29:02 10.6 C 31 % -5.8 C
2927 30-03-2008 10:41:02 10.8 C 29 % -6.5 C
2928 30-03-2008 10:53:02 11.4 C 29 % -5.98 C
2929 30-03-2008 11:05:02 12.2 C 26 % -6.71 C
2930 30-03-2008 11:17:02 12.6 C 25 % -6.88 C
2931 30-03-2008 11:29:02 13.3 C 21 % -8.53 C
2932 30-03-2008 11:41:02 13.8 C 20 % -8.74 C
2933 30-03-2008 11:53:02 14.6 C 20 % -8.08 C
2934 30-03-2008 12:05:02 15.5 C 20 % -7.33 C
2935 30-03-2008 12:17:02 15.8 C 20 % -7.08 C
2936 30-03-2008 12:29:02 15.9 C 20 % -7 C
2937 30-03-2008 12:41:02 16.6 C 20 % -6.42 C
2938 30-03-2008 12:53:02 17 C 20 % -6.09 C
2939 30-03-2008 13:05:02 17.2 C 20 % -5.93 C
2940 30-03-2008 13:17:01 17.6 C 20 % -5.6 C
2941 30-03-2008 13:29:01 18.2 C 20 % -5.1 C
2942 30-03-2008 13:41:02 18.8 C 20 % -4.6 C
2943 30-03-2008 13:53:02 19.5 C 20 % -4.03 C
2944 30-03-2008 14:05:02 19.9 C 20 % -3.7 C
2945 30-03-2008 14:17:03 20.4 C 20 % -3.28 C
2946 30-03-2008 14:29:03 21.1 C 20 % -2.71 C
2947 30-03-2008 14:41:02 21.4 C 20 % -2.46 C
2948 30-03-2008 14:53:02 21.2 C 20 % -2.62 C
2949 30-03-2008 15:05:02 21.8 C 20 % -2.13 C
2950 30-03-2008 15:17:01 22.4 C 20 % -1.64 C
Sensor: Nr:Datum:Temp:Feuchte:Taupunkt:
Aussen-T/F 2951 30-03-2008 15:29:01 22.5 C 20 % -1.55 C
2952 30-03-2008 15:41:02 22.7 C 20 % -1.39 C
2953 30-03-2008 15:53:02 22.9 C 20 % -1.22 C
2954 30-03-2008 16:05:02 22.4 C 20 % -1.64 C
2955 30-03-2008 16:17:01 22.4 C 20 % -1.64 C
2956 30-03-2008 16:29:01 21.3 C 20 % -2.54 C
2957 30-03-2008 16:41:02 21.5 C 20 % -2.38 C
2958 30-03-2008 16:53:03 20.9 C 20 % -2.87 C
2959 30-03-2008 17:05:02 20.6 C 20 % -3.12 C
2960 30-03-2008 17:17:02 20.4 C 20 % -3.28 C
2961 30-03-2008 17:29:02 20.5 C 20 % -3.2 C
2962 30-03-2008 17:41:02 20.1 C 20 % -3.53 C
2963 30-03-2008 17:53:02 19.7 C 21 % -3.21 C
2964 30-03-2008 18:05:02 19.4 C 23 % -2.24 C
2965 30-03-2008 18:17:02 19.5 C 23 % -2.16 C
2966 30-03-2008 18:29:02 19.3 C 25 % -1.19 C
2967 30-03-2008 18:41:02 18.9 C 27 % -0.48 C
2968 30-03-2008 18:53:02 18.7 C 30 % 0.79 C
2969 30-03-2008 19:05:03 18.3 C 30 % 0.45 C
2970 30-03-2008 19:17:02 18.2 C 30 % 0.36 C
2971 30-03-2008 19:29:02 17.9 C 33 % 1.42 C
2972 30-03-2008 19:41:02 17.7 C 35 % 2.06 C
2973 30-03-2008 19:53:02 17.3 C 36 % 2.1 C
2974 30-03-2008 20:05:03 17 C 36 % 1.84 C
2975 30-03-2008 20:17:02 17.1 C 36 % 1.93 C
Sensor: Nr:Datum:Temp:Feuchte:Taupunkt:
Aussen-T/F 2976 30-03-2008 20:29:02 16.4 C 35 % 0.92 C
2977 30-03-2008 20:41:02 15.8 C 35 % 0.39 C
2978 30-03-2008 20:53:01 15.4 C 36 % 0.42 C
2979 30-03-2008 21:05:02 15.2 C 37 % 0.62 C
2980 30-03-2008 21:17:01 14.7 C 40 % 1.26 C
2981 30-03-2008 21:29:01 14.3 C 41 % 1.24 C
2982 30-03-2008 21:42:02 14.2 C 44 % 2.14 C
2983 30-03-2008 21:54:02 14.1 C 43 % 1.72 C
2984 30-03-2008 22:06:02 13.6 C 44 % 1.59 C
2985 30-03-2008 22:18:03 13 C 46 % 1.67 C
2986 30-03-2008 22:30:03 13 C 46 % 1.67 C
2987 30-03-2008 22:42:03 13 C 47 % 1.97 C
2988 30-03-2008 22:54:03 12.9 C 48 % 2.17 C
2989 30-03-2008 23:06:03 12.8 C 49 % 2.37 C
2990 30-03-2008 23:18:03 12.4 C 52 % 2.83 C
2991 30-03-2008 23:30:03 12.6 C 51 % 2.74 C
2992 30-03-2008 23:42:03 12.5 C 51 % 2.65 C
2993 30-03-2008 23:54:03 12.6 C 50 % 2.47 C
2994 31-03-2008 00:06:03 12.3 C 52 % 2.74 C
2995 31-03-2008 00:18:03 12.1 C 54 % 3.09 C
2996 31-03-2008 00:30:03 12 C 55 % 3.25 C
2997 31-03-2008 00:42:03 12.1 C 55 % 3.34 C
2998 31-03-2008 00:54:03 12.2 C 55 % 3.44 C
2999 31-03-2008 01:06:03 12.2 C 55 % 3.44 C
3000 31-03-2008 01:18:03 12 C 57 % 3.76 C
Sensor: Nr:Datum:Temp:Feuchte:Taupunkt:
Aussen-T/F 3001 31-03-2008 01:30:03 11.9 C 58 % 3.91 C
3002 31-03-2008 01:42:03 11.9 C 58 % 3.91 C
3003 31-03-2008 01:54:03 11.9 C 58 % 3.91 C
3004 31-03-2008 02:06:03 11.6 C 59 % 3.87 C
3005 31-03-2008 02:18:03 11.4 C 61 % 4.16 C
3006 31-03-2008 02:30:04 11.1 C 59 % 3.4 C
3007 31-03-2008 02:42:04 11 C 59 % 3.31 C
3008 31-03-2008 02:54:04 11 C 59 % 3.31 C
3009 31-03-2008 03:06:04 10.9 C 60 % 3.45 C
3010 31-03-2008 03:18:04 10.7 C 59 % 3.03 C
3011 31-03-2008 03:30:04 10.7 C 59 % 3.03 C
3012 31-03-2008 03:42:04 10.6 C 58 % 2.69 C
3013 31-03-2008 03:54:04 10.6 C 58 % 2.69 C
3014 31-03-2008 04:06:04 10.6 C 58 % 2.69 C
3015 31-03-2008 04:18:04 10.3 C 61 % 3.12 C
3016 31-03-2008 04:30:04 10 C 65 % 3.73 C
3017 31-03-2008 04:42:04 9.7 C 68 % 4.09 C
3018 31-03-2008 04:54:04 9.8 C 69 % 4.39 C
3019 31-03-2008 05:06:04 10 C 65 % 3.73 C
3020 31-03-2008 05:18:04 9.9 C 67 % 4.07 C
3021 31-03-2008 05:30:04 9.9 C 66 % 3.86 C
3022 31-03-2008 05:42:04 9.8 C 67 % 3.97 C
3023 31-03-2008 05:54:04 9.7 C 68 % 4.09 C
3024 31-03-2008 06:06:04 9.6 C 69 % 4.2 C
3025 31-03-2008 06:18:04 9.4 C 71 % 4.42 C
Sensor: Nr:Datum:Temp:Feuchte:Taupunkt:
Aussen-T/F 3026 31-03-2008 06:30:05 9.2 C 72 % 4.42 C
3027 31-03-2008 06:42:05 9.1 C 73 % 4.52 C
3028 31-03-2008 06:54:05 8.9 C 75 % 4.72 C
3029 31-03-2008 07:06:02 9 C 72 % 4.23 C
3030 31-03-2008 07:18:02 9.1 C 71 % 4.13 C
3031 31-03-2008 07:30:02 9.1 C 71 % 4.13 C
3032 31-03-2008 07:42:01 9.1 C 70 % 3.93 C
3033 31-03-2008 07:54:01 9.1 C 70 % 3.93 C
3034 31-03-2008 08:06:02 9.1 C 70 % 3.93 C
3035 31-03-2008 08:18:02 9.2 C 70 % 4.02 C
3036 31-03-2008 08:30:02 9.2 C 71 % 4.22 C
3037 31-03-2008 08:42:02 9.4 C 71 % 4.42 C
3038 31-03-2008 08:54:02 9.8 C 69 % 4.39 C
3039 31-03-2008 09:06:02 10 C 66 % 3.95 C
3040 31-03-2008 09:18:02 10.1 C 66 % 4.05 C
3041 31-03-2008 09:30:02 10.4 C 65 % 4.11 C
3042 31-03-2008 09:42:02 10.5 C 64 % 3.99 C
3043 31-03-2008 09:54:03 10.7 C 64 % 4.18 C
3044 31-03-2008 10:06:02 10.8 C 63 % 4.05 C
3045 31-03-2008 10:18:02 11.1 C 61 % 3.87 C
3046 31-03-2008 10:30:02 11.2 C 60 % 3.73 C
3047 31-03-2008 10:42:03 11.1 C 60 % 3.64 C
3048 31-03-2008 10:54:02 11.1 C 60 % 3.64 C
3049 31-03-2008 11:06:02 11.1 C 60 % 3.64 C
3050 31-03-2008 11:18:02 11 C 58 % 3.07 C
Sensor: Nr:Datum:Temp:Feuchte:Taupunkt:
Aussen-T/F 3051 31-03-2008 11:30:02 11 C 60 % 3.55 C
3052 31-03-2008 11:42:02 11 C 59 % 3.31 C
3053 31-03-2008 11:54:02 11.3 C 58 % 3.35 C
3054 31-03-2008 12:06:01 11.7 C 56 % 3.23 C
3055 31-03-2008 12:18:01 11.8 C 54 % 2.81 C
3056 31-03-2008 12:30:01 11.6 C 53 % 2.36 C
3057 31-03-2008 12:42:02 11.5 C 55 % 2.79 C
3058 31-03-2008 12:54:02 11.6 C 55 % 2.88 C
3059 31-03-2008 13:06:02 11.4 C 54 % 2.44 C
3060 31-03-2008 13:18:03 11.7 C 54 % 2.71 C
3061 31-03-2008 13:30:03 12.1 C 50 % 2.01 C
3062 31-03-2008 13:42:02 12.7 C 50 % 2.56 C
3063 31-03-2008 13:54:02 13 C 47 % 1.97 C
3064 31-03-2008 14:06:01 13.3 C 46 % 1.94 C
3065 31-03-2008 14:18:02 13.8 C 45 % 2.09 C
3066 31-03-2008 14:30:02 14.3 C 43 % 1.91 C
3067 31-03-2008 14:42:02 14 C 44 % 1.95 C
3068 31-03-2008 14:54:02 14.5 C 40 % 1.08 C
3069 31-03-2008 15:06:02 14.9 C 38 % 0.73 C
3070 31-03-2008 15:18:02 14.8 C 39 % 1 C
3071 31-03-2008 15:30:02 15.2 C 36 % 0.25 C
3072 31-03-2008 15:42:02 14.6 C 39 % 0.82 C
3073 31-03-2008 15:54:02 14.3 C 35 % -0.93 C
3074 31-03-2008 16:06:02 15.4 C 33 % -0.77 C
3075 31-03-2008 16:18:03 16 C 32 % -0.67 C
Sensor: Nr:Datum:Temp:Feuchte:Taupunkt:
Aussen-T/F 3076 31-03-2008 16:30:03 16.1 C 32 % -0.58 C
3077 31-03-2008 16:42:02 17.1 C 30 % -0.59 C
3078 31-03-2008 16:54:02 17.2 C 29 % -0.97 C
3079 31-03-2008 17:06:01 17.3 C 27 % -1.85 C
3080 31-03-2008 17:18:02 18.2 C 26 % -1.6 C
3081 31-03-2008 17:30:02 18 C 26 % -1.77 C
3082 31-03-2008 17:42:02 17.5 C 23 % -3.83 C
3083 31-03-2008 17:54:02 16.6 C 22 % -5.18 C
3084 31-03-2008 18:06:02 17 C 26 % -2.62 C
3085 31-03-2008 18:18:02 16.9 C 26 % -2.7 C
3086 31-03-2008 18:30:02 16.4 C 26 % -3.13 C
3087 31-03-2008 18:42:02 16.3 C 27 % -2.71 C
3088 31-03-2008 18:54:02 15.6 C 29 % -2.35 C
3089 31-03-2008 19:06:02 15.3 C 30 % -2.15 C
3090 31-03-2008 19:18:03 14.9 C 33 % -1.21 C
3091 31-03-2008 19:30:03 14.7 C 35 % -0.58 C
3092 31-03-2008 19:42:02 14.4 C 37 % -0.09 C
3093 31-03-2008 19:54:02 13.8 C 40 % 0.45 C
3094 31-03-2008 20:06:02 13.3 C 41 % 0.34 C
3095 31-03-2008 20:18:02 13 C 41 % 0.07 C
3096 31-03-2008 20:30:02 12.7 C 42 % 0.13 C
3097 31-03-2008 20:42:02 12.3 C 44 % 0.41 C
3098 31-03-2008 20:54:02 11.9 C 48 % 1.25 C
3099 31-03-2008 21:06:01 11.6 C 48 % 0.98 C
3100 31-03-2008 21:18:01 11.5 C 48 % 0.89 C
Sensor: Nr:Datum:Temp:Feuchte:Taupunkt:
Aussen-T/F 3101 31-03-2008 21:30:01 11.3 C 49 % 0.99 C
3102 31-03-2008 21:42:02 11.2 C 49 % 0.9 C
3103 31-03-2008 21:54:02 11.2 C 49 % 0.9 C
3104 31-03-2008 22:06:02 11 C 50 % 0.99 C
3105 31-03-2008 22:18:02 10.7 C 52 % 1.26 C
3106 31-03-2008 22:30:02 10.4 C 52 % 0.98 C
3107 31-03-2008 22:42:02 10.2 C 52 % 0.8 C
3108 31-03-2008 22:55:02 10 C 54 % 1.13 C
3109 31-03-2008 23:07:02 10 C 54 % 1.13 C
3110 31-03-2008 23:19:02 9.7 C 56 % 1.36 C
3111 31-03-2008 23:31:02 9.4 C 56 % 1.08 C
3112 31-03-2008 23:43:02 9.3 C 55 % 0.74 C
3113 31-03-2008 23:55:02 9.2 C 56 % 0.89 C
3114 01-04-2008 00:07:02 9.1 C 57 % 1.04 C
3115 01-04-2008 00:19:02 8.9 C 59 % 1.34 C
3116 01-04-2008 00:31:02 8.8 C 59 % 1.24 C
3117 01-04-2008 00:43:02 8.8 C 60 % 1.48 C
3118 01-04-2008 00:55:02 8.7 C 61 % 1.61 C
3119 01-04-2008 01:07:02 8.6 C 61 % 1.52 C
3120 01-04-2008 01:19:02 8.4 C 61 % 1.33 C
3121 01-04-2008 01:31:02 8.1 C 62 % 1.27 C
3122 01-04-2008 01:43:02 8 C 62 % 1.18 C
3123 01-04-2008 01:55:02 8 C 63 % 1.4 C
3124 01-04-2008 02:07:02 7.8 C 64 % 1.43 C
3125 01-04-2008 02:19:02 7.4 C 65 % 1.26 C
Sensor: Nr:Datum:Temp:Feuchte:Taupunkt:
Aussen-T/F 3126 01-04-2008 02:31:03 7.2 C 66 % 1.29 C
3127 01-04-2008 02:43:03 7 C 65 % 0.88 C
3128 01-04-2008 02:55:03 6.8 C 68 % 1.32 C
3129 01-04-2008 03:07:03 6.7 C 67 % 1.02 C
3130 01-04-2008 03:19:03 6.5 C 68 % 1.03 C
3131 01-04-2008 03:31:03 6.4 C 69 % 1.14 C
3132 01-04-2008 03:43:03 6.2 C 69 % 0.95 C
3133 01-04-2008 03:55:03 6.2 C 70 % 1.15 C
3134 01-04-2008 04:07:03 6 C 71 % 1.15 C
3135 01-04-2008 04:19:03 5.8 C 72 % 1.15 C
3136 01-04-2008 04:31:03 5.6 C 73 % 1.15 C
3137 01-04-2008 04:43:03 5.3 C 74 % 1.05 C
3138 01-04-2008 04:55:03 5.1 C 74 % 0.86 C
3139 01-04-2008 05:07:03 5 C 74 % 0.76 C
3140 01-04-2008 05:19:03 4.8 C 75 % 0.75 C
3141 01-04-2008 05:31:03 4.7 C 76 % 0.84 C
3142 01-04-2008 05:43:03 4.5 C 76 % 0.65 C
3143 01-04-2008 05:55:03 4.4 C 78 % 0.91 C
3144 01-04-2008 06:07:03 4.1 C 78 % 0.62 C
3145 01-04-2008 06:19:03 4 C 79 % 0.7 C
3146 01-04-2008 06:31:04 3.8 C 80 % 0.68 C
3147 01-04-2008 06:43:04 3.7 C 81 % 0.75 C
3148 01-04-2008 06:55:04 3.6 C 81 % 0.65 C
3149 01-04-2008 07:07:02 3.5 C 82 % 0.72 C
3150 01-04-2008 07:19:01 3.2 C 82 % 0.43 C
Sensor: Nr:Datum:Temp:Feuchte:Taupunkt:
Aussen-T/F 3151 01-04-2008 07:31:02 3.1 C 83 % 0.5 C
3152 01-04-2008 07:43:02 3.1 C 83 % 0.5 C
3153 01-04-2008 07:55:02 3.2 C 83 % 0.6 C
3154 01-04-2008 08:07:01 3.2 C 83 % 0.6 C
3155 01-04-2008 08:19:01 3.3 C 82 % 0.53 C
3156 01-04-2008 08:31:01 3.4 C 82 % 0.63 C
3157 01-04-2008 08:43:01 3.5 C 82 % 0.72 C
3158 01-04-2008 08:55:02 3.8 C 82 % 1.02 C
3159 01-04-2008 09:07:02 4 C 81 % 1.04 C
3160 01-04-2008 09:19:02 4.2 C 80 % 1.07 C
3161 01-04-2008 09:31:01 4.6 C 80 % 1.46 C
3162 01-04-2008 09:43:01 5 C 77 % 1.31 C
3163 01-04-2008 09:55:02 5.7 C 76 % 1.81 C
3164 01-04-2008 10:07:02 6.7 C 72 % 2.02 C
3165 01-04-2008 10:19:02 7.5 C 69 % 2.19 C
3166 01-04-2008 10:31:02 8.3 C 66 % 2.33 C
3167 01-04-2008 10:43:02 8.9 C 63 % 2.25 C
3168 01-04-2008 10:55:02 9.6 C 61 % 2.46 C
3169 01-04-2008 11:07:01 10.4 C 56 % 2.01 C
3170 01-04-2008 11:19:01 11.2 C 51 % 1.45 C
3171 01-04-2008 11:31:02 12 C 47 % 1.05 C
3172 01-04-2008 11:43:02 12.6 C 45 % 1 C
3173 01-04-2008 11:55:02 13.2 C 40 % -0.09 C
3174 01-04-2008 12:07:02 13.5 C 39 % -0.17 C
3175 01-04-2008 12:19:02 14 C 36 % -0.82 C
Sensor: Nr:Datum:Temp:Feuchte:Taupunkt:
Aussen-T/F 3176 01-04-2008 12:31:02 14.5 C 35 % -0.76 C
3177 01-04-2008 12:43:02 15 C 32 % -1.54 C
3178 01-04-2008 12:55:02 15.2 C 31 % -1.79 C
3179 01-04-2008 13:07:01 15 C 33 % -1.12 C
3180 01-04-2008 13:19:01 15.1 C 34 % -0.63 C
3181 01-04-2008 13:31:02 14.9 C 35 % -0.41 C
3182 01-04-2008 13:43:02 15.1 C 34 % -0.63 C
3183 01-04-2008 13:55:02 15.6 C 35 % 0.21 C
3184 01-04-2008 14:07:02 16 C 33 % -0.24 C
3185 01-04-2008 14:19:01 16.2 C 32 % -0.49 C
3186 01-04-2008 14:31:02 16.5 C 33 % 0.19 C
3187 01-04-2008 14:43:02 16.9 C 30 % -0.76 C
3188 01-04-2008 14:55:02 16.3 C 29 % -1.74 C
3189 01-04-2008 15:07:01 16.5 C 30 % -1.11 C
3190 01-04-2008 15:19:02 16.8 C 29 % -1.31 C
3191 01-04-2008 15:31:01 16.9 C 30 % -0.76 C
3192 01-04-2008 15:43:01 17 C 30 % -0.68 C
3193 01-04-2008 15:55:02 16.6 C 29 % -1.49 C
3194 01-04-2008 16:07:01 16.9 C 30 % -0.76 C
3195 01-04-2008 16:19:02 16.6 C 27 % -2.45 C
3196 01-04-2008 16:31:02 16.3 C 28 % -2.22 C
3197 01-04-2008 16:43:02 16.1 C 30 % -1.46 C
3198 01-04-2008 16:55:02 16 C 29 % -2 C
3199 01-04-2008 17:07:02 15.4 C 30 % -2.06 C
3200 01-04-2008 17:19:02 15.1 C 30 % -2.32 C
Sensor: Nr:Datum:Temp:Feuchte:Taupunkt:
Aussen-T/F 3201 01-04-2008 17:31:02 14.9 C 31 % -2.06 C
3202 01-04-2008 17:43:02 14.8 C 33 % -1.3 C
3203 01-04-2008 17:55:01 14.7 C 34 % -0.98 C
3204 01-04-2008 18:07:01 14.5 C 36 % -0.37 C
3205 01-04-2008 18:19:02 14.1 C 38 % 0.01 C
3206 01-04-2008 18:31:01 13.6 C 40 % 0.27 C
3207 01-04-2008 18:43:01 13.3 C 40 % 0 C
3208 01-04-2008 18:55:02 13.2 C 42 % 0.59 C
3209 01-04-2008 19:07:01 13.2 C 43 % 0.91 C
3210 01-04-2008 19:19:02 13.1 C 45 % 1.45 C
3211 01-04-2008 19:31:02 12.9 C 47 % 1.87 C
3212 01-04-2008 19:43:02 12.7 C 49 % 2.27 C
3213 01-04-2008 19:55:02 12.3 C 53 % 3.01 C
3214 01-04-2008 20:07:01 12.1 C 54 % 3.09 C
3215 01-04-2008 20:19:02 12 C 55 % 3.25 C
3216 01-04-2008 20:31:02 11.9 C 57 % 3.66 C
3217 01-04-2008 20:43:02 11.7 C 56 % 3.23 C
3218 01-04-2008 20:55:02 11.7 C 56 % 3.23 C
3219 01-04-2008 21:07:03 11.8 C 56 % 3.32 C
3220 01-04-2008 21:19:02 11.6 C 60 % 4.11 C
3221 01-04-2008 21:31:02 11.4 C 62 % 4.39 C
3222 01-04-2008 21:43:02 11 C 67 % 5.12 C
3223 01-04-2008 21:56:02 10.9 C 67 % 5.02 C
3224 01-04-2008 22:08:02 10.8 C 67 % 4.93 C
3225 01-04-2008 22:20:02 10.8 C 67 % 4.93 C
Sensor: Nr:Datum:Temp:Feuchte:Taupunkt:
Aussen-T/F 3226 01-04-2008 22:32:02 10.7 C 65 % 4.4 C
3227 01-04-2008 22:44:02 10.8 C 65 % 4.49 C
3228 01-04-2008 22:56:02 10.8 C 64 % 4.27 C
3229 01-04-2008 23:08:02 10.8 C 65 % 4.49 C
3230 01-04-2008 23:20:02 10.7 C 64 % 4.18 C
3231 01-04-2008 23:32:02 10.8 C 63 % 4.05 C
3232 01-04-2008 23:44:02 10.7 C 63 % 3.95 C
3233 01-04-2008 23:56:02 10.7 C 63 % 3.95 C
3234 02-04-2008 00:08:02 10.6 C 62 % 3.63 C
3235 02-04-2008 00:20:02 10.5 C 63 % 3.77 C
3236 02-04-2008 00:32:02 10.4 C 63 % 3.67 C
3237 02-04-2008 00:44:02 10.3 C 63 % 3.58 C
3238 02-04-2008 00:56:03 10.3 C 63 % 3.58 C
3239 02-04-2008 01:08:03 10.2 C 64 % 3.7 C
3240 02-04-2008 01:20:03 10.2 C 62 % 3.25 C
3241 02-04-2008 01:32:03 10.2 C 63 % 3.48 C
3242 02-04-2008 01:44:03 10.1 C 63 % 3.39 C
3243 02-04-2008 01:56:03 10.2 C 62 % 3.25 C
3244 02-04-2008 02:08:03 10.2 C 62 % 3.25 C
3245 02-04-2008 02:20:03 10 C 62 % 3.07 C
3246 02-04-2008 02:32:03 9.9 C 63 % 3.2 C
3247 02-04-2008 02:44:03 9.8 C 64 % 3.32 C
3248 02-04-2008 02:56:03 9.7 C 65 % 3.45 C
3249 02-04-2008 03:08:03 9.7 C 65 % 3.45 C
3250 02-04-2008 03:20:03 9.6 C 65 % 3.35 C
Sensor: Nr:Datum:Temp:Feuchte:Taupunkt:
Aussen-T/F 3251 02-04-2008 03:32:03 9.7 C 64 % 3.23 C
3252 02-04-2008 03:44:03 9.6 C 64 % 3.14 C
3253 02-04-2008 03:56:03 9.6 C 64 % 3.14 C
3254 02-04-2008 04:08:03 9.5 C 64 % 3.04 C
3255 02-04-2008 04:20:03 9.5 C 64 % 3.04 C
3256 02-04-2008 04:32:03 9.4 C 64 % 2.95 C
3257 02-04-2008 04:44:04 9.4 C 64 % 2.95 C
3258 02-04-2008 04:56:04 9.4 C 64 % 2.95 C
3259 02-04-2008 05:08:04 9.3 C 64 % 2.85 C
3260 02-04-2008 05:20:04 9.3 C 65 % 3.07 C
3261 02-04-2008 05:32:04 9.2 C 65 % 2.97 C
3262 02-04-2008 05:44:04 9.1 C 65 % 2.88 C
3263 02-04-2008 05:56:04 9 C 65 % 2.78 C
3264 02-04-2008 06:08:04 8.9 C 67 % 3.12 C
3265 02-04-2008 06:20:04 9 C 66 % 3 C
3266 02-04-2008 06:32:04 8.9 C 68 % 3.32 C
3267 02-04-2008 06:44:04 8.6 C 70 % 3.45 C
3268 02-04-2008 06:56:04 8.5 C 70 % 3.35 C
3269 02-04-2008 07:08:02 8.4 C 70 % 3.26 C
3270 02-04-2008 07:20:02 8.4 C 69 % 3.05 C
3271 02-04-2008 07:32:02 8.5 C 69 % 3.15 C
3272 02-04-2008 07:44:02 8.6 C 68 % 3.04 C
3273 02-04-2008 07:56:02 8.7 C 67 % 2.92 C
3274 02-04-2008 08:08:02 8.7 C 67 % 2.92 C
3275 02-04-2008 08:20:02 8.8 C 67 % 3.02 C
Sensor: Nr:Datum:Temp:Feuchte:Taupunkt:
Aussen-T/F 3276 02-04-2008 08:32:02 8.9 C 66 % 2.9 C
3277 02-04-2008 08:44:02 9.2 C 64 % 2.76 C
3278 02-04-2008 08:56:02 9.3 C 63 % 2.63 C
3279 02-04-2008 09:08:02 9.3 C 63 % 2.63 C
3280 02-04-2008 09:20:03 9.5 C 63 % 2.82 C
3281 02-04-2008 09:32:02 9.5 C 62 % 2.59 C
3282 02-04-2008 09:44:02 9.1 C 66 % 3.09 C
3283 02-04-2008 09:56:02 8.6 C 72 % 3.85 C
3284 02-04-2008 10:08:02 8.5 C 75 % 4.33 C
3285 02-04-2008 10:20:02 8.7 C 75 % 4.52 C
3286 02-04-2008 10:32:02 9.3 C 71 % 4.32 C
3287 02-04-2008 10:44:02 9.7 C 66 % 3.67 C
3288 02-04-2008 10:56:02 10.2 C 62 % 3.25 C
3289 02-04-2008 11:08:02 10.7 C 60 % 3.26 C
3290 02-04-2008 11:20:01 10.6 C 59 % 2.93 C
3291 02-04-2008 11:32:02 10.6 C 55 % 1.95 C
3292 02-04-2008 11:44:02 10.8 C 52 % 1.35 C
3293 02-04-2008 11:56:02 10.8 C 51 % 1.08 C
3294 02-04-2008 12:08:01 10.6 C 51 % 0.9 C
3295 02-04-2008 12:20:01 10.7 C 49 % 0.44 C
3296 02-04-2008 12:32:02 10.8 C 47 % -0.04 C
3297 02-04-2008 12:44:02 10.8 C 47 % -0.04 C
3298 02-04-2008 12:56:02 10.9 C 47 % 0.05 C
3299 02-04-2008 13:08:02 11.1 C 46 % -0.07 C
3300 02-04-2008 13:20:02 11.5 C 47 % 0.6 C
Sensor: Nr:Datum:Temp:Feuchte:Taupunkt:
Aussen-T/F 3301 02-04-2008 13:32:02 11.2 C 44 % -0.58 C
3302 02-04-2008 13:44:02 11 C 44 % -0.77 C
3303 02-04-2008 13:56:02 11 C 45 % -0.46 C
3304 02-04-2008 14:08:02 10.9 C 46 % -0.25 C
3305 02-04-2008 14:20:01 10.7 C 48 % 0.15 C
3306 02-04-2008 14:32:02 11 C 46 % -0.16 C
3307 02-04-2008 14:44:02 11.2 C 46 % 0.02 C
3308 02-04-2008 14:56:02 11.1 C 45 % -0.37 C
3309 02-04-2008 15:08:01 11.1 C 45 % -0.37 C
3310 02-04-2008 15:20:01 11.1 C 45 % -0.37 C
3311 02-04-2008 15:32:02 11 C 46 % -0.16 C
3312 02-04-2008 15:44:02 11 C 46 % -0.16 C
3313 02-04-2008 15:56:02 11.2 C 45 % -0.28 C
3314 02-04-2008 16:08:02 11 C 46 % -0.16 C
3315 02-04-2008 16:20:02 10.8 C 48 % 0.24 C
3316 02-04-2008 16:32:02 10.9 C 47 % 0.05 C
3317 02-04-2008 16:44:02 10.8 C 48 % 0.24 C
3318 02-04-2008 16:56:02 11 C 47 % 0.14 C
3319 02-04-2008 17:08:01 11 C 47 % 0.14 C
3320 02-04-2008 17:20:01 11.2 C 46 % 0.02 C
3321 02-04-2008 17:32:02 11.1 C 46 % -0.07 C
3322 02-04-2008 17:44:02 11 C 48 % 0.43 C
3323 02-04-2008 17:56:02 10.9 C 49 % 0.62 C
3324 02-04-2008 18:08:02 11 C 47 % 0.14 C
3325 02-04-2008 18:20:02 11.3 C 45 % -0.19 C
Sensor: Nr:Datum:Temp:Feuchte:Taupunkt:
Aussen-T/F 3326 02-04-2008 18:32:01 11.1 C 45 % -0.37 C
3327 02-04-2008 18:44:01 11.6 C 45 % 0.09 C
3328 02-04-2008 18:56:01 11.2 C 45 % -0.28 C
3329 02-04-2008 19:08:02 10.9 C 47 % 0.05 C
3330 02-04-2008 19:20:02 10.7 C 47 % -0.14 C
3331 02-04-2008 19:32:02 10.6 C 48 % 0.06 C
3332 02-04-2008 19:44:02 10.5 C 49 % 0.25 C
3333 02-04-2008 19:56:01 10.4 C 49 % 0.16 C
3334 02-04-2008 20:08:02 10.2 C 50 % 0.26 C
3335 02-04-2008 20:20:02 9.9 C 52 % 0.52 C
3336 02-04-2008 20:32:02 9.8 C 53 % 0.69 C
3337 02-04-2008 20:44:02 8.3 C 69 % 2.96 C
3338 02-04-2008 20:56:01 8.2 C 70 % 3.06 C
3339 02-04-2008 21:08:02 8.1 C 71 % 3.17 C
3340 02-04-2008 21:20:02 8.1 C 72 % 3.37 C
3341 02-04-2008 21:32:02 8 C 72 % 3.27 C
3342 02-04-2008 21:44:02 8.2 C 71 % 3.26 C
3343 02-04-2008 21:56:02 8.4 C 69 % 3.05 C
3344 02-04-2008 22:08:02 8.6 C 67 % 2.83 C
3345 02-04-2008 22:21:44 7.8 C 72 % 3.08 C
3346 02-04-2008 22:33:44 7 C 77 % 3.25 C
3347 02-04-2008 22:45:44 6.7 C 82 % 3.85 C
3348 02-04-2008 22:57:44 6.8 C 85 % 4.46 C
3349 02-04-2008 23:09:44 7 C 85 % 4.66 C
3350 02-04-2008 23:21:44 7.3 C 82 % 4.44 C
Sensor: Nr:Datum:Temp:Feuchte:Taupunkt:
Aussen-T/F 3351 02-04-2008 23:33:44 8.1 C 74 % 3.75 C
3352 02-04-2008 23:45:44 8.2 C 71 % 3.26 C
3353 02-04-2008 23:57:45 8.1 C 72 % 3.37 C
3354 03-04-2008 00:09:45 8.1 C 71 % 3.17 C
3355 03-04-2008 00:21:45 7.5 C 74 % 3.17 C
3356 03-04-2008 00:33:45 7.1 C 74 % 2.79 C
3357 03-04-2008 00:45:45 6.8 C 76 % 2.87 C
3358 03-04-2008 00:57:45 6.3 C 77 % 2.57 C
3359 03-04-2008 01:09:45 6.3 C 78 % 2.75 C
3360 03-04-2008 01:21:45 6.5 C 79 % 3.13 C
3361 03-04-2008 01:33:45 6.8 C 77 % 3.06 C
3362 03-04-2008 01:45:45 7.1 C 76 % 3.16 C
3363 03-04-2008 01:57:45 7.1 C 76 % 3.16 C
3364 03-04-2008 02:09:45 7.1 C 75 % 2.98 C
3365 03-04-2008 02:21:45 7 C 75 % 2.88 C
3366 03-04-2008 02:33:45 7 C 76 % 3.07 C
3367 03-04-2008 02:45:45 7.1 C 75 % 2.98 C
3368 03-04-2008 02:57:45 7 C 75 % 2.88 C
3369 03-04-2008 03:09:45 7.1 C 75 % 2.98 C
3370 03-04-2008 03:21:45 7.1 C 75 % 2.98 C
3371 03-04-2008 03:33:45 7.1 C 75 % 2.98 C
3372 03-04-2008 03:45:46 7.1 C 75 % 2.98 C
3373 03-04-2008 03:57:46 7.1 C 72 % 2.4 C
3374 03-04-2008 04:09:46 7 C 71 % 2.11 C
3375 03-04-2008 04:21:46 6.9 C 72 % 2.21 C
Sensor: Nr:Datum:Temp:Feuchte:Taupunkt:
Aussen-T/F 3376 03-04-2008 04:33:46 6.8 C 70 % 1.72 C
3377 03-04-2008 04:45:46 6.7 C 69 % 1.43 C
3378 03-04-2008 04:57:46 6.6 C 67 % 0.92 C
3379 03-04-2008 05:09:46 6.5 C 66 % 0.62 C
3380 03-04-2008 05:21:46 6.4 C 67 % 0.73 C
3381 03-04-2008 05:33:46 6.4 C 67 % 0.73 C
3382 03-04-2008 05:45:46 6.4 C 68 % 0.94 C
3383 03-04-2008 05:57:46 6.3 C 69 % 1.04 C
3384 03-04-2008 06:09:46 6.2 C 71 % 1.34 C
3385 03-04-2008 06:21:46 6.1 C 71 % 1.25 C
3386 03-04-2008 06:33:46 6 C 71 % 1.15 C
3387 03-04-2008 06:45:46 6 C 71 % 1.15 C
3388 03-04-2008 06:57:46 5.6 C 76 % 1.71 C
3389 03-04-2008 07:09:46 5.3 C 80 % 2.14 C
3390 03-04-2008 07:21:46 5.3 C 82 % 2.48 C
3391 03-04-2008 07:33:47 5.4 C 83 % 2.75 C
3392 03-04-2008 07:45:47 5.4 C 84 % 2.92 C
3393 03-04-2008 07:57:47 5.6 C 84 % 3.12 C
3394 03-04-2008 08:09:01 5.8 C 82 % 2.97 C
3395 03-04-2008 08:21:01 5.9 C 82 % 3.07 C
3396 03-04-2008 08:33:01 5.9 C 81 % 2.9 C
3397 03-04-2008 08:45:02 6 C 81 % 2.99 C
3398 03-04-2008 08:57:02 6.1 C 81 % 3.09 C
3399 03-04-2008 09:09:02 6.3 C 81 % 3.29 C
3400 03-04-2008 09:21:02 6.6 C 79 % 3.23 C
Sensor: Nr:Datum:Temp:Feuchte:Taupunkt:
Aussen-T/F 3401 03-04-2008 09:33:02 6.6 C 77 % 2.86 C
3402 03-04-2008 09:45:02 6.8 C 77 % 3.06 C
3403 03-04-2008 09:57:02 6.9 C 77 % 3.16 C
3404 03-04-2008 10:09:02 7.1 C 75 % 2.98 C
3405 03-04-2008 10:21:02 6.9 C 75 % 2.78 C
3406 03-04-2008 10:33:02 7 C 76 % 3.07 C
3407 03-04-2008 10:45:02 7.1 C 75 % 2.98 C
3408 03-04-2008 10:57:02 7 C 74 % 2.69 C
3409 03-04-2008 11:09:03 7.3 C 78 % 3.73 C
3410 03-04-2008 11:21:02 7.9 C 76 % 3.94 C
3411 03-04-2008 11:33:02 7.7 C 74 % 3.37 C
3412 03-04-2008 11:45:01 8.3 C 70 % 3.16 C
3413 03-04-2008 11:57:01 8 C 70 % 2.87 C
3414 03-04-2008 12:09:02 8.2 C 67 % 2.45 C
3415 03-04-2008 12:21:01 8.6 C 64 % 2.19 C
3416 03-04-2008 12:33:01 8.5 C 66 % 2.52 C
3417 03-04-2008 12:45:01 7.8 C 72 % 3.08 C
3418 03-04-2008 12:57:01 8 C 77 % 4.22 C
3419 03-04-2008 13:09:02 8.1 C 75 % 3.94 C
3420 03-04-2008 13:21:01 7.6 C 74 % 3.27 C
3421 03-04-2008 13:33:01 7.9 C 74 % 3.56 C
3422 03-04-2008 13:45:02 9 C 67 % 3.21 C
3423 03-04-2008 13:57:02 9.3 C 62 % 2.4 C
3424 03-04-2008 14:09:03 9.7 C 62 % 2.78 C
3425 03-04-2008 14:21:02 8.2 C 70 % 3.06 C
Sensor: Nr:Datum:Temp:Feuchte:Taupunkt:
Aussen-T/F 3426 03-04-2008 14:33:03 7.6 C 78 % 4.02 C
3427 03-04-2008 14:45:03 8 C 80 % 4.77 C
3428 03-04-2008 14:57:03 8.7 C 81 % 5.63 C
3429 03-04-2008 15:09:02 9.2 C 70 % 4.02 C
3430 03-04-2008 15:21:02 8.7 C 70 % 3.54 C
3431 03-04-2008 15:33:03 8.6 C 71 % 3.65 C
3432 03-04-2008 15:45:02 8.5 C 69 % 3.15 C
3433 03-04-2008 15:57:02 8.4 C 66 % 2.43 C
3434 03-04-2008 16:09:02 8.4 C 66 % 2.43 C
3435 03-04-2008 16:21:02 8.3 C 64 % 1.9 C
3436 03-04-2008 16:33:02 8.7 C 64 % 2.28 C
3437 03-04-2008 16:45:02 8.6 C 63 % 1.97 C
3438 03-04-2008 16:57:02 8.7 C 64 % 2.28 C
3439 03-04-2008 17:09:02 8.9 C 65 % 2.69 C
3440 03-04-2008 17:21:01 9.2 C 64 % 2.76 C
3441 03-04-2008 17:33:02 9.2 C 64 % 2.76 C
3442 03-04-2008 17:45:02 9.5 C 63 % 2.82 C
3443 03-04-2008 17:57:03 9.2 C 62 % 2.31 C
3444 03-04-2008 18:09:02 8.3 C 69 % 2.96 C
3445 03-04-2008 18:21:02 9.1 C 68 % 3.52 C
3446 03-04-2008 18:33:02 9.1 C 66 % 3.09 C
3447 03-04-2008 18:45:02 9.9 C 61 % 2.74 C
3448 03-04-2008 18:57:03 10.1 C 60 % 2.7 C
3449 03-04-2008 19:09:02 9.1 C 62 % 2.22 C
3450 03-04-2008 19:21:02 9.1 C 65 % 2.88 C
Sensor: Nr:Datum:Temp:Feuchte:Taupunkt:
Aussen-T/F 3451 03-04-2008 19:33:02 8.6 C 66 % 2.62 C
3452 03-04-2008 19:45:02 8.1 C 67 % 2.35 C
3453 03-04-2008 19:57:02 7.8 C 69 % 2.48 C
3454 03-04-2008 20:09:02 7.6 C 70 % 2.49 C
3455 03-04-2008 20:21:03 7.8 C 70 % 2.68 C
3456 03-04-2008 20:33:02 7.8 C 71 % 2.88 C
3457 03-04-2008 20:45:01 7.8 C 69 % 2.48 C
3458 03-04-2008 20:57:01 7.9 C 69 % 2.57 C
3459 03-04-2008 21:09:01 7.9 C 69 % 2.57 C
3460 03-04-2008 21:21:02 7.9 C 69 % 2.57 C
3461 03-04-2008 21:33:01 7.9 C 68 % 2.37 C
3462 03-04-2008 21:45:03 7.9 C 68 % 2.37 C
3463 03-04-2008 21:57:03 7.9 C 68 % 2.37 C
3464 03-04-2008 22:09:03 7.9 C 69 % 2.57 C
3465 03-04-2008 22:21:02 7.8 C 70 % 2.68 C
3466 03-04-2008 22:33:03 7.6 C 70 % 2.49 C
3467 03-04-2008 22:46:01 7.3 C 71 % 2.4 C
3468 03-04-2008 22:58:01 6.9 C 73 % 2.4 C
3469 03-04-2008 23:10:01 6.8 C 75 % 2.69 C
3470 03-04-2008 23:22:01 6.8 C 76 % 2.87 C
3471 03-04-2008 23:34:02 7 C 74 % 2.69 C
3472 03-04-2008 23:46:02 7.1 C 74 % 2.79 C
3473 03-04-2008 23:58:02 7.1 C 74 % 2.79 C
3474 04-04-2008 00:10:02 7.2 C 75 % 3.07 C
3475 04-04-2008 00:22:02 7.1 C 75 % 2.98 C
Sensor: Nr:Datum:Temp:Feuchte:Taupunkt:
Aussen-T/F 3476 04-04-2008 00:34:02 7.1 C 75 % 2.98 C
3477 04-04-2008 00:46:02 7.1 C 75 % 2.98 C
3478 04-04-2008 00:58:02 7.1 C 76 % 3.16 C
3479 04-04-2008 01:10:02 7 C 76 % 3.07 C
3480 04-04-2008 01:22:02 7 C 76 % 3.07 C
3481 04-04-2008 01:34:02 6.9 C 77 % 3.16 C
3482 04-04-2008 01:46:02 6.8 C 77 % 3.06 C
3483 04-04-2008 01:58:02 6.8 C 77 % 3.06 C
3484 04-04-2008 02:10:02 6.8 C 77 % 3.06 C
3485 04-04-2008 02:22:02 6.6 C 77 % 2.86 C
3486 04-04-2008 02:34:02 6.6 C 77 % 2.86 C
3487 04-04-2008 02:46:02 6.5 C 77 % 2.77 C
3488 04-04-2008 02:58:02 6.4 C 77 % 2.67 C
3489 04-04-2008 03:10:02 6.6 C 78 % 3.05 C
3490 04-04-2008 03:22:03 6.7 C 78 % 3.14 C
3491 04-04-2008 03:34:03 6.6 C 78 % 3.05 C
3492 04-04-2008 03:46:03 6.6 C 79 % 3.23 C
3493 04-04-2008 03:58:03 6.6 C 79 % 3.23 C
3494 04-04-2008 04:10:03 6.6 C 79 % 3.23 C
3495 04-04-2008 04:22:03 6.7 C 79 % 3.32 C
3496 04-04-2008 04:34:03 6.7 C 79 % 3.32 C
3497 04-04-2008 04:46:03 6.8 C 79 % 3.42 C
3498 04-04-2008 04:58:03 6.8 C 78 % 3.24 C
3499 04-04-2008 05:10:03 6.8 C 78 % 3.24 C
3500 04-04-2008 05:22:03 6.9 C 78 % 3.34 C
Sensor: Nr:Datum:Temp:Feuchte:Taupunkt:
Aussen-T/F 3501 04-04-2008 05:34:03 6.9 C 78 % 3.34 C
3502 04-04-2008 05:46:03 6.9 C 78 % 3.34 C
3503 04-04-2008 05:58:03 6.9 C 78 % 3.34 C
3504 04-04-2008 06:10:03 6.8 C 79 % 3.42 C
3505 04-04-2008 06:22:03 6.8 C 80 % 3.6 C
3506 04-04-2008 06:34:03 6.6 C 80 % 3.4 C
3507 04-04-2008 06:46:02 6.7 C 80 % 3.5 C
3508 04-04-2008 06:58:02 6.8 C 80 % 3.6 C
3509 04-04-2008 07:10:02 6.8 C 80 % 3.6 C
3510 04-04-2008 07:22:02 6.8 C 79 % 3.42 C
3511 04-04-2008 07:34:02 6.8 C 79 % 3.42 C
3512 04-04-2008 07:46:02 6.8 C 79 % 3.42 C
3513 04-04-2008 07:58:02 6.8 C 79 % 3.42 C
3514 04-04-2008 08:10:02 7 C 78 % 3.43 C
3515 04-04-2008 08:22:01 7 C 77 % 3.25 C
3516 04-04-2008 08:34:02 6.9 C 76 % 2.97 C
3517 04-04-2008 08:46:02 6.8 C 76 % 2.87 C
3518 04-04-2008 08:58:03 6.9 C 76 % 2.97 C
3519 04-04-2008 09:10:01 7.3 C 73 % 2.79 C
3520 04-04-2008 09:22:02 7.3 C 71 % 2.4 C
3521 04-04-2008 09:34:02 7.6 C 70 % 2.49 C
3522 04-04-2008 09:46:02 7.9 C 69 % 2.57 C
3523 04-04-2008 09:58:02 8.1 C 66 % 2.14 C
3524 04-04-2008 10:10:02 8.6 C 64 % 2.19 C
3525 04-04-2008 10:22:01 9.2 C 62 % 2.31 C
Sensor: Nr:Datum:Temp:Feuchte:Taupunkt:
Aussen-T/F 3526 04-04-2008 10:34:02 9.7 C 61 % 2.55 C
3527 04-04-2008 10:46:02 9.2 C 58 % 1.38 C
3528 04-04-2008 10:58:02 9.3 C 60 % 1.95 C
3529 04-04-2008 11:10:02 9.6 C 59 % 1.99 C
3530 04-04-2008 11:22:02 9.9 C 57 % 1.79 C
3531 04-04-2008 11:34:02 9.6 C 56 % 1.27 C
3532 04-04-2008 11:46:02 10.3 C 55 % 1.67 C
3533 04-04-2008 11:58:03 10.2 C 52 % 0.8 C
3534 04-04-2008 12:10:01 10.1 C 52 % 0.7 C
3535 04-04-2008 12:22:02 10.2 C 52 % 0.8 C
3536 04-04-2008 12:34:02 10.4 C 51 % 0.71 C
3537 04-04-2008 12:46:02 12.1 C 47 % 1.14 C
3538 04-04-2008 12:58:02 11.3 C 49 % 0.99 C
3539 04-04-2008 13:10:02 11.7 C 49 % 1.36 C
3540 04-04-2008 13:22:03 12 C 47 % 1.05 C
3541 04-04-2008 13:34:02 12.4 C 46 % 1.12 C
3542 04-04-2008 13:46:02 12.5 C 45 % 0.91 C
3543 04-04-2008 13:58:02 13.2 C 45 % 1.54 C
3544 04-04-2008 14:10:02 12.5 C 45 % 0.91 C
3545 04-04-2008 14:22:01 12.7 C 45 % 1.09 C
3546 04-04-2008 14:34:02 12.8 C 44 % 0.87 C
3547 04-04-2008 14:46:02 13.2 C 44 % 1.23 C
3548 04-04-2008 14:58:02 12.5 C 42 % -0.05 C
3549 04-04-2008 15:10:01 13.2 C 43 % 0.91 C
3550 04-04-2008 15:22:01 13.8 C 43 % 1.45 C
Sensor: Nr:Datum:Temp:Feuchte:Taupunkt:
Aussen-T/F 3551 04-04-2008 15:34:02 13.8 C 39 % 0.1 C
3552 04-04-2008 15:46:03 13 C 41 % 0.07 C
3553 04-04-2008 15:58:03 13.7 C 40 % 0.36 C
3554 04-04-2008 16:10:02 13 C 41 % 0.07 C
3555 04-04-2008 16:22:02 12.5 C 43 % 0.28 C
3556 04-04-2008 16:34:02 12.9 C 42 % 0.31 C
3557 04-04-2008 16:46:02 12.6 C 42 % 0.04 C
3558 04-04-2008 16:58:02 12 C 43 % -0.17 C
3559 04-04-2008 17:10:03 11.8 C 46 % 0.57 C
3560 04-04-2008 17:22:02 11.7 C 48 % 1.07 C
3561 04-04-2008 17:34:02 11.7 C 49 % 1.36 C
3562 04-04-2008 17:46:01 11.8 C 49 % 1.45 C
3563 04-04-2008 17:58:01 11.3 C 51 % 1.54 C
3564 04-04-2008 18:10:01 10.8 C 51 % 1.08 C
3565 04-04-2008 18:22:02 11 C 49 % 0.71 C
3566 04-04-2008 18:34:02 11.1 C 50 % 1.08 C
3567 04-04-2008 18:46:02 10.9 C 53 % 1.71 C
3568 04-04-2008 18:58:03 10.8 C 53 % 1.62 C
3569 04-04-2008 19:10:02 10.8 C 54 % 1.88 C
3570 04-04-2008 19:22:02 10.8 C 55 % 2.13 C
3571 04-04-2008 19:34:02 10.8 C 56 % 2.39 C
3572 04-04-2008 19:46:02 10.7 C 58 % 2.79 C
3573 04-04-2008 19:58:02 10.4 C 58 % 2.5 C
3574 04-04-2008 20:10:02 10.2 C 60 % 2.79 C
3575 04-04-2008 20:22:02 9.9 C 61 % 2.74 C
Sensor: Nr:Datum:Temp:Feuchte:Taupunkt:
Aussen-T/F 3576 04-04-2008 20:34:02 9.8 C 63 % 3.1 C
3577 04-04-2008 20:46:01 9.8 C 63 % 3.1 C
3578 04-04-2008 20:58:01 9.8 C 65 % 3.54 C
3579 04-04-2008 21:10:02 9.6 C 66 % 3.57 C
3580 04-04-2008 21:22:02 9.1 C 72 % 4.33 C
3581 04-04-2008 21:34:01 8.6 C 77 % 4.8 C
3582 04-04-2008 21:46:01 8.6 C 79 % 5.17 C
3583 04-04-2008 21:58:01 8.8 C 80 % 5.55 C
3584 04-04-2008 22:10:02 8.8 C 81 % 5.72 C
3585 04-04-2008 22:23:04 8.9 C 81 % 5.82 C
3586 04-04-2008 22:35:04 8.9 C 81 % 5.82 C
3587 04-04-2008 22:47:04 8.9 C 80 % 5.64 C
3588 04-04-2008 22:59:04 9 C 79 % 5.56 C
3589 04-04-2008 23:11:04 8.9 C 79 % 5.46 C
3590 04-04-2008 23:23:04 8.7 C 77 % 4.9 C
3591 04-04-2008 23:35:04 8.7 C 78 % 5.08 C
3592 04-04-2008 23:47:04 8.5 C 78 % 4.89 C
3593 04-04-2008 23:59:04 8.5 C 77 % 4.71 C
3594 05-04-2008 00:11:04 8.5 C 77 % 4.71 C
3595 05-04-2008 00:23:04 8.4 C 76 % 4.42 C
3596 05-04-2008 00:35:04 8.4 C 77 % 4.61 C
3597 05-04-2008 00:47:04 8.5 C 77 % 4.71 C
3598 05-04-2008 00:59:05 8.4 C 77 % 4.61 C
3599 05-04-2008 01:11:05 8.4 C 77 % 4.61 C
3600 05-04-2008 01:23:05 8.4 C 77 % 4.61 C
Sensor: Nr:Datum:Temp:Feuchte:Taupunkt:
Aussen-T/F 3601 05-04-2008 01:35:05 8.2 C 78 % 4.6 C
3602 05-04-2008 01:47:05 8.4 C 78 % 4.79 C
3603 05-04-2008 01:59:05 8.2 C 79 % 4.78 C
3604 05-04-2008 02:11:05 8.1 C 81 % 5.04 C
3605 05-04-2008 02:23:05 8.1 C 82 % 5.22 C
3606 05-04-2008 02:35:05 7.8 C 84 % 5.27 C
3607 05-04-2008 02:47:05 7.8 C 84 % 5.27 C
3608 05-04-2008 02:59:05 7.7 C 85 % 5.34 C
3609 05-04-2008 03:11:05 7.6 C 86 % 5.41 C
3610 05-04-2008 03:23:05 7.7 C 87 % 5.68 C
3611 05-04-2008 03:35:05 7.7 C 87 % 5.68 C
3612 05-04-2008 03:47:05 7.7 C 87 % 5.68 C
3613 05-04-2008 03:59:05 7.6 C 87 % 5.58 C
3614 05-04-2008 04:11:05 7.5 C 87 % 5.48 C
3615 05-04-2008 04:23:05 7.5 C 88 % 5.64 C
3616 05-04-2008 04:35:05 7.6 C 89 % 5.91 C
3617 05-04-2008 04:47:06 7.6 C 89 % 5.91 C
3618 05-04-2008 04:59:06 7.5 C 88 % 5.64 C
3619 05-04-2008 05:11:06 7.5 C 88 % 5.64 C
3620 05-04-2008 05:23:06 7.6 C 88 % 5.74 C
3621 05-04-2008 05:35:06 7.5 C 88 % 5.64 C
3622 05-04-2008 05:47:06 7.4 C 88 % 5.55 C
3623 05-04-2008 05:59:06 7.4 C 88 % 5.55 C
3624 05-04-2008 06:11:06 7.3 C 88 % 5.45 C
3625 05-04-2008 06:23:06 7.2 C 89 % 5.51 C
Sensor: Nr:Datum:Temp:Feuchte:Taupunkt:
Aussen-T/F 3626 05-04-2008 06:35:06 7.1 C 89 % 5.41 C
3627 05-04-2008 06:47:06 7 C 89 % 5.31 C
3628 05-04-2008 06:59:06 7 C 89 % 5.31 C
3629 05-04-2008 07:11:06 7.1 C 90 % 5.57 C
3630 05-04-2008 07:23:06 7.3 C 90 % 5.77 C
3631 05-04-2008 07:35:06 7.4 C 90 % 5.87 C
3632 05-04-2008 07:47:06 7.6 C 89 % 5.91 C
3633 05-04-2008 07:59:06 7.8 C 87 % 5.78 C
3634 05-04-2008 08:11:06 8.2 C 84 % 5.66 C
3635 05-04-2008 08:23:06 8.3 C 82 % 5.41 C
3636 05-04-2008 08:35:03 8.4 C 81 % 5.33 C
3637 05-04-2008 08:47:02 8.9 C 79 % 5.46 C
3638 05-04-2008 08:59:02 9.2 C 77 % 5.38 C
3639 05-04-2008 09:11:03 9.4 C 76 % 5.39 C
3640 05-04-2008 09:23:03 9.3 C 76 % 5.29 C
3641 05-04-2008 09:35:02 9.6 C 75 % 5.39 C
3642 05-04-2008 09:47:02 9.6 C 74 % 5.2 C
3643 05-04-2008 09:59:02 9.4 C 74 % 5.01 C
3644 05-04-2008 10:11:01 9.5 C 75 % 5.3 C
3645 05-04-2008 10:23:01 9.4 C 75 % 5.2 C
3646 05-04-2008 10:35:02 9.6 C 75 % 5.39 C
3647 05-04-2008 10:47:02 9.6 C 74 % 5.2 C
3648 05-04-2008 10:59:02 9.5 C 76 % 5.49 C
3649 05-04-2008 11:11:02 9.5 C 76 % 5.49 C
3650 05-04-2008 11:23:02 9.3 C 76 % 5.29 C
Sensor: Nr:Datum:Temp:Feuchte:Taupunkt:
Aussen-T/F 3651 05-04-2008 11:35:02 9.1 C 77 % 5.29 C
3652 05-04-2008 11:47:02 9.1 C 78 % 5.47 C
3653 05-04-2008 11:59:02 9.2 C 78 % 5.57 C
3654 05-04-2008 12:11:01 9.1 C 78 % 5.47 C
3655 05-04-2008 12:23:01 9.2 C 78 % 5.57 C
3656 05-04-2008 12:35:02 9.6 C 77 % 5.77 C
3657 05-04-2008 12:47:02 10 C 73 % 5.39 C
3658 05-04-2008 12:59:02 10.2 C 71 % 5.18 C
3659 05-04-2008 13:11:02 10.3 C 71 % 5.28 C
3660 05-04-2008 13:23:02 10.6 C 68 % 4.95 C
3661 05-04-2008 13:35:02 10.4 C 68 % 4.76 C
3662 05-04-2008 13:47:02 10.1 C 69 % 4.68 C
3663 05-04-2008 13:59:02 9.9 C 69 % 4.49 C
3664 05-04-2008 14:11:02 9.7 C 71 % 4.7 C
3665 05-04-2008 14:23:02 9.5 C 73 % 4.91 C
3666 05-04-2008 14:35:02 9.8 C 75 % 5.59 C
3667 05-04-2008 14:47:02 10.3 C 72 % 5.48 C
3668 05-04-2008 14:59:02 9.9 C 74 % 5.49 C
3669 05-04-2008 15:11:02 9.3 C 78 % 5.67 C
3670 05-04-2008 15:23:02 9.2 C 79 % 5.75 C
3671 05-04-2008 15:35:02 8.9 C 83 % 6.17 C
3672 05-04-2008 15:47:02 8.9 C 85 % 6.52 C
3673 05-04-2008 15:59:02 8.9 C 85 % 6.52 C
3674 05-04-2008 16:11:02 8.9 C 86 % 6.69 C
3675 05-04-2008 16:23:01 7.1 C 83 % 4.41 C
Sensor: Nr:Datum:Temp:Feuchte:Taupunkt:
Aussen-T/F 3676 05-04-2008 16:35:02 6.9 C 87 % 4.89 C
3677 05-04-2008 16:47:02 6.6 C 88 % 4.76 C
3678 05-04-2008 16:59:02 6.5 C 88 % 4.66 C
3679 05-04-2008 17:11:02 6.7 C 89 % 5.02 C
3680 05-04-2008 17:23:01 6.7 C 90 % 5.18 C
3681 05-04-2008 17:35:01 6.7 C 91 % 5.34 C
3682 05-04-2008 17:47:02 6.5 C 91 % 5.14 C
3683 05-04-2008 17:59:02 6.3 C 90 % 4.78 C
3684 05-04-2008 18:11:03 6.3 C 91 % 4.94 C
3685 05-04-2008 18:23:02 6.4 C 91 % 5.04 C
3686 05-04-2008 18:35:02 6.2 C 91 % 4.84 C
3687 05-04-2008 18:47:01 5.9 C 92 % 4.7 C
3688 05-04-2008 18:59:01 5.7 C 91 % 4.35 C
3689 05-04-2008 19:11:02 5.5 C 91 % 4.15 C
3690 05-04-2008 19:23:01 5.4 C 92 % 4.21 C
3691 05-04-2008 19:35:01 5.6 C 93 % 4.56 C
3692 05-04-2008 19:47:01 5.4 C 93 % 4.36 C
3693 05-04-2008 19:59:01 5.5 C 93 % 4.46 C
3694 05-04-2008 20:11:01 5.5 C 93 % 4.46 C
3695 05-04-2008 20:23:02 5.4 C 93 % 4.36 C
3696 05-04-2008 20:35:01 5.2 C 94 % 4.32 C
3697 05-04-2008 20:47:02 5.1 C 93 % 4.06 C
3698 05-04-2008 20:59:02 5 C 93 % 3.96 C
3699 05-04-2008 21:11:02 4.8 C 93 % 3.77 C
3700 05-04-2008 21:23:02 4.6 C 93 % 3.57 C
Sensor: Nr:Datum:Temp:Feuchte:Taupunkt:
Aussen-T/F 3701 05-04-2008 21:35:02 4.2 C 93 % 3.17 C
3702 05-04-2008 21:47:02 4.1 C 93 % 3.07 C
3703 05-04-2008 21:59:03 3.8 C 94 % 2.93 C
3704 05-04-2008 22:11:02 3.8 C 94 % 2.93 C
3705 05-04-2008 22:23:02 3.6 C 94 % 2.73 C
3706 05-04-2008 22:35:02 3.3 C 94 % 2.43 C
3707 05-04-2008 22:47:02 3.1 C 94 % 2.23 C
3708 05-04-2008 22:59:02 3 C 95 % 2.28 C
3709 05-04-2008 23:11:02 3.3 C 95 % 2.58 C
3710 05-04-2008 23:23:01 3.2 C 95 % 2.48 C
3711 05-04-2008 23:35:02 3 C 95 % 2.28 C
3712 05-04-2008 23:48:03 3.2 C 95 % 2.48 C
3713 06-04-2008 00:00:03 3.1 C 95 % 2.38 C
3714 06-04-2008 00:12:03 3.2 C 95 % 2.48 C
3715 06-04-2008 00:24:03 3.5 C 95 % 2.78 C
3716 06-04-2008 00:36:03 3.8 C 95 % 3.07 C
3717 06-04-2008 00:48:03 3.8 C 95 % 3.07 C
3718 06-04-2008 01:00:03 3.7 C 95 % 2.98 C
3719 06-04-2008 01:12:03 3.8 C 95 % 3.07 C
3720 06-04-2008 01:24:03 3.8 C 95 % 3.07 C
3721 06-04-2008 01:36:03 3.9 C 95 % 3.17 C
3722 06-04-2008 01:48:03 4 C 95 % 3.27 C
3723 06-04-2008 02:00:04 3.8 C 95 % 3.07 C
3724 06-04-2008 02:12:04 3.7 C 95 % 2.98 C
3725 06-04-2008 02:24:04 3.7 C 95 % 2.98 C
Sensor: Nr:Datum:Temp:Feuchte:Taupunkt:
Aussen-T/F 3726 06-04-2008 02:36:04 3.7 C 95 % 2.98 C
3727 06-04-2008 02:48:04 3.6 C 95 % 2.88 C
3728 06-04-2008 03:00:04 3.5 C 95 % 2.78 C
3729 06-04-2008 03:12:04 3.6 C 95 % 2.88 C
3730 06-04-2008 03:24:04 3.6 C 95 % 2.88 C
3731 06-04-2008 03:36:04 3.7 C 95 % 2.98 C
3732 06-04-2008 03:48:04 3.7 C 95 % 2.98 C
3733 06-04-2008 04:00:04 3.6 C 95 % 2.88 C
3734 06-04-2008 04:12:04 3.6 C 95 % 2.88 C
3735 06-04-2008 04:24:04 3.7 C 95 % 2.98 C
3736 06-04-2008 04:36:04 3.7 C 95 % 2.98 C
3737 06-04-2008 04:48:04 3.6 C 95 % 2.88 C
3738 06-04-2008 05:00:04 3.5 C 95 % 2.78 C
3739 06-04-2008 05:12:04 3.6 C 95 % 2.88 C
3740 06-04-2008 05:24:04 3.6 C 95 % 2.88 C
3741 06-04-2008 05:36:04 3.5 C 95 % 2.78 C
3742 06-04-2008 05:48:04 3.4 C 95 % 2.68 C
3743 06-04-2008 06:00:04 3.4 C 95 % 2.68 C
3744 06-04-2008 06:12:05 3.3 C 95 % 2.58 C
3745 06-04-2008 06:24:05 3 C 95 % 2.28 C
3746 06-04-2008 06:36:05 2.6 C 95 % 1.88 C
3747 06-04-2008 06:48:05 2.4 C 95 % 1.68 C
3748 06-04-2008 07:00:05 2.4 C 95 % 1.68 C
3749 06-04-2008 07:12:05 2.3 C 95 % 1.58 C
3750 06-04-2008 07:24:05 2.4 C 95 % 1.68 C
Sensor: Nr:Datum:Temp:Feuchte:Taupunkt:
Aussen-T/F 3751 06-04-2008 07:36:05 2.4 C 95 % 1.68 C
3752 06-04-2008 07:48:05 2.4 C 95 % 1.68 C
3753 06-04-2008 08:00:05 2.4 C 95 % 1.68 C
3754 06-04-2008 08:12:05 2.3 C 95 % 1.58 C
3755 06-04-2008 08:24:05 1.7 C 95 % 0.99 C
3756 06-04-2008 08:36:05 1.8 C 95 % 1.09 C
3757 06-04-2008 08:48:02 2.1 C 95 % 1.38 C
3758 06-04-2008 09:00:02 2.3 C 95 % 1.58 C
3759 06-04-2008 09:12:02 2.1 C 95 % 1.38 C
3760 06-04-2008 09:24:02 2 C 95 % 1.29 C
3761 06-04-2008 09:36:02 2.3 C 95 % 1.58 C
3762 06-04-2008 09:48:02 2.6 C 95 % 1.88 C
3763 06-04-2008 10:00:03 3 C 95 % 2.28 C
3764 06-04-2008 10:12:02 2.9 C 95 % 2.18 C
3765 06-04-2008 10:24:01 2.9 C 95 % 2.18 C
3766 06-04-2008 10:36:02 3 C 95 % 2.28 C
3767 06-04-2008 10:48:02 3.4 C 95 % 2.68 C
3768 06-04-2008 11:00:02 3.6 C 95 % 2.88 C
3769 06-04-2008 11:12:02 3.8 C 95 % 3.07 C
3770 06-04-2008 11:24:02 4.2 C 95 % 3.47 C
3771 06-04-2008 11:36:02 5.1 C 94 % 4.22 C
3772 06-04-2008 11:48:02 5.7 C 93 % 4.66 C
3773 06-04-2008 12:00:02 6.3 C 89 % 4.62 C
3774 06-04-2008 12:12:01 6.6 C 84 % 4.1 C
3775 06-04-2008 12:24:01 6.9 C 79 % 3.52 C
Sensor: Nr:Datum:Temp:Feuchte:Taupunkt:
Aussen-T/F 3776 06-04-2008 12:36:02 6.8 C 77 % 3.06 C
3777 06-04-2008 12:48:02 7.3 C 74 % 2.98 C
3778 06-04-2008 13:00:02 7.6 C 65 % 1.45 C
3779 06-04-2008 13:12:02 7.4 C 62 % 0.61 C
3780 06-04-2008 13:24:01 4.8 C 73 % 0.38 C
3781 06-04-2008 13:36:02 4.2 C 80 % 1.07 C
3782 06-04-2008 13:48:02 3.9 C 84 % 1.45 C
3783 06-04-2008 14:00:02 4.1 C 87 % 2.14 C
3784 06-04-2008 14:12:02 4.4 C 88 % 2.59 C
3785 06-04-2008 14:24:01 3 C 86 % 0.89 C
3786 06-04-2008 14:36:01 3.3 C 89 % 1.67 C
3787 06-04-2008 14:48:01 3.6 C 90 % 2.12 C
3788 06-04-2008 15:00:01 5.1 C 91 % 3.76 C
3789 06-04-2008 15:12:01 6.3 C 88 % 4.46 C
3790 06-04-2008 15:24:02 6.7 C 83 % 4.02 C
3791 06-04-2008 15:36:01 6.9 C 81 % 3.87 C
3792 06-04-2008 15:48:02 6.8 C 79 % 3.42 C
3793 06-04-2008 16:00:02 6.7 C 76 % 2.78 C
3794 06-04-2008 16:12:02 6.4 C 77 % 2.67 C
3795 06-04-2008 16:24:02 6.2 C 76 % 2.29 C
3796 06-04-2008 16:36:02 5.8 C 77 % 2.09 C
3797 06-04-2008 16:48:02 5.8 C 78 % 2.27 C
3798 06-04-2008 17:00:02 6 C 80 % 2.82 C
3799 06-04-2008 17:12:02 4.4 C 73 % 0 C
3800 06-04-2008 17:24:03 3.1 C 78 % -0.35 C
Sensor: Nr:Datum:Temp:Feuchte:Taupunkt:
Aussen-T/F 3801 06-04-2008 17:36:02 2.4 C 83 % -0.18 C
3802 06-04-2008 17:48:02 3.1 C 88 % 1.31 C
3803 06-04-2008 18:00:03 3.6 C 90 % 2.12 C
3804 06-04-2008 18:12:01 3.9 C 89 % 2.26 C
3805 06-04-2008 18:24:01 5.3 C 87 % 3.32 C
3806 06-04-2008 18:36:02 5.4 C 80 % 2.23 C
3807 06-04-2008 18:48:02 5.5 C 79 % 2.16 C
3808 06-04-2008 19:00:02 5.6 C 77 % 1.89 C
3809 06-04-2008 19:12:02 4.4 C 78 % 0.91 C
3810 06-04-2008 19:24:02 4 C 82 % 1.21 C
3811 06-04-2008 19:36:02 4 C 85 % 1.71 C
3812 06-04-2008 19:48:02 3.8 C 87 % 1.84 C
3813 06-04-2008 20:00:02 3.6 C 88 % 1.8 C
3814 06-04-2008 20:12:02 3.3 C 88 % 1.51 C
3815 06-04-2008 20:24:02 3.2 C 88 % 1.41 C
3816 06-04-2008 20:36:01 2.8 C 90 % 1.33 C
3817 06-04-2008 20:48:01 2.6 C 90 % 1.13 C
3818 06-04-2008 21:00:01 2.5 C 91 % 1.18 C
3819 06-04-2008 21:12:02 2.4 C 91 % 1.08 C
3820 06-04-2008 21:24:02 2.5 C 92 % 1.34 C
3821 06-04-2008 21:36:01 2.6 C 92 % 1.43 C
3822 06-04-2008 21:48:02 2.7 C 92 % 1.53 C
3823 06-04-2008 22:00:02 2.8 C 93 % 1.78 C
3824 06-04-2008 22:12:01 2.8 C 93 % 1.78 C
3825 06-04-2008 22:24:02 2.9 C 93 % 1.88 C
Sensor: Nr:Datum:Temp:Feuchte:Taupunkt:
Aussen-T/F 3826 06-04-2008 22:36:02 3 C 93 % 1.98 C
3827 06-04-2008 22:49:03 2.9 C 93 % 1.88 C
3828 06-04-2008 23:01:03 2.8 C 93 % 1.78 C
3829 06-04-2008 23:13:03 2.8 C 93 % 1.78 C
3830 06-04-2008 23:25:03 2.8 C 93 % 1.78 C
3831 06-04-2008 23:37:03 2.9 C 93 % 1.88 C
3832 06-04-2008 23:49:03 2.9 C 92 % 1.73 C
3833 07-04-2008 00:01:03 2.8 C 91 % 1.48 C
3834 07-04-2008 00:13:03 2.7 C 91 % 1.38 C
3835 07-04-2008 00:25:03 2.7 C 91 % 1.38 C
3836 07-04-2008 00:37:03 2.6 C 92 % 1.43 C
3837 07-04-2008 00:49:04 2.6 C 92 % 1.43 C
3838 07-04-2008 01:01:04 2.5 C 92 % 1.34 C
3839 07-04-2008 01:13:04 2.3 C 92 % 1.14 C
3840 07-04-2008 01:25:04 2.1 C 93 % 1.09 C
3841 07-04-2008 01:37:04 2 C 93 % 0.99 C
3842 07-04-2008 01:49:04 2 C 94 % 1.14 C
3843 07-04-2008 02:01:04 1.6 C 94 % 0.74 C
3844 07-04-2008 02:13:04 1.1 C 94 % 0.24 C
3845 07-04-2008 02:25:04 0.6 C 94 % -0.25 C
3846 07-04-2008 02:37:04 0.4 C 95 % -0.31 C
3847 07-04-2008 02:49:04 0.3 C 95 % -0.4 C
3848 07-04-2008 03:01:04 0.3 C 95 % -0.4 C
3849 07-04-2008 03:13:04 0.4 C 95 % -0.31 C
3850 07-04-2008 03:25:04 0.4 C 95 % -0.31 C
Sensor: Nr:Datum:Temp:Feuchte:Taupunkt:
Aussen-T/F 3851 07-04-2008 03:37:04 0.3 C 95 % -0.4 C
3852 07-04-2008 03:49:04 0.3 C 95 % -0.4 C
3853 07-04-2008 04:01:04 0.2 C 95 % -0.5 C
3854 07-04-2008 04:13:04 0.1 C 95 % -0.6 C
3855 07-04-2008 04:25:04 0.1 C 95 % -0.6 C
3856 07-04-2008 04:37:04 0.1 C 95 % -0.6 C
3857 07-04-2008 04:49:04 0.1 C 95 % -0.6 C
3858 07-04-2008 05:01:05 0.1 C 95 % -0.6 C
3859 07-04-2008 05:13:05 0.1 C 95 % -0.6 C
3860 07-04-2008 05:25:05 0.1 C 95 % -0.6 C
3861 07-04-2008 05:37:05 0 C 95 % -0.7 C
3862 07-04-2008 05:49:02 0 C 95 % -0.7 C
3863 07-04-2008 06:01:02 0.1 C 95 % -0.6 C
3864 07-04-2008 06:13:02 0 C 95 % -0.7 C
3865 07-04-2008 06:25:01 0 C 95 % -0.7 C
3866 07-04-2008 06:37:02 0.1 C 95 % -0.6 C
3867 07-04-2008 06:49:02 0.1 C 95 % -0.6 C
3868 07-04-2008 07:01:02 0.1 C 95 % -0.6 C
3869 07-04-2008 07:13:02 0.1 C 95 % -0.6 C
3870 07-04-2008 07:25:02 0.1 C 95 % -0.6 C
3871 07-04-2008 07:37:02 0.1 C 95 % -0.6 C
3872 07-04-2008 07:49:01 0.1 C 95 % -0.6 C
3873 07-04-2008 08:01:01 0.1 C 95 % -0.6 C
3874 07-04-2008 08:13:01 0.1 C 95 % -0.6 C
3875 07-04-2008 08:25:02 0.1 C 95 % -0.6 C
Sensor: Nr:Datum:Temp:Feuchte:Taupunkt:
Aussen-T/F 3876 07-04-2008 08:37:01 0.2 C 95 % -0.5 C
3877 07-04-2008 08:49:02 0.2 C 95 % -0.5 C
3878 07-04-2008 09:01:02 0.3 C 95 % -0.4 C
3879 07-04-2008 09:13:02 0.3 C 95 % -0.4 C
3880 07-04-2008 09:25:02 0.4 C 95 % -0.31 C
3881 07-04-2008 09:37:02 0.5 C 95 % -0.21 C
3882 07-04-2008 09:49:01 0.5 C 95 % -0.21 C
3883 07-04-2008 10:01:02 0.4 C 95 % -0.31 C
3884 07-04-2008 10:13:03 0.2 C 95 % -0.5 C
3885 07-04-2008 10:25:01 0.3 C 95 % -0.4 C
3886 07-04-2008 10:37:02 0.3 C 95 % -0.4 C
3887 07-04-2008 10:49:03 0.3 C 95 % -0.4 C
3888 07-04-2008 11:01:02 0.4 C 95 % -0.31 C
3889 07-04-2008 11:13:02 0.5 C 95 % -0.21 C
3890 07-04-2008 11:25:02 0.6 C 95 % -0.11 C
3891 07-04-2008 11:37:02 0.7 C 95 % -0.01 C
3892 07-04-2008 11:49:02 0.9 C 95 % 0.19 C
3893 07-04-2008 12:01:01 1 C 95 % 0.29 C